PWSweather.com
Personal Weather Stations
Station Observations
KNCPINNA2
Pinnacle , Pinnacle, NC 27043

Pinnacle Pinnacle, NC 27043

Lat: 36.352557, Lon: -80.4434349

Elevation: 898

Station Type: Ambient Weather WS-1090

Latest ConditionsUpdated 3:21:00 PM EDT Sunday, Apr 26, 2015
Currently Today's Max Today's Min Today's Average
Temperature 51.8°F11.0°C 52.9°F11.6°C 42.4°F5.8°C 45.2°F7.3°C
Dew Point 51.5°F10.8°C 52.6°F11.4°C 42.2°F5.7°C 45.0°F7.2°C
Winds Calm Calm 4.5 mph SE7.2 kmh SE - 0.3 mph 0.5 kmh
Wind Gusts 4.5 mph7.2 kmh 10.7 mph17.2 kmh - -
Humidity 99% 99% 99% 99%
Pressure 29.65 in1004.1 mb 29.65 in1004.1 mb 29.50 in999.0 mb -
Precipitation - 0.06 in1.5 mm - -
Hour Temp Dew Point Humidity Winds Wind Gusts Pressure Precip Precip Rate Daily Precip Total
03:21 PM 51.8°F11.0°C 51.5°F10.8°C 99% Calm Calm 4.5 mph7.2 kmh 29.65 in1004.1 mb 0.00 in0.0 mm 0.00 in0.0 mm 0.06 in1.5 mm
03:20 PM 51.8°F11.0°C 51.5°F10.8°C 99% Calm Calm 4.5 mph7.2 kmh 29.65 in1004.1 mb 0.00 in0.0 mm 0.00 in0.0 mm 0.06 in1.5 mm
03:19 PM 51.8°F11.0°C 51.5°F10.8°C 99% Calm Calm 4.5 mph7.2 kmh 29.64 in1003.7 mb 0.00 in0.0 mm 0.00 in0.0 mm 0.06 in1.5 mm
03:18 PM 51.8°F11.0°C 51.5°F10.8°C 99% 0.7 mph SSE1.1 kmh SSE 4.5 mph7.2 kmh 29.64 in1003.7 mb 0.00 in0.0 mm 0.00 in0.0 mm 0.06 in1.5 mm
03:17 PM 51.8°F11.0°C 51.5°F10.8°C 99% Calm Calm 4.5 mph7.2 kmh 29.64 in1003.7 mb 0.00 in0.0 mm 0.00 in0.0 mm 0.06 in1.5 mm
03:16 PM 51.8°F11.0°C 51.5°F10.8°C 99% Calm Calm 4.5 mph7.2 kmh 29.64 in1003.7 mb 0.00 in0.0 mm 0.00 in0.0 mm 0.06 in1.5 mm
03:15 PM 51.8°F11.0°C 51.5°F10.8°C 99% 2.2 mph SE3.5 kmh SE 4.5 mph7.2 kmh 29.64 in1003.7 mb 0.00 in0.0 mm 0.00 in0.0 mm 0.06 in1.5 mm
03:14 PM 51.8°F11.0°C 51.5°F10.8°C 99% 2.2 mph SE3.5 kmh SE 3.8 mph6.1 kmh 29.64 in1003.7 mb 0.00 in0.0 mm 0.00 in0.0 mm 0.06 in1.5 mm
03:13 PM 51.8°F11.0°C 51.5°F10.8°C 99% Calm Calm 3.8 mph6.1 kmh 29.64 in1003.7 mb 0.00 in0.0 mm 0.00 in0.0 mm 0.06 in1.5 mm
03:12 PM 51.8°F11.0°C 51.5°F10.8°C 99% 0.7 mph ESE1.1 kmh ESE 3.8 mph6.1 kmh 29.64 in1003.7 mb 0.00 in0.0 mm 0.00 in0.0 mm 0.06 in1.5 mm
03:11 PM 51.8°F11.0°C 51.5°F10.8°C 99% Calm Calm 3.8 mph6.1 kmh 29.64 in1003.7 mb 0.00 in0.0 mm 0.00 in0.0 mm 0.06 in1.5 mm
03:10 PM 51.8°F11.0°C 51.5°F10.8°C 99% 1.6 mph ESE2.6 kmh ESE 3.8 mph6.1 kmh 29.64 in1003.7 mb 0.00 in0.0 mm 0.00 in0.0 mm 0.06 in1.5 mm
03:09 PM 51.8°F11.0°C 51.5°F10.8°C 99% Calm Calm 3.1 mph5.0 kmh 29.64 in1003.7 mb 0.00 in0.0 mm 0.00 in0.0 mm 0.06 in1.5 mm
03:08 PM 51.8°F11.0°C 51.5°F10.8°C 99% Calm Calm 2.2 mph3.5 kmh 29.65 in1004.1 mb 0.00 in0.0 mm 0.00 in0.0 mm 0.06 in1.5 mm
03:07 PM 52.0°F11.1°C 51.7°F10.9°C 99% Calm Calm 2.2 mph3.5 kmh 29.64 in1003.7 mb 0.00 in0.0 mm 0.00 in0.0 mm 0.06 in1.5 mm
03:06 PM 52.0°F11.1°C 51.7°F10.9°C 99% Calm Calm 2.2 mph3.5 kmh 29.64 in1003.7 mb 0.00 in0.0 mm 0.00 in0.0 mm 0.06 in1.5 mm
03:05 PM 52.0°F11.1°C 51.7°F10.9°C 99% Calm Calm 2.2 mph3.5 kmh 29.64 in1003.7 mb 0.00 in0.0 mm 0.00 in0.0 mm 0.06 in1.5 mm
03:04 PM 52.0°F11.1°C 51.7°F10.9°C 99% Calm Calm 3.8 mph6.1 kmh 29.65 in1004.1 mb 0.00 in0.0 mm 0.00 in0.0 mm 0.06 in1.5 mm
03:03 PM 52.0°F11.1°C 51.7°F10.9°C 99% Calm Calm 3.8 mph6.1 kmh 29.64 in1003.7 mb 0.00 in0.0 mm 0.00 in0.0 mm 0.06 in1.5 mm
03:02 PM 52.0°F11.1°C 51.7°F10.9°C 99% Calm Calm 3.8 mph6.1 kmh 29.65 in1004.1 mb 0.00 in0.0 mm 0.00 in0.0 mm 0.06 in1.5 mm
03:01 PM 52.0°F11.1°C 51.7°F10.9°C 99% Calm Calm 3.8 mph6.1 kmh 29.64 in1003.7 mb 0.00 in0.0 mm 0.00 in0.0 mm 0.06 in1.5 mm
03:00 PM 52.0°F11.1°C 51.7°F10.9°C 99% Calm Calm 3.8 mph6.1 kmh 29.64 in1003.7 mb 0.00 in0.0 mm 0.00 in0.0 mm 0.06 in1.5 mm
02:59 PM 52.0°F11.1°C 51.7°F10.9°C 99% 0.7 mph SE1.1 kmh SE 3.8 mph6.1 kmh 29.64 in1003.7 mb 0.00 in0.0 mm 0.00 in0.0 mm 0.06 in1.5 mm
02:58 PM 52.0°F11.1°C 51.7°F10.9°C 99% Calm Calm 3.8 mph6.1 kmh 29.64 in1003.7 mb 0.00 in0.0 mm 0.00 in0.0 mm 0.06 in1.5 mm
02:57 PM 52.0°F11.1°C 51.7°F10.9°C 99% Calm Calm 3.8 mph6.1 kmh 29.64 in1003.7 mb 0.00 in0.0 mm 0.00 in0.0 mm 0.06 in1.5 mm
02:56 PM 52.0°F11.1°C 51.7°F10.9°C 99% Calm Calm 3.8 mph6.1 kmh 29.64 in1003.7 mb 0.00 in0.0 mm 0.00 in0.0 mm 0.06 in1.5 mm
02:55 PM 52.0°F11.1°C 51.7°F10.9°C 99% Calm Calm 3.8 mph6.1 kmh 29.64 in1003.7 mb 0.00 in0.0 mm 0.00 in0.0 mm 0.06 in1.5 mm
02:54 PM 52.2°F11.2°C 51.9°F11.1°C 99% 1.6 mph SSE2.6 kmh SSE 3.8 mph6.1 kmh 29.64 in1003.7 mb 0.00 in0.0 mm 0.00 in0.0 mm 0.06 in1.5 mm
02:53 PM 52.2°F11.2°C 51.9°F11.1°C 99% Calm Calm 3.1 mph5.0 kmh 29.64 in1003.7 mb 0.00 in0.0 mm 0.00 in0.0 mm 0.06 in1.5 mm
02:52 PM 52.2°F11.2°C 51.9°F11.1°C 99% Calm Calm 3.1 mph5.0 kmh 29.64 in1003.7 mb 0.00 in0.0 mm 0.00 in0.0 mm 0.06 in1.5 mm
02:51 PM 52.2°F11.2°C 51.9°F11.1°C 99% Calm Calm 3.1 mph5.0 kmh 29.64 in1003.7 mb 0.00 in0.0 mm 0.00 in0.0 mm 0.06 in1.5 mm
02:50 PM 52.2°F11.2°C 51.9°F11.1°C 99% 0.7 mph SSE1.1 kmh SSE 3.1 mph5.0 kmh 29.64 in1003.7 mb 0.00 in0.0 mm 0.00 in0.0 mm 0.06 in1.5 mm
02:49 PM 52.2°F11.2°C 51.9°F11.1°C 99% Calm Calm 3.8 mph6.1 kmh 29.64 in1003.7 mb 0.00 in0.0 mm 0.00 in0.0 mm 0.06 in1.5 mm
02:48 PM 52.3°F11.3°C 52.1°F11.2°C 99% 0.7 mph SSE1.1 kmh SSE 3.8 mph6.1 kmh 29.64 in1003.7 mb 0.00 in0.0 mm 0.00 in0.0 mm 0.06 in1.5 mm
02:47 PM 52.3°F11.3°C 52.1°F11.2°C 99% 0.7 mph SSE1.1 kmh SSE 3.8 mph6.1 kmh 29.64 in1003.7 mb 0.00 in0.0 mm 0.00 in0.0 mm 0.06 in1.5 mm
02:46 PM 52.2°F11.2°C 51.9°F11.1°C 99% Calm Calm 3.8 mph6.1 kmh 29.64 in1003.7 mb 0.00 in0.0 mm 0.00 in0.0 mm 0.06 in1.5 mm
02:45 PM 52.3°F11.3°C 52.1°F11.2°C 99% Calm Calm 3.8 mph6.1 kmh 29.64 in1003.7 mb 0.00 in0.0 mm 0.00 in0.0 mm 0.06 in1.5 mm
02:44 PM 52.3°F11.3°C 52.1°F11.2°C 99% Calm Calm 3.8 mph6.1 kmh 29.64 in1003.7 mb 0.00 in0.0 mm 0.00 in0.0 mm 0.06 in1.5 mm
02:43 PM 52.5°F11.4°C 52.3°F11.3°C 99% 0.7 mph SE1.1 kmh SE 3.8 mph6.1 kmh 29.64 in1003.7 mb 0.00 in0.0 mm 0.00 in0.0 mm 0.06 in1.5 mm
02:42 PM 52.3°F11.3°C 52.1°F11.2°C 99% Calm Calm 3.8 mph6.1 kmh 29.64 in1003.7 mb 0.00 in0.0 mm 0.00 in0.0 mm 0.06 in1.5 mm
02:41 PM 52.5°F11.4°C 52.3°F11.3°C 99% Calm Calm 3.8 mph6.1 kmh 29.64 in1003.7 mb 0.00 in0.0 mm 0.00 in0.0 mm 0.06 in1.5 mm
02:40 PM 52.5°F11.4°C 52.3°F11.3°C 99% 0.7 mph SE1.1 kmh SE 3.8 mph6.1 kmh 29.64 in1003.7 mb 0.00 in0.0 mm 0.00 in0.0 mm 0.06 in1.5 mm
02:39 PM 52.5°F11.4°C 52.3°F11.3°C 99% 0.7 mph SE1.1 kmh SE 3.8 mph6.1 kmh 29.64 in1003.7 mb 0.00 in0.0 mm 0.00 in0.0 mm 0.06 in1.5 mm
02:38 PM 52.7°F11.5°C 52.4°F11.3°C 99% Calm Calm 3.8 mph6.1 kmh 29.64 in1003.7 mb 0.00 in0.0 mm 0.00 in0.0 mm 0.06 in1.5 mm
02:37 PM 52.7°F11.5°C 52.4°F11.3°C 99% 0.7 mph SSE1.1 kmh SSE 3.8 mph6.1 kmh 29.64 in1003.7 mb 0.00 in0.0 mm 0.00 in0.0 mm 0.06 in1.5 mm
02:36 PM 52.7°F11.5°C 52.4°F11.3°C 99% 0.7 mph SSE1.1 kmh SSE 3.8 mph6.1 kmh 29.64 in1003.7 mb 0.00 in0.0 mm 0.00 in0.0 mm 0.06 in1.5 mm
02:35 PM 52.7°F11.5°C 52.4°F11.3°C 99% 0.7 mph S1.1 kmh S 3.8 mph6.1 kmh 29.64 in1003.7 mb 0.00 in0.0 mm 0.00 in0.0 mm 0.06 in1.5 mm
02:34 PM 52.7°F11.5°C 52.4°F11.3°C 99% Calm Calm 2.2 mph3.5 kmh 29.64 in1003.7 mb 0.00 in0.0 mm 0.00 in0.0 mm 0.06 in1.5 mm
02:33 PM 52.7°F11.5°C 52.4°F11.3°C 99% Calm Calm 2.2 mph3.5 kmh 29.64 in1003.7 mb 0.00 in0.0 mm 0.00 in0.0 mm 0.06 in1.5 mm
02:32 PM 52.7°F11.5°C 52.4°F11.3°C 99% Calm Calm 3.1 mph5.0 kmh 29.65 in1004.1 mb 0.00 in0.0 mm 0.00 in0.0 mm 0.06 in1.5 mm
02:31 PM 52.7°F11.5°C 52.4°F11.3°C 99% Calm Calm 3.1 mph5.0 kmh 29.65 in1004.1 mb 0.00 in0.0 mm 0.00 in0.0 mm 0.06 in1.5 mm
02:30 PM 52.9°F11.6°C 52.6°F11.4°C 99% Calm Calm 3.1 mph5.0 kmh 29.64 in1003.7 mb 0.00 in0.0 mm 0.00 in0.0 mm 0.06 in1.5 mm
02:29 PM 52.9°F11.6°C 52.6°F11.4°C 99% 0.7 mph S1.1 kmh S 3.1 mph5.0 kmh 29.64 in1003.7 mb 0.00 in0.0 mm 0.00 in0.0 mm 0.06 in1.5 mm
02:28 PM 52.9°F11.6°C 52.6°F11.4°C 99% Calm Calm 3.1 mph5.0 kmh 29.65 in1004.1 mb 0.00 in0.0 mm 0.00 in0.0 mm 0.06 in1.5 mm
02:27 PM 52.9°F11.6°C 52.6°F11.4°C 99% Calm Calm 3.1 mph5.0 kmh 29.64 in1003.7 mb 0.00 in0.0 mm 0.00 in0.0 mm 0.06 in1.5 mm
02:26 PM 52.7°F11.5°C 52.4°F11.3°C 99% Calm Calm 3.1 mph5.0 kmh 29.64 in1003.7 mb 0.00 in0.0 mm 0.00 in0.0 mm 0.06 in1.5 mm
02:25 PM 52.7°F11.5°C 52.4°F11.3°C 99% 0.7 mph S1.1 kmh S 3.1 mph5.0 kmh 29.64 in1003.7 mb 0.00 in0.0 mm 0.00 in0.0 mm 0.06 in1.5 mm
02:24 PM 52.7°F11.5°C 52.4°F11.3°C 99% 0.7 mph S1.1 kmh S 3.1 mph5.0 kmh 29.64 in1003.7 mb 0.00 in0.0 mm 0.00 in0.0 mm 0.06 in1.5 mm
02:23 PM 52.7°F11.5°C 52.4°F11.3°C 99% 0.7 mph S1.1 kmh S 3.1 mph5.0 kmh 29.64 in1003.7 mb 0.00 in0.0 mm 0.00 in0.0 mm 0.06 in1.5 mm
02:22 PM 52.7°F11.5°C 52.4°F11.3°C 99% 0.7 mph S1.1 kmh S 3.1 mph5.0 kmh 29.65 in1004.1 mb 0.00 in0.0 mm 0.00 in0.0 mm 0.06 in1.5 mm
02:21 PM 52.5°F11.4°C 52.3°F11.3°C 99% Calm Calm 3.1 mph5.0 kmh 29.65 in1004.1 mb 0.00 in0.0 mm 0.00 in0.0 mm 0.06 in1.5 mm
02:20 PM 52.5°F11.4°C 52.3°F11.3°C 99% 1.6 mph S2.6 kmh S 3.1 mph5.0 kmh 29.64 in1003.7 mb 0.00 in0.0 mm 0.00 in0.0 mm 0.06 in1.5 mm
02:19 PM 52.5°F11.4°C 52.3°F11.3°C 99% 1.6 mph S2.6 kmh S 3.1 mph5.0 kmh 29.64 in1003.7 mb 0.00 in0.0 mm 0.00 in0.0 mm 0.06 in1.5 mm
02:18 PM 52.3°F11.3°C 52.1°F11.2°C 99% Calm Calm 2.2 mph3.5 kmh 29.64 in1003.7 mb 0.00 in0.0 mm 0.00 in0.0 mm 0.06 in1.5 mm
02:17 PM 52.3°F11.3°C 52.1°F11.2°C 99% Calm Calm 2.2 mph3.5 kmh 29.64 in1003.7 mb 0.00 in0.0 mm 0.00 in0.0 mm 0.06 in1.5 mm
02:16 PM 52.3°F11.3°C 52.1°F11.2°C 99% Calm Calm 2.2 mph3.5 kmh 29.64 in1003.7 mb 0.00 in0.0 mm 0.00 in0.0 mm 0.06 in1.5 mm
02:15 PM 52.3°F11.3°C 52.1°F11.2°C 99% Calm Calm 2.2 mph3.5 kmh 29.64 in1003.7 mb 0.00 in0.0 mm 0.00 in0.0 mm 0.06 in1.5 mm
02:14 PM 52.3°F11.3°C 52.1°F11.2°C 99% Calm Calm 2.2 mph3.5 kmh 29.64 in1003.7 mb 0.00 in0.0 mm 0.00 in0.0 mm 0.06 in1.5 mm
02:13 PM 52.3°F11.3°C 52.1°F11.2°C 99% Calm Calm 2.2 mph3.5 kmh 29.64 in1003.7 mb 0.00 in0.0 mm 0.00 in0.0 mm 0.06 in1.5 mm
02:12 PM 52.3°F11.3°C 52.1°F11.2°C 99% Calm Calm 2.2 mph3.5 kmh 29.64 in1003.7 mb 0.00 in0.0 mm 0.00 in0.0 mm 0.06 in1.5 mm
02:11 PM 51.8°F11.0°C 51.5°F10.8°C 99% 0.7 mph SE1.1 kmh SE 2.2 mph3.5 kmh 29.64 in1003.7 mb 0.00 in0.0 mm 0.00 in0.0 mm 0.06 in1.5 mm
02:10 PM 51.8°F11.0°C 51.5°F10.8°C 99% 0.7 mph SE1.1 kmh SE 2.2 mph3.5 kmh 29.64 in1003.7 mb 0.00 in0.0 mm 0.00 in0.0 mm 0.06 in1.5 mm
02:09 PM 51.8°F11.0°C 51.5°F10.8°C 99% 0.7 mph SE1.1 kmh SE 2.2 mph3.5 kmh 29.65 in1004.1 mb 0.00 in0.0 mm 0.00 in0.0 mm 0.06 in1.5 mm
02:08 PM 51.8°F11.0°C 51.5°F10.8°C 99% 0.7 mph SE1.1 kmh SE 2.2 mph3.5 kmh 29.64 in1003.7 mb 0.00 in0.0 mm 0.00 in0.0 mm 0.06 in1.5 mm
02:07 PM 51.8°F11.0°C 51.5°F10.8°C 99% 0.7 mph SE1.1 kmh SE 2.2 mph3.5 kmh 29.64 in1003.7 mb 0.00 in0.0 mm 0.00 in0.0 mm 0.06 in1.5 mm
02:06 PM 51.8°F11.0°C 51.5°F10.8°C 99% 0.7 mph SE1.1 kmh SE 2.2 mph3.5 kmh 29.64 in1003.7 mb 0.00 in0.0 mm 0.00 in0.0 mm 0.06 in1.5 mm
02:05 PM 51.8°F11.0°C 51.5°F10.8°C 99% 0.7 mph SSE1.1 kmh SSE 3.1 mph5.0 kmh 29.64 in1003.7 mb 0.00 in0.0 mm 0.00 in0.0 mm 0.06 in1.5 mm
02:04 PM 51.8°F11.0°C 51.5°F10.8°C 99% 0.7 mph SSE1.1 kmh SSE 3.1 mph5.0 kmh 29.64 in1003.7 mb 0.00 in0.0 mm 0.00 in0.0 mm 0.06 in1.5 mm
02:03 PM 51.8°F11.0°C 51.5°F10.8°C 99% 0.7 mph S1.1 kmh S 3.8 mph6.1 kmh 29.64 in1003.7 mb 0.00 in0.0 mm 0.00 in0.0 mm 0.06 in1.5 mm
02:02 PM 51.8°F11.0°C 51.5°F10.8°C 99% 0.7 mph S1.1 kmh S 3.8 mph6.1 kmh 29.64 in1003.7 mb 0.00 in0.0 mm 0.00 in0.0 mm 0.06 in1.5 mm
02:01 PM 51.8°F11.0°C 51.5°F10.8°C 99% Calm Calm 5.4 mph8.7 kmh 29.64 in1003.7 mb 0.00 in0.0 mm 0.00 in0.0 mm 0.06 in1.5 mm
02:00 PM 51.6°F10.9°C 51.4°F10.8°C 99% Calm Calm 5.4 mph8.7 kmh 29.64 in1003.7 mb 0.00 in0.0 mm 0.00 in0.0 mm 0.06 in1.5 mm
01:59 PM 51.6°F10.9°C 51.4°F10.8°C 99% Calm Calm 5.4 mph8.7 kmh 29.64 in1003.7 mb 0.00 in0.0 mm 0.00 in0.0 mm 0.06 in1.5 mm
01:58 PM 51.4°F10.8°C 51.2°F10.7°C 99% Calm Calm 5.4 mph8.7 kmh 29.64 in1003.7 mb 0.00 in0.0 mm 0.00 in0.0 mm 0.06 in1.5 mm
01:57 PM 51.4°F10.8°C 51.2°F10.7°C 99% Calm Calm 5.4 mph8.7 kmh 29.65 in1004.1 mb 0.00 in0.0 mm 0.00 in0.0 mm 0.06 in1.5 mm
01:56 PM 51.3°F10.7°C 51.0°F10.6°C 99% Calm Calm 5.4 mph8.7 kmh 29.64 in1003.7 mb 0.00 in0.0 mm 0.00 in0.0 mm 0.06 in1.5 mm
01:55 PM 51.1°F10.6°C 50.8°F10.4°C 99% 1.6 mph SW2.6 kmh SW 5.4 mph8.7 kmh 29.64 in1003.7 mb 0.00 in0.0 mm 0.00 in0.0 mm 0.06 in1.5 mm
01:54 PM 51.3°F10.7°C 51.0°F10.6°C 99% 0.7 mph SW1.1 kmh SW 5.4 mph8.7 kmh 29.64 in1003.7 mb 0.00 in0.0 mm 0.00 in0.0 mm 0.06 in1.5 mm
01:53 PM 51.1°F10.6°C 50.8°F10.4°C 99% 0.7 mph WSW1.1 kmh WSW 5.4 mph8.7 kmh 29.64 in1003.7 mb 0.00 in0.0 mm 0.00 in0.0 mm 0.06 in1.5 mm
01:52 PM 51.1°F10.6°C 50.8°F10.4°C 99% 0.7 mph WSW1.1 kmh WSW 5.4 mph8.7 kmh 29.64 in1003.7 mb 0.00 in0.0 mm 0.00 in0.0 mm 0.06 in1.5 mm
01:51 PM 50.9°F10.5°C 50.6°F10.3°C 99% 2.2 mph W3.5 kmh W 5.4 mph8.7 kmh 29.64 in1003.7 mb 0.00 in0.0 mm 0.00 in0.0 mm 0.06 in1.5 mm
01:50 PM 50.9°F10.5°C 50.6°F10.3°C 99% Calm Calm 4.5 mph7.2 kmh 29.64 in1003.7 mb 0.00 in0.0 mm 0.00 in0.0 mm 0.06 in1.5 mm
01:49 PM 50.9°F10.5°C 50.6°F10.3°C 99% 0.7 mph NW1.1 kmh NW 4.5 mph7.2 kmh 29.64 in1003.7 mb 0.00 in0.0 mm 0.00 in0.0 mm 0.06 in1.5 mm
01:48 PM 51.1°F10.6°C 50.8°F10.4°C 99% 0.7 mph NW1.1 kmh NW 4.5 mph7.2 kmh 29.64 in1003.7 mb 0.00 in0.0 mm 0.00 in0.0 mm 0.06 in1.5 mm
01:47 PM 51.1°F10.6°C 50.8°F10.4°C 99% 0.7 mph NW1.1 kmh NW 4.5 mph7.2 kmh 29.64 in1003.7 mb 0.00 in0.0 mm 0.00 in0.0 mm 0.06 in1.5 mm
01:46 PM 51.3°F10.7°C 51.0°F10.6°C 99% 2.2 mph NW3.5 kmh NW 4.5 mph7.2 kmh 29.64 in1003.7 mb 0.00 in0.0 mm 0.00 in0.0 mm 0.06 in1.5 mm
01:45 PM 51.6°F10.9°C 51.4°F10.8°C 99% 1.6 mph WNW2.6 kmh WNW 4.5 mph7.2 kmh 29.64 in1003.7 mb 0.00 in0.0 mm 0.00 in0.0 mm 0.06 in1.5 mm
01:44 PM 51.6°F10.9°C 51.4°F10.8°C 99% Calm Calm 4.5 mph7.2 kmh 29.64 in1003.7 mb 0.00 in0.0 mm 0.00 in0.0 mm 0.06 in1.5 mm
01:43 PM 51.6°F10.9°C 51.4°F10.8°C 99% 0.7 mph WSW1.1 kmh WSW 4.5 mph7.2 kmh 29.63 in1003.4 mb 0.00 in0.0 mm 0.00 in0.0 mm 0.06 in1.5 mm
01:42 PM 51.6°F10.9°C 51.4°F10.8°C 99% Calm Calm 4.5 mph7.2 kmh 29.63 in1003.4 mb 0.00 in0.0 mm 0.00 in0.0 mm 0.06 in1.5 mm
01:41 PM 51.8°F11.0°C 51.5°F10.8°C 99% 1.6 mph SW2.6 kmh SW 4.5 mph7.2 kmh 29.64 in1003.7 mb 0.00 in0.0 mm 0.00 in0.0 mm 0.06 in1.5 mm
01:40 PM 51.8°F11.0°C 51.5°F10.8°C 99% 1.6 mph S2.6 kmh S 4.5 mph7.2 kmh 29.64 in1003.7 mb 0.00 in0.0 mm 0.00 in0.0 mm 0.06 in1.5 mm
01:39 PM 51.8°F11.0°C 51.5°F10.8°C 99% 0.7 mph S1.1 kmh S 4.5 mph7.2 kmh 29.64 in1003.7 mb 0.00 in0.0 mm 0.00 in0.0 mm 0.06 in1.5 mm
01:38 PM 51.6°F10.9°C 51.4°F10.8°C 99% 0.7 mph S1.1 kmh S 4.5 mph7.2 kmh 29.64 in1003.7 mb 0.00 in0.0 mm 0.00 in0.0 mm 0.06 in1.5 mm
01:37 PM 51.4°F10.8°C 51.2°F10.7°C 99% Calm Calm 4.5 mph7.2 kmh 29.64 in1003.7 mb 0.00 in0.0 mm 0.00 in0.0 mm 0.06 in1.5 mm
01:36 PM 51.4°F10.8°C 51.2°F10.7°C 99% Calm Calm 4.5 mph7.2 kmh 29.64 in1003.7 mb 0.00 in0.0 mm 0.00 in0.0 mm 0.06 in1.5 mm
01:35 PM 51.4°F10.8°C 51.2°F10.7°C 99% 1.6 mph SSE2.6 kmh SSE 4.5 mph7.2 kmh 29.63 in1003.4 mb 0.00 in0.0 mm 0.00 in0.0 mm 0.06 in1.5 mm
01:34 PM 51.3°F10.7°C 51.0°F10.6°C 99% 0.7 mph SE1.1 kmh SE 4.5 mph7.2 kmh 29.63 in1003.4 mb 0.00 in0.0 mm 0.00 in0.0 mm 0.06 in1.5 mm
01:33 PM 51.1°F10.6°C 50.8°F10.4°C 99% 1.6 mph SE2.6 kmh SE 4.5 mph7.2 kmh 29.64 in1003.7 mb 0.00 in0.0 mm 0.00 in0.0 mm 0.06 in1.5 mm
01:32 PM 51.1°F10.6°C 50.8°F10.4°C 99% 0.7 mph SE1.1 kmh SE 4.5 mph7.2 kmh 29.64 in1003.7 mb 0.00 in0.0 mm 0.00 in0.0 mm 0.06 in1.5 mm
01:31 PM 51.3°F10.7°C 51.0°F10.6°C 99% 0.7 mph SE1.1 kmh SE 4.5 mph7.2 kmh 29.64 in1003.7 mb 0.00 in0.0 mm 0.00 in0.0 mm 0.06 in1.5 mm
01:30 PM 51.3°F10.7°C 51.0°F10.6°C 99% 0.7 mph SE1.1 kmh SE 4.5 mph7.2 kmh 29.64 in1003.7 mb 0.00 in0.0 mm 0.00 in0.0 mm 0.06 in1.5 mm
01:29 PM 51.3°F10.7°C 51.0°F10.6°C 99% 0.7 mph SE1.1 kmh SE 4.5 mph7.2 kmh 29.64 in1003.7 mb 0.00 in0.0 mm 0.00 in0.0 mm 0.06 in1.5 mm
01:28 PM 51.3°F10.7°C 51.0°F10.6°C 99% 0.7 mph SE1.1 kmh SE 5.4 mph8.7 kmh 29.64 in1003.7 mb 0.00 in0.0 mm 0.00 in0.0 mm 0.06 in1.5 mm
01:27 PM 51.3°F10.7°C 51.0°F10.6°C 99% Calm Calm 5.4 mph8.7 kmh 29.64 in1003.7 mb 0.00 in0.0 mm 0.00 in0.0 mm 0.06 in1.5 mm
01:26 PM 51.3°F10.7°C 51.0°F10.6°C 99% 1.6 mph SE2.6 kmh SE 5.4 mph8.7 kmh 29.64 in1003.7 mb 0.00 in0.0 mm 0.00 in0.0 mm 0.06 in1.5 mm
01:25 PM 51.3°F10.7°C 51.0°F10.6°C 99% 0.7 mph SSE1.1 kmh SSE 5.4 mph8.7 kmh 29.64 in1003.7 mb 0.00 in0.0 mm 0.00 in0.0 mm 0.06 in1.5 mm
01:24 PM 51.3°F10.7°C 51.0°F10.6°C 99% 0.7 mph SSE1.1 kmh SSE 5.4 mph8.7 kmh 29.64 in1003.7 mb 0.00 in0.0 mm 0.00 in0.0 mm 0.06 in1.5 mm
01:23 PM 51.3°F10.7°C 51.0°F10.6°C 99% Calm Calm 5.4 mph8.7 kmh 29.64 in1003.7 mb 0.00 in0.0 mm 0.00 in0.0 mm 0.06 in1.5 mm
01:22 PM 51.3°F10.7°C 51.0°F10.6°C 99% 0.7 mph S1.1 kmh S 5.4 mph8.7 kmh 29.64 in1003.7 mb 0.00 in0.0 mm 0.00 in0.0 mm 0.06 in1.5 mm
01:21 PM 51.1°F10.6°C 50.8°F10.4°C 99% Calm Calm 5.4 mph8.7 kmh 29.64 in1003.7 mb 0.00 in0.0 mm 0.00 in0.0 mm 0.06 in1.5 mm
01:20 PM 50.9°F10.5°C 50.6°F10.3°C 99% Calm Calm 5.4 mph8.7 kmh 29.64 in1003.7 mb 0.00 in0.0 mm 0.00 in0.0 mm 0.06 in1.5 mm
01:19 PM 50.9°F10.5°C 50.6°F10.3°C 99% Calm Calm 5.4 mph8.7 kmh 29.64 in1003.7 mb 0.00 in0.0 mm 0.00 in0.0 mm 0.06 in1.5 mm
01:18 PM 50.7°F10.4°C 50.5°F10.3°C 99% 3.1 mph SW5.0 kmh SW 5.4 mph8.7 kmh 29.64 in1003.7 mb 0.00 in0.0 mm 0.00 in0.0 mm 0.06 in1.5 mm
01:17 PM 50.5°F10.3°C 50.3°F10.2°C 99% 0.7 mph W1.1 kmh W 3.1 mph5.0 kmh 29.64 in1003.7 mb 0.00 in0.0 mm 0.00 in0.0 mm 0.06 in1.5 mm
01:16 PM 50.5°F10.3°C 50.3°F10.2°C 99% Calm Calm 3.1 mph5.0 kmh 29.64 in1003.7 mb 0.00 in0.0 mm 0.00 in0.0 mm 0.06 in1.5 mm
01:15 PM 50.4°F10.2°C 50.1°F10.1°C 99% Calm Calm 3.1 mph5.0 kmh 29.64 in1003.7 mb 0.00 in0.0 mm 0.00 in0.0 mm 0.06 in1.5 mm
01:14 PM 50.4°F10.2°C 50.1°F10.1°C 99% Calm Calm 3.1 mph5.0 kmh 29.64 in1003.7 mb 0.00 in0.0 mm 0.00 in0.0 mm 0.06 in1.5 mm
01:13 PM 50.2°F10.1°C 49.9°F9.9°C 99% Calm Calm 3.1 mph5.0 kmh 29.64 in1003.7 mb 0.00 in0.0 mm 0.00 in0.0 mm 0.06 in1.5 mm
01:12 PM 50.2°F10.1°C 49.9°F9.9°C 99% 0.7 mph WNW1.1 kmh WNW 3.1 mph5.0 kmh 29.64 in1003.7 mb 0.00 in0.0 mm 0.00 in0.0 mm 0.06 in1.5 mm
01:11 PM 50.2°F10.1°C 49.9°F9.9°C 99% 1.6 mph W2.6 kmh W 3.1 mph5.0 kmh 29.64 in1003.7 mb 0.00 in0.0 mm 0.00 in0.0 mm 0.06 in1.5 mm
01:10 PM 50.2°F10.1°C 49.9°F9.9°C 99% Calm Calm 2.2 mph3.5 kmh 29.64 in1003.7 mb 0.00 in0.0 mm 0.00 in0.0 mm 0.06 in1.5 mm
01:09 PM 50.2°F10.1°C 49.9°F9.9°C 99% Calm Calm 3.1 mph5.0 kmh 29.64 in1003.7 mb 0.00 in0.0 mm 0.00 in0.0 mm 0.06 in1.5 mm
01:08 PM 50.0°F10.0°C 49.7°F9.8°C 99% Calm Calm 3.8 mph6.1 kmh 29.64 in1003.7 mb 0.00 in0.0 mm 0.00 in0.0 mm 0.06 in1.5 mm
01:07 PM 49.5°F9.7°C 49.2°F9.6°C 99% Calm Calm 3.8 mph6.1 kmh 29.64 in1003.7 mb 0.00 in0.0 mm 0.00 in0.0 mm 0.06 in1.5 mm
01:06 PM 49.5°F9.7°C 49.2°F9.6°C 99% Calm Calm 3.8 mph6.1 kmh 29.64 in1003.7 mb 0.00 in0.0 mm 0.00 in0.0 mm 0.06 in1.5 mm
01:05 PM 49.5°F9.7°C 49.2°F9.6°C 99% Calm Calm 3.8 mph6.1 kmh 29.64 in1003.7 mb 0.00 in0.0 mm 0.00 in0.0 mm 0.06 in1.5 mm
01:04 PM 49.5°F9.7°C 49.2°F9.6°C 99% Calm Calm 5.4 mph8.7 kmh 29.64 in1003.7 mb 0.00 in0.0 mm 0.00 in0.0 mm 0.06 in1.5 mm
01:03 PM 49.5°F9.7°C 49.2°F9.6°C 99% Calm Calm 5.4 mph8.7 kmh 29.64 in1003.7 mb 0.00 in0.0 mm 0.00 in0.0 mm 0.06 in1.5 mm
01:02 PM 49.5°F9.7°C 49.2°F9.6°C 99% Calm Calm 5.4 mph8.7 kmh 29.64 in1003.7 mb 0.00 in0.0 mm 0.00 in0.0 mm 0.06 in1.5 mm
01:01 PM 49.5°F9.7°C 49.2°F9.6°C 99% Calm Calm 5.4 mph8.7 kmh 29.64 in1003.7 mb 0.00 in0.0 mm 0.00 in0.0 mm 0.06 in1.5 mm
01:00 PM 49.5°F9.7°C 49.2°F9.6°C 99% Calm Calm 5.4 mph8.7 kmh 29.64 in1003.7 mb 0.00 in0.0 mm 0.00 in0.0 mm 0.06 in1.5 mm
12:59 PM 49.5°F9.7°C 49.2°F9.6°C 99% 0.7 mph SE1.1 kmh SE 5.4 mph8.7 kmh 29.64 in1003.7 mb 0.00 in0.0 mm 0.00 in0.0 mm 0.06 in1.5 mm
12:58 PM 49.5°F9.7°C 49.2°F9.6°C 99% 0.7 mph SSE1.1 kmh SSE 5.4 mph8.7 kmh 29.64 in1003.7 mb 0.00 in0.0 mm 0.00 in0.0 mm 0.06 in1.5 mm
12:57 PM 49.5°F9.7°C 49.2°F9.6°C 99% Calm Calm 5.4 mph8.7 kmh 29.64 in1003.7 mb 0.00 in0.0 mm 0.00 in0.0 mm 0.06 in1.5 mm
12:56 PM 49.3°F9.6°C 49.0°F9.4°C 99% 0.7 mph SSE1.1 kmh SSE 5.4 mph8.7 kmh 29.64 in1003.7 mb 0.00 in0.0 mm 0.00 in0.0 mm 0.06 in1.5 mm
12:55 PM 49.3°F9.6°C 49.0°F9.4°C 99% 0.7 mph S1.1 kmh S 5.4 mph8.7 kmh 29.64 in1003.7 mb 0.00 in0.0 mm 0.00 in0.0 mm 0.06 in1.5 mm
12:54 PM 49.3°F9.6°C 49.0°F9.4°C 99% 3.1 mph S5.0 kmh S 5.4 mph8.7 kmh 29.64 in1003.7 mb 0.00 in0.0 mm 0.00 in0.0 mm 0.06 in1.5 mm
12:53 PM 49.1°F9.5°C 48.8°F9.3°C 99% 2.2 mph S3.5 kmh S 5.4 mph8.7 kmh 29.64 in1003.7 mb 0.00 in0.0 mm 0.00 in0.0 mm 0.06 in1.5 mm
12:52 PM 49.3°F9.6°C 49.0°F9.4°C 99% Calm Calm 4.5 mph7.2 kmh 29.64 in1003.7 mb 0.00 in0.0 mm 0.00 in0.0 mm 0.06 in1.5 mm
12:51 PM 49.1°F9.5°C 48.8°F9.3°C 99% Calm Calm 4.5 mph7.2 kmh 29.64 in1003.7 mb 0.00 in0.0 mm 0.00 in0.0 mm 0.06 in1.5 mm
12:50 PM 49.3°F9.6°C 49.0°F9.4°C 99% 0.7 mph SSE1.1 kmh SSE 4.5 mph7.2 kmh 29.64 in1003.7 mb 0.00 in0.0 mm 0.00 in0.0 mm 0.06 in1.5 mm
12:49 PM 49.3°F9.6°C 49.0°F9.4°C 99% Calm Calm 3.8 mph6.1 kmh 29.64 in1003.7 mb 0.00 in0.0 mm 0.00 in0.0 mm 0.06 in1.5 mm
12:48 PM 49.3°F9.6°C 49.0°F9.4°C 99% Calm Calm 4.5 mph7.2 kmh 29.64 in1003.7 mb 0.00 in0.0 mm 0.00 in0.0 mm 0.06 in1.5 mm
12:47 PM 49.3°F9.6°C 49.0°F9.4°C 99% Calm Calm 4.5 mph7.2 kmh 29.65 in1004.1 mb 0.00 in0.0 mm 0.00 in0.0 mm 0.06 in1.5 mm
12:46 PM 49.3°F9.6°C 49.0°F9.4°C 99% Calm Calm 4.5 mph7.2 kmh 29.64 in1003.7 mb 0.00 in0.0 mm 0.00 in0.0 mm 0.06 in1.5 mm
12:45 PM 49.3°F9.6°C 49.0°F9.4°C 99% Calm Calm 4.5 mph7.2 kmh 29.64 in1003.7 mb 0.00 in0.0 mm 0.00 in0.0 mm 0.06 in1.5 mm
12:44 PM 49.3°F9.6°C 49.0°F9.4°C 99% Calm Calm 4.5 mph7.2 kmh 29.64 in1003.7 mb 0.00 in0.0 mm 0.00 in0.0 mm 0.06 in1.5 mm
12:43 PM 49.3°F9.6°C 49.0°F9.4°C 99% Calm Calm 4.5 mph7.2 kmh 29.64 in1003.7 mb 0.00 in0.0 mm 0.00 in0.0 mm 0.06 in1.5 mm
12:42 PM 49.3°F9.6°C 49.0°F9.4°C 99% Calm Calm 4.5 mph7.2 kmh 29.64 in1003.7 mb 0.00 in0.0 mm 0.00 in0.0 mm 0.06 in1.5 mm
12:41 PM 49.5°F9.7°C 49.2°F9.6°C 99% Calm Calm 4.5 mph7.2 kmh 29.64 in1003.7 mb 0.00 in0.0 mm 0.00 in0.0 mm 0.06 in1.5 mm
12:40 PM 49.5°F9.7°C 49.2°F9.6°C 99% Calm Calm 4.5 mph7.2 kmh 29.64 in1003.7 mb 0.00 in0.0 mm 0.00 in0.0 mm 0.06 in1.5 mm
12:39 PM 49.5°F9.7°C 49.2°F9.6°C 99% 0.7 mph SE1.1 kmh SE 4.5 mph7.2 kmh 29.64 in1003.7 mb 0.00 in0.0 mm 0.00 in0.0 mm 0.06 in1.5 mm
12:38 PM 49.5°F9.7°C 49.2°F9.6°C 99% 0.7 mph SE1.1 kmh SE 4.5 mph7.2 kmh 29.64 in1003.7 mb 0.00 in0.0 mm 0.00 in0.0 mm 0.06 in1.5 mm
12:37 PM 49.6°F9.8°C 49.4°F9.7°C 99% 0.7 mph SE1.1 kmh SE 4.5 mph7.2 kmh 29.64 in1003.7 mb 0.00 in0.0 mm 0.00 in0.0 mm 0.06 in1.5 mm
12:36 PM 49.6°F9.8°C 49.4°F9.7°C 99% Calm Calm 4.5 mph7.2 kmh 29.64 in1003.7 mb 0.00 in0.0 mm 0.00 in0.0 mm 0.06 in1.5 mm
12:35 PM 49.8°F9.9°C 49.6°F9.8°C 99% 0.7 mph SE1.1 kmh SE 4.5 mph7.2 kmh 29.64 in1003.7 mb 0.00 in0.0 mm 0.00 in0.0 mm 0.06 in1.5 mm
12:34 PM 49.8°F9.9°C 49.6°F9.8°C 99% 0.7 mph SE1.1 kmh SE 4.5 mph7.2 kmh 29.64 in1003.7 mb 0.00 in0.0 mm 0.00 in0.0 mm 0.06 in1.5 mm
12:33 PM 49.8°F9.9°C 49.6°F9.8°C 99% 0.7 mph SE1.1 kmh SE 4.5 mph7.2 kmh 29.64 in1003.7 mb 0.00 in0.0 mm 0.00 in0.0 mm 0.06 in1.5 mm
12:32 PM 49.8°F9.9°C 49.6°F9.8°C 99% 0.7 mph SE1.1 kmh SE 4.5 mph7.2 kmh 29.64 in1003.7 mb 0.00 in0.0 mm 0.00 in0.0 mm 0.06 in1.5 mm
12:31 PM 49.8°F9.9°C 49.6°F9.8°C 99% 0.7 mph SE1.1 kmh SE 4.5 mph7.2 kmh 29.64 in1003.7 mb 0.00 in0.0 mm 0.00 in0.0 mm 0.06 in1.5 mm
12:30 PM 49.8°F9.9°C 49.6°F9.8°C 99% 1.6 mph SSE2.6 kmh SSE 4.5 mph7.2 kmh 29.64 in1003.7 mb 0.00 in0.0 mm 0.00 in0.0 mm 0.06 in1.5 mm
12:29 PM 49.6°F9.8°C 49.4°F9.7°C 99% 1.6 mph SSE2.6 kmh SSE 4.5 mph7.2 kmh 29.64 in1003.7 mb 0.00 in0.0 mm 0.00 in0.0 mm 0.06 in1.5 mm
12:28 PM 49.6°F9.8°C 49.4°F9.7°C 99% 1.6 mph SE2.6 kmh SE 4.5 mph7.2 kmh 29.64 in1003.7 mb 0.00 in0.0 mm 0.00 in0.0 mm 0.06 in1.5 mm
12:27 PM 49.6°F9.8°C 49.4°F9.7°C 99% 0.7 mph SE1.1 kmh SE 3.1 mph5.0 kmh 29.64 in1003.7 mb 0.00 in0.0 mm 0.00 in0.0 mm 0.06 in1.5 mm
12:26 PM 49.6°F9.8°C 49.4°F9.7°C 99% Calm Calm 3.1 mph5.0 kmh 29.64 in1003.7 mb 0.00 in0.0 mm 0.00 in0.0 mm 0.06 in1.5 mm
12:25 PM 49.6°F9.8°C 49.4°F9.7°C 99% Calm Calm 3.1 mph5.0 kmh 29.64 in1003.7 mb 0.00 in0.0 mm 0.00 in0.0 mm 0.06 in1.5 mm
12:24 PM 49.8°F9.9°C 49.6°F9.8°C 99% Calm Calm 3.1 mph5.0 kmh 29.64 in1003.7 mb 0.00 in0.0 mm 0.00 in0.0 mm 0.06 in1.5 mm
12:23 PM 49.6°F9.8°C 49.4°F9.7°C 99% Calm Calm 3.1 mph5.0 kmh 29.64 in1003.7 mb 0.00 in0.0 mm 0.00 in0.0 mm 0.06 in1.5 mm
12:22 PM 49.6°F9.8°C 49.4°F9.7°C 99% Calm Calm 3.1 mph5.0 kmh 29.64 in1003.7 mb 0.00 in0.0 mm 0.00 in0.0 mm 0.06 in1.5 mm
12:21 PM 49.5°F9.7°C 49.2°F9.6°C 99% Calm Calm 3.1 mph5.0 kmh 29.64 in1003.7 mb 0.00 in0.0 mm 0.00 in0.0 mm 0.06 in1.5 mm
12:20 PM 49.5°F9.7°C 49.2°F9.6°C 99% Calm Calm 3.1 mph5.0 kmh 29.64 in1003.7 mb 0.00 in0.0 mm 0.00 in0.0 mm 0.06 in1.5 mm
12:19 PM 49.5°F9.7°C 49.2°F9.6°C 99% 0.7 mph SSE1.1 kmh SSE 3.1 mph5.0 kmh 29.64 in1003.7 mb 0.00 in0.0 mm 0.00 in0.0 mm 0.06 in1.5 mm
12:18 PM 49.3°F9.6°C 49.0°F9.4°C 99% 0.7 mph SSE1.1 kmh SSE 3.1 mph5.0 kmh 29.64 in1003.7 mb 0.00 in0.0 mm 0.00 in0.0 mm 0.06 in1.5 mm
12:17 PM 48.9°F9.4°C 48.7°F9.3°C 99% Calm Calm 3.1 mph5.0 kmh 29.64 in1003.7 mb 0.00 in0.0 mm 0.00 in0.0 mm 0.06 in1.5 mm
12:16 PM 48.9°F9.4°C 48.7°F9.3°C 99% Calm Calm 3.1 mph5.0 kmh 29.64 in1003.7 mb 0.00 in0.0 mm 0.00 in0.0 mm 0.06 in1.5 mm
12:15 PM 48.9°F9.4°C 48.7°F9.3°C 99% Calm Calm 3.1 mph5.0 kmh 29.64 in1003.7 mb 0.00 in0.0 mm 0.00 in0.0 mm 0.06 in1.5 mm
12:14 PM 48.7°F9.3°C 48.5°F9.2°C 99% Calm Calm 3.1 mph5.0 kmh 29.64 in1003.7 mb 0.00 in0.0 mm 0.00 in0.0 mm 0.06 in1.5 mm
12:13 PM 48.6°F9.2°C 48.3°F9.1°C 99% Calm Calm 3.1 mph5.0 kmh 29.64 in1003.7 mb 0.00 in0.0 mm 0.00 in0.0 mm 0.06 in1.5 mm
12:12 PM 48.6°F9.2°C 48.3°F9.1°C 99% 0.7 mph SSE1.1 kmh SSE 3.1 mph5.0 kmh 29.64 in1003.7 mb 0.00 in0.0 mm 0.00 in0.0 mm 0.06 in1.5 mm
12:11 PM 48.6°F9.2°C 48.3°F9.1°C 99% 0.7 mph SSE1.1 kmh SSE 2.2 mph3.5 kmh 29.64 in1003.7 mb 0.00 in0.0 mm 0.00 in0.0 mm 0.06 in1.5 mm
12:10 PM 48.6°F9.2°C 48.3°F9.1°C 99% Calm Calm 3.1 mph5.0 kmh 29.64 in1003.7 mb 0.00 in0.0 mm 0.00 in0.0 mm 0.06 in1.5 mm
12:09 PM 48.7°F9.3°C 48.5°F9.2°C 99% Calm Calm 3.1 mph5.0 kmh 29.64 in1003.7 mb 0.00 in0.0 mm 0.00 in0.0 mm 0.06 in1.5 mm
12:08 PM 48.7°F9.3°C 48.5°F9.2°C 99% Calm Calm 3.8 mph6.1 kmh 29.64 in1003.7 mb 0.00 in0.0 mm 0.00 in0.0 mm 0.06 in1.5 mm
12:07 PM 48.7°F9.3°C 48.5°F9.2°C 99% Calm Calm 3.8 mph6.1 kmh 29.64 in1003.7 mb 0.00 in0.0 mm 0.00 in0.0 mm 0.06 in1.5 mm
12:06 PM 48.7°F9.3°C 48.5°F9.2°C 99% Calm Calm 3.8 mph6.1 kmh 29.64 in1003.7 mb 0.00 in0.0 mm 0.00 in0.0 mm 0.06 in1.5 mm
12:05 PM 48.7°F9.3°C 48.5°F9.2°C 99% Calm Calm 3.8 mph6.1 kmh 29.64 in1003.7 mb 0.00 in0.0 mm 0.00 in0.0 mm 0.06 in1.5 mm
12:04 PM 48.7°F9.3°C 48.5°F9.2°C 99% Calm Calm 3.8 mph6.1 kmh 29.64 in1003.7 mb 0.00 in0.0 mm 0.00 in0.0 mm 0.06 in1.5 mm
12:03 PM 48.7°F9.3°C 48.5°F9.2°C 99% 0.7 mph SSE1.1 kmh SSE 3.8 mph6.1 kmh 29.64 in1003.7 mb 0.00 in0.0 mm 0.00 in0.0 mm 0.06 in1.5 mm
12:02 PM 48.9°F9.4°C 48.7°F9.3°C 99% Calm Calm 4.5 mph7.2 kmh 29.64 in1003.7 mb 0.00 in0.0 mm 0.00 in0.0 mm 0.06 in1.5 mm
12:01 PM 48.9°F9.4°C 48.7°F9.3°C 99% Calm Calm 4.5 mph7.2 kmh 29.64 in1003.7 mb 0.00 in0.0 mm 0.00 in0.0 mm 0.06 in1.5 mm
12:00 PM 48.9°F9.4°C 48.7°F9.3°C 99% 0.7 mph S1.1 kmh S 4.5 mph7.2 kmh 29.64 in1003.7 mb 0.00 in0.0 mm 0.00 in0.0 mm 0.06 in1.5 mm
11:59 AM 48.7°F9.3°C 48.5°F9.2°C 99% Calm Calm 4.5 mph7.2 kmh 29.64 in1003.7 mb 0.00 in0.0 mm 0.00 in0.0 mm 0.06 in1.5 mm
11:58 AM 48.7°F9.3°C 48.5°F9.2°C 99% 1.6 mph SSE2.6 kmh SSE 4.5 mph7.2 kmh 29.64 in1003.7 mb 0.00 in0.0 mm 0.00 in0.0 mm 0.06 in1.5 mm
11:57 AM 48.6°F9.2°C 48.3°F9.1°C 99% Calm Calm 4.5 mph7.2 kmh 29.64 in1003.7 mb 0.00 in0.0 mm 0.00 in0.0 mm 0.06 in1.5 mm
11:56 AM 48.6°F9.2°C 48.3°F9.1°C 99% Calm Calm 4.5 mph7.2 kmh 29.64 in1003.7 mb 0.00 in0.0 mm 0.00 in0.0 mm 0.06 in1.5 mm
11:55 AM 48.6°F9.2°C 48.3°F9.1°C 99% Calm Calm 4.5 mph7.2 kmh 29.64 in1003.7 mb 0.00 in0.0 mm 0.00 in0.0 mm 0.06 in1.5 mm
11:54 AM 48.6°F9.2°C 48.3°F9.1°C 99% Calm Calm 4.5 mph7.2 kmh 29.64 in1003.7 mb 0.00 in0.0 mm 0.00 in0.0 mm 0.06 in1.5 mm
11:53 AM 48.4°F9.1°C 48.1°F8.9°C 99% 1.6 mph SSE2.6 kmh SSE 4.5 mph7.2 kmh 29.64 in1003.7 mb 0.00 in0.0 mm 0.00 in0.0 mm 0.06 in1.5 mm
11:52 AM 48.4°F9.1°C 48.1°F8.9°C 99% Calm Calm 3.1 mph5.0 kmh 29.63 in1003.4 mb 0.00 in0.0 mm 0.00 in0.0 mm 0.06 in1.5 mm
11:51 AM 48.4°F9.1°C 48.1°F8.9°C 99% 0.7 mph SSE1.1 kmh SSE 3.1 mph5.0 kmh 29.64 in1003.7 mb 0.00 in0.0 mm 0.00 in0.0 mm 0.06 in1.5 mm
11:50 AM 48.2°F9.0°C 47.9°F8.8°C 99% 0.7 mph SE1.1 kmh SE 5.4 mph8.7 kmh 29.64 in1003.7 mb 0.00 in0.0 mm 0.00 in0.0 mm 0.06 in1.5 mm
11:49 AM 47.8°F8.8°C 47.6°F8.7°C 99% Calm Calm 5.4 mph8.7 kmh 29.64 in1003.7 mb 0.00 in0.0 mm 0.00 in0.0 mm 0.06 in1.5 mm
11:48 AM 47.8°F8.8°C 47.6°F8.7°C 99% Calm Calm 5.4 mph8.7 kmh 29.64 in1003.7 mb 0.00 in0.0 mm 0.00 in0.0 mm 0.06 in1.5 mm
11:47 AM 47.8°F8.8°C 47.6°F8.7°C 99% Calm Calm 5.4 mph8.7 kmh 29.64 in1003.7 mb 0.00 in0.0 mm 0.00 in0.0 mm 0.06 in1.5 mm
11:46 AM 47.8°F8.8°C 47.6°F8.7°C 99% Calm Calm 5.4 mph8.7 kmh 29.64 in1003.7 mb 0.00 in0.0 mm 0.00 in0.0 mm 0.06 in1.5 mm
11:45 AM 47.8°F8.8°C 47.6°F8.7°C 99% Calm Calm 5.4 mph8.7 kmh 29.64 in1003.7 mb 0.00 in0.0 mm 0.00 in0.0 mm 0.06 in1.5 mm
11:44 AM 47.8°F8.8°C 47.6°F8.7°C 99% Calm Calm 5.4 mph8.7 kmh 29.64 in1003.7 mb 0.00 in0.0 mm 0.00 in0.0 mm 0.06 in1.5 mm
11:43 AM 47.8°F8.8°C 47.6°F8.7°C 99% 0.7 mph SE1.1 kmh SE 5.4 mph8.7 kmh 29.64 in1003.7 mb 0.00 in0.0 mm 0.00 in0.0 mm 0.06 in1.5 mm
11:42 AM 48.0°F8.9°C 47.8°F8.8°C 99% 0.7 mph SE1.1 kmh SE 5.4 mph8.7 kmh 29.64 in1003.7 mb 0.00 in0.0 mm 0.00 in0.0 mm 0.06 in1.5 mm
11:41 AM 48.0°F8.9°C 47.8°F8.8°C 99% 0.7 mph SSE1.1 kmh SSE 5.4 mph8.7 kmh 29.64 in1003.7 mb 0.00 in0.0 mm 0.00 in0.0 mm 0.06 in1.5 mm
11:40 AM 48.0°F8.9°C 47.8°F8.8°C 99% 2.2 mph S3.5 kmh S 5.4 mph8.7 kmh 29.64 in1003.7 mb 0.00 in0.0 mm 0.00 in0.0 mm 0.06 in1.5 mm
11:39 AM 48.4°F9.1°C 48.1°F8.9°C 99% 0.7 mph SW1.1 kmh SW 4.5 mph7.2 kmh 29.64 in1003.7 mb 0.00 in0.0 mm 0.00 in0.0 mm 0.06 in1.5 mm
11:38 AM 47.8°F8.8°C 47.6°F8.7°C 99% 0.7 mph WNW1.1 kmh WNW 4.5 mph7.2 kmh 29.64 in1003.7 mb 0.00 in0.0 mm 0.00 in0.0 mm 0.06 in1.5 mm
11:37 AM 47.8°F8.8°C 47.6°F8.7°C 99% 0.7 mph W1.1 kmh W 4.5 mph7.2 kmh 29.64 in1003.7 mb 0.00 in0.0 mm 0.00 in0.0 mm 0.06 in1.5 mm
11:36 AM 47.8°F8.8°C 47.6°F8.7°C 99% Calm Calm 4.5 mph7.2 kmh 29.64 in1003.7 mb 0.00 in0.0 mm 0.00 in0.0 mm 0.06 in1.5 mm
11:35 AM 47.8°F8.8°C 47.6°F8.7°C 99% Calm Calm 4.5 mph7.2 kmh 29.64 in1003.7 mb 0.00 in0.0 mm 0.00 in0.0 mm 0.06 in1.5 mm
11:34 AM 47.8°F8.8°C 47.6°F8.7°C 99% Calm Calm 4.5 mph7.2 kmh 29.64 in1003.7 mb 0.00 in0.0 mm 0.00 in0.0 mm 0.06 in1.5 mm
11:33 AM 47.7°F8.7°C 47.4°F8.6°C 99% 0.7 mph SW1.1 kmh SW 4.5 mph7.2 kmh 29.64 in1003.7 mb 0.00 in0.0 mm 0.00 in0.0 mm 0.06 in1.5 mm
11:32 AM 47.7°F8.7°C 47.4°F8.6°C 99% 0.7 mph SSW1.1 kmh SSW 4.5 mph7.2 kmh 29.64 in1003.7 mb 0.00 in0.0 mm 0.00 in0.0 mm 0.06 in1.5 mm
11:31 AM 47.7°F8.7°C 47.4°F8.6°C 99% 0.7 mph S1.1 kmh S 5.4 mph8.7 kmh 29.64 in1003.7 mb 0.00 in0.0 mm 0.00 in0.0 mm 0.06 in1.5 mm
11:30 AM 47.7°F8.7°C 47.4°F8.6°C 99% 0.7 mph SSE1.1 kmh SSE 5.4 mph8.7 kmh 29.64 in1003.7 mb 0.00 in0.0 mm 0.00 in0.0 mm 0.06 in1.5 mm
11:29 AM 47.5°F8.6°C 47.2°F8.4°C 99% Calm Calm 6.9 mph11.1 kmh 29.64 in1003.7 mb 0.00 in0.0 mm 0.00 in0.0 mm 0.06 in1.5 mm
11:28 AM 47.5°F8.6°C 47.2°F8.4°C 99% Calm Calm 6.9 mph11.1 kmh 29.64 in1003.7 mb 0.00 in0.0 mm 0.00 in0.0 mm 0.06 in1.5 mm
11:27 AM 47.3°F8.5°C 47.0°F8.3°C 99% Calm Calm 6.9 mph11.1 kmh 29.63 in1003.4 mb 0.00 in0.0 mm 0.00 in0.0 mm 0.06 in1.5 mm
11:26 AM 47.3°F8.5°C 47.0°F8.3°C 99% Calm Calm 6.9 mph11.1 kmh 29.64 in1003.7 mb 0.00 in0.0 mm 0.00 in0.0 mm 0.06 in1.5 mm
11:25 AM 47.3°F8.5°C 47.0°F8.3°C 99% 0.7 mph SSE1.1 kmh SSE 6.9 mph11.1 kmh 29.64 in1003.7 mb 0.00 in0.0 mm 0.00 in0.0 mm 0.06 in1.5 mm
11:24 AM 47.3°F8.5°C 47.0°F8.3°C 99% Calm Calm 6.9 mph11.1 kmh 29.64 in1003.7 mb 0.00 in0.0 mm 0.00 in0.0 mm 0.06 in1.5 mm
11:23 AM 47.3°F8.5°C 47.0°F8.3°C 99% Calm Calm 6.9 mph11.1 kmh 29.64 in1003.7 mb 0.00 in0.0 mm 0.00 in0.0 mm 0.06 in1.5 mm
11:22 AM 47.3°F8.5°C 47.0°F8.3°C 99% Calm Calm 6.9 mph11.1 kmh 29.64 in1003.7 mb 0.00 in0.0 mm 0.00 in0.0 mm 0.06 in1.5 mm
11:21 AM 47.3°F8.5°C 47.0°F8.3°C 99% 2.2 mph SSE3.5 kmh SSE 6.9 mph11.1 kmh 29.64 in1003.7 mb 0.00 in0.0 mm 0.00 in0.0 mm 0.06 in1.5 mm
11:20 AM 47.3°F8.5°C 47.0°F8.3°C 99% Calm Calm 6.9 mph11.1 kmh 29.64 in1003.7 mb 0.00 in0.0 mm 0.00 in0.0 mm 0.06 in1.5 mm
11:19 AM 47.3°F8.5°C 47.0°F8.3°C 99% 2.2 mph S3.5 kmh S 6.9 mph11.1 kmh 29.64 in1003.7 mb 0.00 in0.0 mm 0.00 in0.0 mm 0.06 in1.5 mm
11:18 AM 47.3°F8.5°C 47.0°F8.3°C 99% 1.6 mph S2.6 kmh S 6.0 mph9.7 kmh 29.64 in1003.7 mb 0.00 in0.0 mm 0.00 in0.0 mm 0.06 in1.5 mm
11:17 AM 47.1°F8.4°C 46.9°F8.3°C 99% Calm Calm 6.0 mph9.7 kmh 29.64 in1003.7 mb 0.00 in0.0 mm 0.00 in0.0 mm 0.06 in1.5 mm
11:16 AM 46.9°F8.3°C 46.7°F8.2°C 99% Calm Calm 6.0 mph9.7 kmh 29.64 in1003.7 mb 0.00 in0.0 mm 0.00 in0.0 mm 0.06 in1.5 mm
11:15 AM 46.9°F8.3°C 46.7°F8.2°C 99% Calm Calm 6.0 mph9.7 kmh 29.64 in1003.7 mb 0.00 in0.0 mm 0.00 in0.0 mm 0.06 in1.5 mm
11:14 AM 46.9°F8.3°C 46.7°F8.2°C 99% 0.7 mph SSE1.1 kmh SSE 6.0 mph9.7 kmh 29.64 in1003.7 mb 0.00 in0.0 mm 0.00 in0.0 mm 0.06 in1.5 mm
11:13 AM 46.8°F8.2°C 46.5°F8.1°C 99% 0.7 mph SSE1.1 kmh SSE 6.0 mph9.7 kmh 29.64 in1003.7 mb 0.00 in0.0 mm 0.00 in0.0 mm 0.06 in1.5 mm
11:12 AM 46.8°F8.2°C 46.5°F8.1°C 99% Calm Calm 6.0 mph9.7 kmh 29.64 in1003.7 mb 0.00 in0.0 mm 0.00 in0.0 mm 0.06 in1.5 mm
11:11 AM 46.8°F8.2°C 46.5°F8.1°C 99% 1.6 mph S2.6 kmh S 6.0 mph9.7 kmh 29.64 in1003.7 mb 0.00 in0.0 mm 0.00 in0.0 mm 0.06 in1.5 mm
11:10 AM 46.8°F8.2°C 46.5°F8.1°C 99% 0.7 mph S1.1 kmh S 3.8 mph6.1 kmh 29.64 in1003.7 mb 0.00 in0.0 mm 0.00 in0.0 mm 0.06 in1.5 mm
11:09 AM 46.9°F8.3°C 46.7°F8.2°C 99% 0.7 mph S1.1 kmh S 3.8 mph6.1 kmh 29.64 in1003.7 mb 0.00 in0.0 mm 0.00 in0.0 mm 0.06 in1.5 mm
11:08 AM 46.9°F8.3°C 46.7°F8.2°C 99% 0.7 mph S1.1 kmh S 4.5 mph7.2 kmh 29.63 in1003.4 mb 0.00 in0.0 mm 0.00 in0.0 mm 0.06 in1.5 mm
11:07 AM 46.9°F8.3°C 46.7°F8.2°C 99% Calm Calm 4.5 mph7.2 kmh 29.63 in1003.4 mb 0.00 in0.0 mm 0.00 in0.0 mm 0.06 in1.5 mm
11:06 AM 46.8°F8.2°C 46.5°F8.1°C 99% 1.6 mph S2.6 kmh S 4.5 mph7.2 kmh 29.64 in1003.7 mb 0.00 in0.0 mm 0.00 in0.0 mm 0.06 in1.5 mm
11:05 AM 46.6°F8.1°C 46.3°F7.9°C 99% Calm Calm 4.5 mph7.2 kmh 29.64 in1003.7 mb 0.00 in0.0 mm 0.00 in0.0 mm 0.06 in1.5 mm
11:04 AM 46.6°F8.1°C 46.3°F7.9°C 99% Calm Calm 4.5 mph7.2 kmh 29.63 in1003.4 mb 0.00 in0.0 mm 0.00 in0.0 mm 0.06 in1.5 mm
11:03 AM 46.6°F8.1°C 46.3°F7.9°C 99% 0.7 mph S1.1 kmh S 4.5 mph7.2 kmh 29.64 in1003.7 mb 0.00 in0.0 mm 0.00 in0.0 mm 0.06 in1.5 mm
11:02 AM 46.6°F8.1°C 46.3°F7.9°C 99% 0.7 mph S1.1 kmh S 4.5 mph7.2 kmh 29.64 in1003.7 mb 0.00 in0.0 mm 0.00 in0.0 mm 0.06 in1.5 mm
11:01 AM 46.6°F8.1°C 46.3°F7.9°C 99% Calm Calm 4.5 mph7.2 kmh 29.64 in1003.7 mb 0.00 in0.0 mm 0.00 in0.0 mm 0.06 in1.5 mm
11:00 AM 46.6°F8.1°C 46.3°F7.9°C 99% Calm Calm 4.5 mph7.2 kmh 29.64 in1003.7 mb 0.00 in0.0 mm 0.00 in0.0 mm 0.06 in1.5 mm
10:59 AM 46.6°F8.1°C 46.3°F7.9°C 99% Calm Calm 4.5 mph7.2 kmh 29.64 in1003.7 mb 0.00 in0.0 mm 0.00 in0.0 mm 0.06 in1.5 mm
10:58 AM 46.4°F8.0°C 46.1°F7.8°C 99% 1.6 mph SE2.6 kmh SE 4.5 mph7.2 kmh 29.64 in1003.7 mb 0.00 in0.0 mm 0.00 in0.0 mm 0.06 in1.5 mm
10:57 AM 46.2°F7.9°C 46.0°F7.8°C 99% 0.7 mph SE1.1 kmh SE 3.1 mph5.0 kmh 29.64 in1003.7 mb 0.00 in0.0 mm 0.00 in0.0 mm 0.06 in1.5 mm
10:56 AM 46.0°F7.8°C 45.8°F7.7°C 99% Calm Calm 6.0 mph9.7 kmh 29.64 in1003.7 mb 0.00 in0.0 mm 0.00 in0.0 mm 0.06 in1.5 mm
10:55 AM 46.0°F7.8°C 45.8°F7.7°C 99% Calm Calm 6.0 mph9.7 kmh 29.63 in1003.4 mb 0.00 in0.0 mm 0.00 in0.0 mm 0.06 in1.5 mm
10:54 AM 46.0°F7.8°C 45.8°F7.7°C 99% Calm Calm 6.0 mph9.7 kmh 29.63 in1003.4 mb 0.00 in0.0 mm 0.00 in0.0 mm 0.06 in1.5 mm
10:53 AM 45.9°F7.7°C 45.6°F7.6°C 99% Calm Calm 6.0 mph9.7 kmh 29.64 in1003.7 mb 0.00 in0.0 mm 0.00 in0.0 mm 0.06 in1.5 mm
10:52 AM 45.7°F7.6°C 45.4°F7.4°C 99% Calm Calm 6.0 mph9.7 kmh 29.64 in1003.7 mb 0.00 in0.0 mm 0.00 in0.0 mm 0.06 in1.5 mm
10:51 AM 45.7°F7.6°C 45.4°F7.4°C 99% 0.7 mph SE1.1 kmh SE 6.0 mph9.7 kmh 29.64 in1003.7 mb 0.00 in0.0 mm 0.00 in0.0 mm 0.06 in1.5 mm
10:50 AM 45.5°F7.5°C 45.2°F7.3°C 99% 0.7 mph SE1.1 kmh SE 6.0 mph9.7 kmh 29.63 in1003.4 mb 0.00 in0.0 mm 0.00 in0.0 mm 0.06 in1.5 mm
10:49 AM 45.5°F7.5°C 45.2°F7.3°C 99% Calm Calm 6.0 mph9.7 kmh 29.64 in1003.7 mb 0.00 in0.0 mm 0.00 in0.0 mm 0.06 in1.5 mm
10:48 AM 45.3°F7.4°C 45.1°F7.3°C 99% 0.7 mph SE1.1 kmh SE 6.0 mph9.7 kmh 29.63 in1003.4 mb 0.00 in0.0 mm 0.00 in0.0 mm 0.06 in1.5 mm
10:47 AM 45.3°F7.4°C 45.1°F7.3°C 99% Calm Calm 6.0 mph9.7 kmh 29.63 in1003.4 mb 0.00 in0.0 mm 0.00 in0.0 mm 0.06 in1.5 mm
10:46 AM 45.3°F7.4°C 45.1°F7.3°C 99% 0.7 mph SE1.1 kmh SE 6.0 mph9.7 kmh 29.64 in1003.7 mb 0.00 in0.0 mm 0.00 in0.0 mm 0.06 in1.5 mm
10:45 AM 45.1°F7.3°C 44.9°F7.2°C 99% 0.7 mph ESE1.1 kmh ESE 5.4 mph8.7 kmh 29.63 in1003.4 mb 0.00 in0.0 mm 0.00 in0.0 mm 0.06 in1.5 mm
10:44 AM 45.1°F7.3°C 44.9°F7.2°C 99% 0.7 mph ESE1.1 kmh ESE 5.4 mph8.7 kmh 29.64 in1003.7 mb 0.00 in0.0 mm 0.00 in0.0 mm 0.06 in1.5 mm
10:43 AM 45.1°F7.3°C 44.9°F7.2°C 99% 1.6 mph ESE2.6 kmh ESE 5.4 mph8.7 kmh 29.64 in1003.7 mb 0.00 in0.0 mm 0.00 in0.0 mm 0.06 in1.5 mm
10:42 AM 45.1°F7.3°C 44.9°F7.2°C 99% 0.7 mph ESE1.1 kmh ESE 5.4 mph8.7 kmh 29.64 in1003.7 mb 0.00 in0.0 mm 0.00 in0.0 mm 0.06 in1.5 mm
10:41 AM 45.0°F7.2°C 44.7°F7.1°C 99% Calm Calm 5.4 mph8.7 kmh 29.64 in1003.7 mb 0.00 in0.0 mm 0.00 in0.0 mm 0.06 in1.5 mm
10:40 AM 45.0°F7.2°C 44.7°F7.1°C 99% Calm Calm 5.4 mph8.7 kmh 29.63 in1003.4 mb 0.00 in0.0 mm 0.00 in0.0 mm 0.06 in1.5 mm
10:39 AM 45.0°F7.2°C 44.7°F7.1°C 99% 0.7 mph SE1.1 kmh SE 5.4 mph8.7 kmh 29.63 in1003.4 mb 0.00 in0.0 mm 0.00 in0.0 mm 0.06 in1.5 mm
10:38 AM 45.0°F7.2°C 44.7°F7.1°C 99% 0.7 mph SSE1.1 kmh SSE 5.4 mph8.7 kmh 29.62 in1003.0 mb 0.00 in0.0 mm 0.00 in0.0 mm 0.06 in1.5 mm
10:37 AM 45.0°F7.2°C 44.7°F7.1°C 99% Calm Calm 5.4 mph8.7 kmh 29.63 in1003.4 mb 0.00 in0.0 mm 0.00 in0.0 mm 0.06 in1.5 mm
10:36 AM 44.8°F7.1°C 44.5°F6.9°C 99% 0.7 mph SE1.1 kmh SE 5.4 mph8.7 kmh 29.63 in1003.4 mb 0.00 in0.0 mm 0.00 in0.0 mm 0.06 in1.5 mm
10:35 AM 44.8°F7.1°C 44.5°F6.9°C 99% Calm Calm 5.4 mph8.7 kmh 29.63 in1003.4 mb 0.00 in0.0 mm 0.00 in0.0 mm 0.06 in1.5 mm
10:34 AM 44.8°F7.1°C 44.5°F6.9°C 99% 0.7 mph S1.1 kmh S 5.4 mph8.7 kmh 29.63 in1003.4 mb 0.00 in0.0 mm 0.00 in0.0 mm 0.06 in1.5 mm
10:33 AM 44.8°F7.1°C 44.5°F6.9°C 99% 0.7 mph SSE1.1 kmh SSE 5.4 mph8.7 kmh 29.63 in1003.4 mb 0.00 in0.0 mm 0.00 in0.0 mm 0.06 in1.5 mm
10:32 AM 44.8°F7.1°C 44.5°F6.9°C 99% 0.7 mph S1.1 kmh S 3.8 mph6.1 kmh 29.63 in1003.4 mb 0.01 in0.3 mm 0.00 in0.0 mm 0.06 in1.5 mm
10:31 AM 44.8°F7.1°C 44.5°F6.9°C 99% Calm Calm 3.8 mph6.1 kmh 29.63 in1003.4 mb 0.01 in0.3 mm 0.00 in0.0 mm 0.06 in1.5 mm
10:30 AM 44.8°F7.1°C 44.5°F6.9°C 99% Calm Calm 3.8 mph6.1 kmh 29.62 in1003.0 mb 0.01 in0.3 mm 0.00 in0.0 mm 0.06 in1.5 mm
10:29 AM 44.8°F7.1°C 44.5°F6.9°C 99% Calm Calm 3.8 mph6.1 kmh 29.62 in1003.0 mb 0.01 in0.3 mm 0.00 in0.0 mm 0.06 in1.5 mm
10:28 AM 44.6°F7.0°C 44.3°F6.8°C 99% Calm Calm 3.8 mph6.1 kmh 29.62 in1003.0 mb 0.01 in0.3 mm 0.00 in0.0 mm 0.06 in1.5 mm
10:27 AM 44.6°F7.0°C 44.3°F6.8°C 99% Calm Calm 3.8 mph6.1 kmh 29.62 in1003.0 mb 0.01 in0.3 mm 0.00 in0.0 mm 0.06 in1.5 mm
10:26 AM 44.8°F7.1°C 44.5°F6.9°C 99% 0.7 mph SE1.1 kmh SE 3.8 mph6.1 kmh 29.63 in1003.4 mb 0.01 in0.3 mm 0.00 in0.0 mm 0.06 in1.5 mm
10:25 AM 44.8°F7.1°C 44.5°F6.9°C 99% Calm Calm 3.8 mph6.1 kmh 29.62 in1003.0 mb 0.01 in0.3 mm 0.00 in0.0 mm 0.06 in1.5 mm
10:24 AM 44.8°F7.1°C 44.5°F6.9°C 99% 1.6 mph SE2.6 kmh SE 3.8 mph6.1 kmh 29.62 in1003.0 mb 0.01 in0.3 mm 0.00 in0.0 mm 0.06 in1.5 mm
10:23 AM 45.0°F7.2°C 44.7°F7.1°C 99% 1.6 mph SSE2.6 kmh SSE 3.8 mph6.1 kmh 29.62 in1003.0 mb 0.01 in0.3 mm 0.00 in0.0 mm 0.06 in1.5 mm
10:22 AM 45.0°F7.2°C 44.7°F7.1°C 99% Calm Calm 5.4 mph8.7 kmh 29.62 in1003.0 mb 0.01 in0.3 mm 0.00 in0.0 mm 0.06 in1.5 mm
10:21 AM 45.0°F7.2°C 44.7°F7.1°C 99% Calm Calm 5.4 mph8.7 kmh 29.62 in1003.0 mb 0.01 in0.3 mm 0.00 in0.0 mm 0.06 in1.5 mm
10:20 AM 45.0°F7.2°C 44.7°F7.1°C 99% 0.7 mph NE1.1 kmh NE 5.4 mph8.7 kmh 29.62 in1003.0 mb 0.02 in0.5 mm 0.00 in0.0 mm 0.06 in1.5 mm
10:19 AM 45.0°F7.2°C 44.7°F7.1°C 99% Calm Calm 5.4 mph8.7 kmh 29.62 in1003.0 mb 0.02 in0.5 mm 0.00 in0.0 mm 0.06 in1.5 mm
10:18 AM 45.0°F7.2°C 44.7°F7.1°C 99% Calm Calm 5.4 mph8.7 kmh 29.62 in1003.0 mb 0.02 in0.5 mm 0.00 in0.0 mm 0.06 in1.5 mm
10:17 AM 45.0°F7.2°C 44.7°F7.1°C 99% 0.7 mph NNW1.1 kmh NNW 5.4 mph8.7 kmh 29.62 in1003.0 mb 0.02 in0.5 mm 0.00 in0.0 mm 0.06 in1.5 mm
10:16 AM 45.1°F7.3°C 44.9°F7.2°C 99% 0.7 mph NW1.1 kmh NW 5.4 mph8.7 kmh 29.62 in1003.0 mb 0.02 in0.5 mm 0.00 in0.0 mm 0.06 in1.5 mm
10:15 AM 45.1°F7.3°C 44.9°F7.2°C 99% 0.7 mph NW1.1 kmh NW 5.4 mph8.7 kmh 29.62 in1003.0 mb 0.02 in0.5 mm 0.00 in0.0 mm 0.06 in1.5 mm
10:14 AM 45.0°F7.2°C 44.7°F7.1°C 99% Calm Calm 5.4 mph8.7 kmh 29.61 in1002.7 mb 0.02 in0.5 mm 0.00 in0.0 mm 0.06 in1.5 mm
10:13 AM 45.0°F7.2°C 44.7°F7.1°C 99% 2.2 mph NW3.5 kmh NW 5.4 mph8.7 kmh 29.61 in1002.7 mb 0.02 in0.5 mm 0.00 in0.0 mm 0.06 in1.5 mm
10:12 AM 45.0°F7.2°C 44.7°F7.1°C 99% Calm Calm 3.8 mph6.1 kmh 29.62 in1003.0 mb 0.02 in0.5 mm 0.00 in0.0 mm 0.06 in1.5 mm
10:11 AM 45.0°F7.2°C 44.7°F7.1°C 99% Calm Calm 3.8 mph6.1 kmh 29.62 in1003.0 mb 0.02 in0.5 mm 0.00 in0.0 mm 0.06 in1.5 mm
10:10 AM 45.0°F7.2°C 44.7°F7.1°C 99% 0.7 mph SW1.1 kmh SW 3.8 mph6.1 kmh 29.62 in1003.0 mb 0.02 in0.5 mm 0.00 in0.0 mm 0.06 in1.5 mm
10:09 AM 45.0°F7.2°C 44.7°F7.1°C 99% Calm Calm 3.8 mph6.1 kmh 29.62 in1003.0 mb 0.04 in1.0 mm 0.00 in0.0 mm 0.06 in1.5 mm
10:08 AM 44.8°F7.1°C 44.5°F6.9°C 99% Calm Calm 3.8 mph6.1 kmh 29.62 in1003.0 mb 0.04 in1.0 mm 0.00 in0.0 mm 0.06 in1.5 mm
10:07 AM 44.8°F7.1°C 44.5°F6.9°C 99% Calm Calm 3.8 mph6.1 kmh 29.62 in1003.0 mb 0.04 in1.0 mm 0.00 in0.0 mm 0.06 in1.5 mm
10:06 AM 44.8°F7.1°C 44.5°F6.9°C 99% Calm Calm 3.8 mph6.1 kmh 29.62 in1003.0 mb 0.04 in1.0 mm 0.00 in0.0 mm 0.06 in1.5 mm
10:05 AM 44.6°F7.0°C 44.3°F6.8°C 99% Calm Calm 3.8 mph6.1 kmh 29.62 in1003.0 mb 0.05 in1.3 mm 0.00 in0.0 mm 0.06 in1.5 mm
10:04 AM 44.6°F7.0°C 44.3°F6.8°C 99% Calm Calm 3.8 mph6.1 kmh 29.61 in1002.7 mb 0.05 in1.3 mm 0.00 in0.0 mm 0.06 in1.5 mm
10:03 AM 44.6°F7.0°C 44.3°F6.8°C 99% Calm Calm 3.8 mph6.1 kmh 29.61 in1002.7 mb 0.05 in1.3 mm 0.00 in0.0 mm 0.06 in1.5 mm
10:02 AM 44.6°F7.0°C 44.3°F6.8°C 99% Calm Calm 3.8 mph6.1 kmh 29.61 in1002.7 mb 0.05 in1.3 mm 0.00 in0.0 mm 0.06 in1.5 mm
10:01 AM 44.4°F6.9°C 44.2°F6.8°C 99% Calm Calm 3.8 mph6.1 kmh 29.62 in1003.0 mb 0.05 in1.3 mm 0.00 in0.0 mm 0.06 in1.5 mm
10:00 AM 44.4°F6.9°C 44.2°F6.8°C 99% Calm Calm 3.8 mph6.1 kmh 29.61 in1002.7 mb 0.05 in1.3 mm 0.00 in0.0 mm 0.06 in1.5 mm
09:59 AM 44.2°F6.8°C 44.0°F6.7°C 99% 2.2 mph SW3.5 kmh SW 3.8 mph6.1 kmh 29.61 in1002.7 mb 0.05 in1.3 mm 0.00 in0.0 mm 0.06 in1.5 mm
09:58 AM 44.2°F6.8°C 44.0°F6.7°C 99% Calm Calm 3.8 mph6.1 kmh 29.62 in1003.0 mb 0.05 in1.3 mm 0.00 in0.0 mm 0.06 in1.5 mm
09:57 AM 44.1°F6.7°C 43.8°F6.6°C 99% Calm Calm 3.8 mph6.1 kmh 29.61 in1002.7 mb 0.05 in1.3 mm 0.00 in0.0 mm 0.06 in1.5 mm
09:56 AM 44.1°F6.7°C 43.8°F6.6°C 99% Calm Calm 3.8 mph6.1 kmh 29.62 in1003.0 mb 0.05 in1.3 mm 0.00 in0.0 mm 0.06 in1.5 mm
09:55 AM 44.1°F6.7°C 43.8°F6.6°C 99% 0.7 mph WSW1.1 kmh WSW 3.8 mph6.1 kmh 29.62 in1003.0 mb 0.05 in1.3 mm 0.00 in0.0 mm 0.06 in1.5 mm
09:54 AM 44.1°F6.7°C 43.8°F6.6°C 99% Calm Calm 3.8 mph6.1 kmh 29.61 in1002.7 mb 0.05 in1.3 mm 0.00 in0.0 mm 0.06 in1.5 mm
09:53 AM 44.1°F6.7°C 43.8°F6.6°C 99% Calm Calm 3.8 mph6.1 kmh 29.61 in1002.7 mb 0.05 in1.3 mm 0.00 in0.0 mm 0.06 in1.5 mm
09:52 AM 44.1°F6.7°C 43.8°F6.6°C 99% Calm Calm 3.8 mph6.1 kmh 29.61 in1002.7 mb 0.05 in1.3 mm 0.00 in0.0 mm 0.06 in1.5 mm
09:51 AM 43.9°F6.6°C 43.6°F6.4°C 99% 0.7 mph SSW1.1 kmh SSW 3.8 mph6.1 kmh 29.61 in1002.7 mb 0.05 in1.3 mm 0.00 in0.0 mm 0.06 in1.5 mm
09:50 AM 43.9°F6.6°C 43.6°F6.4°C 99% 0.7 mph WSW1.1 kmh WSW 3.8 mph6.1 kmh 29.61 in1002.7 mb 0.05 in1.3 mm 0.00 in0.0 mm 0.06 in1.5 mm
09:49 AM 43.9°F6.6°C 43.6°F6.4°C 99% Calm Calm 3.8 mph6.1 kmh 29.61 in1002.7 mb 0.05 in1.3 mm 0.00 in0.0 mm 0.06 in1.5 mm
09:48 AM 43.7°F6.5°C 43.4°F6.3°C 99% Calm Calm 3.8 mph6.1 kmh 29.62 in1003.0 mb 0.05 in1.3 mm 0.00 in0.0 mm 0.06 in1.5 mm
09:47 AM 43.7°F6.5°C 43.4°F6.3°C 99% 1.6 mph WSW2.6 kmh WSW 3.8 mph6.1 kmh 29.61 in1002.7 mb 0.05 in1.3 mm 0.00 in0.0 mm 0.06 in1.5 mm
09:46 AM 43.7°F6.5°C 43.4°F6.3°C 99% Calm Calm 3.8 mph6.1 kmh 29.62 in1003.0 mb 0.05 in1.3 mm 0.00 in0.0 mm 0.06 in1.5 mm
09:45 AM 43.7°F6.5°C 43.4°F6.3°C 99% Calm Calm 3.8 mph6.1 kmh 29.62 in1003.0 mb 0.05 in1.3 mm 0.00 in0.0 mm 0.06 in1.5 mm
09:44 AM 43.7°F6.5°C 43.4°F6.3°C 99% Calm Calm 3.8 mph6.1 kmh 29.61 in1002.7 mb 0.05 in1.3 mm 0.00 in0.0 mm 0.06 in1.5 mm
09:43 AM 43.7°F6.5°C 43.4°F6.3°C 99% Calm Calm 3.8 mph6.1 kmh 29.62 in1003.0 mb 0.05 in1.3 mm 0.00 in0.0 mm 0.06 in1.5 mm
09:42 AM 43.7°F6.5°C 43.4°F6.3°C 99% 1.6 mph NW2.6 kmh NW 3.8 mph6.1 kmh 29.62 in1003.0 mb 0.05 in1.3 mm 0.00 in0.0 mm 0.06 in1.5 mm
09:41 AM 43.5°F6.4°C 43.3°F6.3°C 99% Calm Calm 2.2 mph3.5 kmh 29.62 in1003.0 mb 0.05 in1.3 mm 0.00 in0.0 mm 0.06 in1.5 mm
09:40 AM 43.5°F6.4°C 43.3°F6.3°C 99% Calm Calm 2.2 mph3.5 kmh 29.62 in1003.0 mb 0.05 in1.3 mm 0.00 in0.0 mm 0.06 in1.5 mm
09:39 AM 43.5°F6.4°C 43.3°F6.3°C 99% Calm Calm 2.2 mph3.5 kmh 29.62 in1003.0 mb 0.05 in1.3 mm 0.00 in0.0 mm 0.06 in1.5 mm
09:38 AM 43.5°F6.4°C 43.3°F6.3°C 99% 0.7 mph WSW1.1 kmh WSW 2.2 mph3.5 kmh 29.62 in1003.0 mb 0.05 in1.3 mm 0.00 in0.0 mm 0.06 in1.5 mm
09:37 AM 43.5°F6.4°C 43.3°F6.3°C 99% Calm Calm 3.1 mph5.0 kmh 29.62 in1003.0 mb 0.05 in1.3 mm 0.00 in0.0 mm 0.06 in1.5 mm
09:36 AM 43.5°F6.4°C 43.3°F6.3°C 99% 0.7 mph SSW1.1 kmh SSW 3.1 mph5.0 kmh 29.62 in1003.0 mb 0.05 in1.3 mm 0.00 in0.0 mm 0.06 in1.5 mm
09:35 AM 43.5°F6.4°C 43.3°F6.3°C 99% Calm Calm 3.1 mph5.0 kmh 29.62 in1003.0 mb 0.05 in1.3 mm 0.00 in0.0 mm 0.06 in1.5 mm
09:34 AM 43.5°F6.4°C 43.3°F6.3°C 99% Calm Calm 3.1 mph5.0 kmh 29.62 in1003.0 mb 0.05 in1.3 mm 0.60 in15.2 mm 0.06 in1.5 mm
09:33 AM 43.5°F6.4°C 43.3°F6.3°C 99% Calm Calm 3.1 mph5.0 kmh 29.62 in1003.0 mb 0.04 in1.0 mm 0.00 in0.0 mm 0.05 in1.3 mm
09:32 AM 43.5°F6.4°C 43.3°F6.3°C 99% Calm Calm 3.1 mph5.0 kmh 29.62 in1003.0 mb 0.04 in1.0 mm 0.00 in0.0 mm 0.05 in1.3 mm
09:31 AM 43.3°F6.3°C 43.1°F6.2°C 99% Calm Calm 3.1 mph5.0 kmh 29.62 in1003.0 mb 0.04 in1.0 mm 0.00 in0.0 mm 0.05 in1.3 mm
09:30 AM 43.3°F6.3°C 43.1°F6.2°C 99% Calm Calm 3.1 mph5.0 kmh 29.62 in1003.0 mb 0.04 in1.0 mm 0.00 in0.0 mm 0.05 in1.3 mm
09:29 AM 43.5°F6.4°C 43.3°F6.3°C 99% 0.7 mph SSW1.1 kmh SSW 3.1 mph5.0 kmh 29.62 in1003.0 mb 0.04 in1.0 mm 0.00 in0.0 mm 0.05 in1.3 mm
09:28 AM 43.5°F6.4°C 43.3°F6.3°C 99% 0.7 mph SSW1.1 kmh SSW 3.1 mph5.0 kmh 29.61 in1002.7 mb 0.04 in1.0 mm 0.00 in0.0 mm 0.05 in1.3 mm
09:27 AM 43.5°F6.4°C 43.3°F6.3°C 99% 0.7 mph SW1.1 kmh SW 3.1 mph5.0 kmh 29.61 in1002.7 mb 0.04 in1.0 mm 0.00 in0.0 mm 0.05 in1.3 mm
09:26 AM 43.5°F6.4°C 43.3°F6.3°C 99% Calm Calm 2.2 mph3.5 kmh 29.61 in1002.7 mb 0.04 in1.0 mm 0.00 in0.0 mm 0.05 in1.3 mm
09:25 AM 43.5°F6.4°C 43.3°F6.3°C 99% Calm Calm 2.2 mph3.5 kmh 29.61 in1002.7 mb 0.04 in1.0 mm 0.00 in0.0 mm 0.05 in1.3 mm
09:24 AM 43.5°F6.4°C 43.3°F6.3°C 99% Calm Calm 2.2 mph3.5 kmh 29.61 in1002.7 mb 0.04 in1.0 mm 0.00 in0.0 mm 0.05 in1.3 mm
09:23 AM 43.5°F6.4°C 43.3°F6.3°C 99% Calm Calm 2.2 mph3.5 kmh 29.61 in1002.7 mb 0.04 in1.0 mm 0.00 in0.0 mm 0.05 in1.3 mm
09:22 AM 43.5°F6.4°C 43.3°F6.3°C 99% Calm Calm 2.2 mph3.5 kmh 29.61 in1002.7 mb 0.04 in1.0 mm 1.20 in30.5 mm 0.05 in1.3 mm
09:21 AM 43.5°F6.4°C 43.3°F6.3°C 99% Calm Calm 3.1 mph5.0 kmh 29.61 in1002.7 mb 0.02 in0.5 mm 0.00 in0.0 mm 0.04 in1.0 mm
09:20 AM 43.5°F6.4°C 43.3°F6.3°C 99% Calm Calm 3.1 mph5.0 kmh 29.62 in1003.0 mb 0.02 in0.5 mm 0.00 in0.0 mm 0.04 in1.0 mm
09:19 AM 43.5°F6.4°C 43.3°F6.3°C 99% 0.7 mph SSE1.1 kmh SSE 3.1 mph5.0 kmh 29.61 in1002.7 mb 0.02 in0.5 mm 0.00 in0.0 mm 0.04 in1.0 mm
09:18 AM 43.5°F6.4°C 43.3°F6.3°C 99% Calm Calm 3.1 mph5.0 kmh 29.61 in1002.7 mb 0.02 in0.5 mm 0.00 in0.0 mm 0.04 in1.0 mm
09:17 AM 43.5°F6.4°C 43.3°F6.3°C 99% Calm Calm 3.1 mph5.0 kmh 29.61 in1002.7 mb 0.02 in0.5 mm 0.00 in0.0 mm 0.04 in1.0 mm
09:16 AM 43.5°F6.4°C 43.3°F6.3°C 99% Calm Calm 3.1 mph5.0 kmh 29.61 in1002.7 mb 0.02 in0.5 mm 0.00 in0.0 mm 0.04 in1.0 mm
09:15 AM 43.5°F6.4°C 43.3°F6.3°C 99% Calm Calm 3.1 mph5.0 kmh 29.61 in1002.7 mb 0.02 in0.5 mm 0.00 in0.0 mm 0.04 in1.0 mm
09:14 AM 43.5°F6.4°C 43.3°F6.3°C 99% Calm Calm 3.1 mph5.0 kmh 29.61 in1002.7 mb 0.02 in0.5 mm 0.00 in0.0 mm 0.04 in1.0 mm
09:13 AM 43.5°F6.4°C 43.3°F6.3°C 99% 1.6 mph S2.6 kmh S 3.1 mph5.0 kmh 29.61 in1002.7 mb 0.02 in0.5 mm 0.00 in0.0 mm 0.04 in1.0 mm
09:12 AM 43.5°F6.4°C 43.3°F6.3°C 99% Calm Calm 3.1 mph5.0 kmh 29.61 in1002.7 mb 0.02 in0.5 mm 0.00 in0.0 mm 0.04 in1.0 mm
09:11 AM 43.5°F6.4°C 43.3°F6.3°C 99% Calm Calm 3.1 mph5.0 kmh 29.61 in1002.7 mb 0.02 in0.5 mm 0.00 in0.0 mm 0.04 in1.0 mm
09:10 AM 43.5°F6.4°C 43.3°F6.3°C 99% Calm Calm 3.1 mph5.0 kmh 29.61 in1002.7 mb 0.02 in0.5 mm 0.60 in15.2 mm 0.04 in1.0 mm
09:09 AM 43.5°F6.4°C 43.3°F6.3°C 99% Calm Calm 3.1 mph5.0 kmh 29.61 in1002.7 mb 0.01 in0.3 mm 0.00 in0.0 mm 0.02 in0.5 mm
09:08 AM 43.5°F6.4°C 43.3°F6.3°C 99% Calm Calm 3.1 mph5.0 kmh 29.61 in1002.7 mb 0.01 in0.3 mm 0.00 in0.0 mm 0.02 in0.5 mm
09:07 AM 43.5°F6.4°C 43.3°F6.3°C 99% Calm Calm 3.1 mph5.0 kmh 29.61 in1002.7 mb 0.01 in0.3 mm 0.00 in0.0 mm 0.02 in0.5 mm
09:06 AM 43.5°F6.4°C 43.3°F6.3°C 99% 0.7 mph SSE1.1 kmh SSE 3.1 mph5.0 kmh 29.60 in1002.4 mb 0.01 in0.3 mm 0.60 in15.2 mm 0.02 in0.5 mm
09:05 AM 43.5°F6.4°C 43.3°F6.3°C 99% Calm Calm 3.1 mph5.0 kmh 29.61 in1002.7 mb 0.00 in0.0 mm 0.00 in0.0 mm 0.01 in0.3 mm
09:04 AM 43.5°F6.4°C 43.3°F6.3°C 99% Calm Calm 3.1 mph5.0 kmh 29.60 in1002.4 mb 0.00 in0.0 mm 0.00 in0.0 mm 0.01 in0.3 mm
09:03 AM 43.3°F6.3°C 43.1°F6.2°C 99% 0.7 mph SE1.1 kmh SE 3.8 mph6.1 kmh 29.61 in1002.7 mb 0.00 in0.0 mm 0.00 in0.0 mm 0.01 in0.3 mm
09:02 AM 43.5°F6.4°C 43.3°F6.3°C 99% Calm Calm 3.8 mph6.1 kmh 29.60 in1002.4 mb 0.00 in0.0 mm 0.00 in0.0 mm 0.01 in0.3 mm
09:01 AM 43.5°F6.4°C 43.3°F6.3°C 99% 0.7 mph ESE1.1 kmh ESE 3.8 mph6.1 kmh 29.60 in1002.4 mb 0.00 in0.0 mm 0.00 in0.0 mm 0.01 in0.3 mm
09:00 AM 43.5°F6.4°C 43.3°F6.3°C 99% 0.7 mph ESE1.1 kmh ESE 3.8 mph6.1 kmh 29.61 in1002.7 mb 0.00 in0.0 mm 0.00 in0.0 mm 0.01 in0.3 mm
08:59 AM 43.5°F6.4°C 43.3°F6.3°C 99% Calm Calm 3.8 mph6.1 kmh 29.61 in1002.7 mb 0.00 in0.0 mm 0.00 in0.0 mm 0.01 in0.3 mm
08:58 AM 43.5°F6.4°C 43.3°F6.3°C 99% 0.7 mph E1.1 kmh E 3.8 mph6.1 kmh 29.60 in1002.4 mb 0.00 in0.0 mm 0.00 in0.0 mm 0.01 in0.3 mm
08:57 AM 43.5°F6.4°C 43.3°F6.3°C 99% Calm Calm 3.8 mph6.1 kmh 29.60 in1002.4 mb 0.00 in0.0 mm 0.00 in0.0 mm 0.01 in0.3 mm
08:56 AM 43.3°F6.3°C 43.1°F6.2°C 99% Calm Calm 3.8 mph6.1 kmh 29.61 in1002.7 mb 0.00 in0.0 mm 0.00 in0.0 mm 0.01 in0.3 mm
08:55 AM 43.5°F6.4°C 43.3°F6.3°C 99% Calm Calm 3.8 mph6.1 kmh 29.61 in1002.7 mb 0.00 in0.0 mm 0.00 in0.0 mm 0.01 in0.3 mm
08:54 AM 43.3°F6.3°C 43.1°F6.2°C 99% 0.7 mph ESE1.1 kmh ESE 3.8 mph6.1 kmh 29.61 in1002.7 mb 0.00 in0.0 mm 0.00 in0.0 mm 0.01 in0.3 mm
08:53 AM 43.5°F6.4°C 43.3°F6.3°C 99% Calm Calm 3.8 mph6.1 kmh 29.60 in1002.4 mb 0.00 in0.0 mm 0.00 in0.0 mm 0.01 in0.3 mm
08:52 AM 43.3°F6.3°C 43.1°F6.2°C 99% Calm Calm 3.8 mph6.1 kmh 29.60 in1002.4 mb 0.00 in0.0 mm 0.00 in0.0 mm 0.01 in0.3 mm
08:51 AM 43.3°F6.3°C 43.1°F6.2°C 99% Calm Calm 3.8 mph6.1 kmh 29.61 in1002.7 mb 0.00 in0.0 mm 0.00 in0.0 mm 0.01 in0.3 mm
08:50 AM 43.3°F6.3°C 43.1°F6.2°C 99% Calm Calm 3.8 mph6.1 kmh 29.61 in1002.7 mb 0.00 in0.0 mm 0.00 in0.0 mm 0.01 in0.3 mm
08:49 AM 43.3°F6.3°C 43.1°F6.2°C 99% Calm Calm 3.8 mph6.1 kmh 29.60 in1002.4 mb 0.00 in0.0 mm 0.00 in0.0 mm 0.01 in0.3 mm
08:48 AM 43.3°F6.3°C 43.1°F6.2°C 99% Calm Calm 3.8 mph6.1 kmh 29.60 in1002.4 mb 0.00 in0.0 mm 0.00 in0.0 mm 0.01 in0.3 mm
08:47 AM 43.3°F6.3°C 43.1°F6.2°C 99% Calm Calm 3.8 mph6.1 kmh 29.60 in1002.4 mb 0.00 in0.0 mm 0.00 in0.0 mm 0.01 in0.3 mm
08:46 AM 43.3°F6.3°C 43.1°F6.2°C 99% Calm Calm 3.8 mph6.1 kmh 29.60 in1002.4 mb 0.00 in0.0 mm 0.00 in0.0 mm 0.01 in0.3 mm
08:45 AM 43.3°F6.3°C 43.1°F6.2°C 99% 0.7 mph SW1.1 kmh SW 3.8 mph6.1 kmh 29.60 in1002.4 mb 0.00 in0.0 mm 0.00 in0.0 mm 0.01 in0.3 mm
08:44 AM 43.3°F6.3°C 43.1°F6.2°C 99% 0.7 mph SW1.1 kmh SW 10.7 mph17.2 kmh 29.60 in1002.4 mb 0.00 in0.0 mm 0.00 in0.0 mm 0.01 in0.3 mm
08:43 AM 43.3°F6.3°C 43.1°F6.2°C 99% Calm Calm 10.7 mph17.2 kmh 29.60 in1002.4 mb 0.00 in0.0 mm 0.00 in0.0 mm 0.01 in0.3 mm
08:42 AM 43.2°F6.2°C 42.9°F6.1°C 99% Calm Calm 10.7 mph17.2 kmh 29.60 in1002.4 mb 0.00 in0.0 mm 0.00 in0.0 mm 0.01 in0.3 mm
08:41 AM 43.3°F6.3°C 43.1°F6.2°C 99% Calm Calm 10.7 mph17.2 kmh 29.59 in1002.0 mb 0.00 in0.0 mm 0.00 in0.0 mm 0.01 in0.3 mm
08:40 AM 43.3°F6.3°C 43.1°F6.2°C 99% Calm Calm 10.7 mph17.2 kmh 29.59 in1002.0 mb 0.00 in0.0 mm 0.00 in0.0 mm 0.01 in0.3 mm
08:39 AM 43.2°F6.2°C 42.9°F6.1°C 99% 0.7 mph SSE1.1 kmh SSE 10.7 mph17.2 kmh 29.60 in1002.4 mb 0.00 in0.0 mm 0.00 in0.0 mm 0.01 in0.3 mm
08:38 AM 43.2°F6.2°C 42.9°F6.1°C 99% 0.7 mph SE1.1 kmh SE 10.7 mph17.2 kmh 29.59 in1002.0 mb 0.00 in0.0 mm 0.00 in0.0 mm 0.01 in0.3 mm
08:37 AM 43.3°F6.3°C 43.1°F6.2°C 99% Calm Calm 10.7 mph17.2 kmh 29.59 in1002.0 mb 0.00 in0.0 mm 0.00 in0.0 mm 0.01 in0.3 mm
08:36 AM 43.3°F6.3°C 43.1°F6.2°C 99% 0.7 mph SE1.1 kmh SE 10.7 mph17.2 kmh 29.59 in1002.0 mb 0.00 in0.0 mm 0.00 in0.0 mm 0.01 in0.3 mm
08:35 AM 43.2°F6.2°C 42.9°F6.1°C 99% 1.6 mph SE2.6 kmh SE 10.7 mph17.2 kmh 29.59 in1002.0 mb 0.00 in0.0 mm 0.00 in0.0 mm 0.01 in0.3 mm
08:34 AM 43.3°F6.3°C 43.1°F6.2°C 99% 4.5 mph SE7.2 kmh SE 10.7 mph17.2 kmh 29.59 in1002.0 mb 0.00 in0.0 mm 0.00 in0.0 mm 0.01 in0.3 mm
08:33 AM 43.2°F6.2°C 42.9°F6.1°C 99% Calm Calm 6.9 mph11.1 kmh 29.59 in1002.0 mb 0.00 in0.0 mm 0.00 in0.0 mm 0.01 in0.3 mm
08:32 AM 43.2°F6.2°C 42.9°F6.1°C 99% Calm Calm 6.9 mph11.1 kmh 29.59 in1002.0 mb 0.00 in0.0 mm 0.00 in0.0 mm 0.01 in0.3 mm
08:31 AM 43.2°F6.2°C 42.9°F6.1°C 99% Calm Calm 6.9 mph11.1 kmh 29.59 in1002.0 mb 0.00 in0.0 mm 0.00 in0.0 mm 0.01 in0.3 mm
08:30 AM 43.2°F6.2°C 42.9°F6.1°C 99% Calm Calm 6.9 mph11.1 kmh 29.59 in1002.0 mb 0.00 in0.0 mm 0.00 in0.0 mm 0.01 in0.3 mm
08:29 AM 43.3°F6.3°C 43.1°F6.2°C 99% 1.6 mph SE2.6 kmh SE 6.9 mph11.1 kmh 29.59 in1002.0 mb 0.00 in0.0 mm 0.00 in0.0 mm 0.01 in0.3 mm
08:28 AM 43.2°F6.2°C 42.9°F6.1°C 99% 1.6 mph ESE2.6 kmh ESE 6.9 mph11.1 kmh 29.59 in1002.0 mb 0.00 in0.0 mm 0.00 in0.0 mm 0.01 in0.3 mm
08:27 AM 43.2°F6.2°C 42.9°F6.1°C 99% 0.7 mph ESE1.1 kmh ESE 4.5 mph7.2 kmh 29.59 in1002.0 mb 0.00 in0.0 mm 0.00 in0.0 mm 0.01 in0.3 mm
08:26 AM 43.2°F6.2°C 42.9°F6.1°C 99% 0.7 mph ESE1.1 kmh ESE 4.5 mph7.2 kmh 29.59 in1002.0 mb 0.00 in0.0 mm 0.00 in0.0 mm 0.01 in0.3 mm
08:25 AM 43.2°F6.2°C 42.9°F6.1°C 99% 0.7 mph E1.1 kmh E 4.5 mph7.2 kmh 29.59 in1002.0 mb 0.00 in0.0 mm 0.00 in0.0 mm 0.01 in0.3 mm
08:24 AM 43.2°F6.2°C 42.9°F6.1°C 99% Calm Calm 4.5 mph7.2 kmh 29.59 in1002.0 mb 0.00 in0.0 mm 0.00 in0.0 mm 0.01 in0.3 mm
08:23 AM 43.2°F6.2°C 42.9°F6.1°C 99% Calm Calm 4.5 mph7.2 kmh 29.59 in1002.0 mb 0.00 in0.0 mm 0.00 in0.0 mm 0.01 in0.3 mm
08:22 AM 43.2°F6.2°C 42.9°F6.1°C 99% Calm Calm 3.1 mph5.0 kmh 29.59 in1002.0 mb 0.00 in0.0 mm 0.00 in0.0 mm 0.01 in0.3 mm
08:21 AM 43.2°F6.2°C 42.9°F6.1°C 99% Calm Calm 3.1 mph5.0 kmh 29.59 in1002.0 mb 0.00 in0.0 mm 0.00 in0.0 mm 0.01 in0.3 mm
08:20 AM 43.2°F6.2°C 42.9°F6.1°C 99% Calm Calm 3.1 mph5.0 kmh 29.59 in1002.0 mb 0.00 in0.0 mm 0.00 in0.0 mm 0.01 in0.3 mm
08:19 AM 43.2°F6.2°C 42.9°F6.1°C 99% Calm Calm 3.1 mph5.0 kmh 29.59 in1002.0 mb 0.00 in0.0 mm 0.00 in0.0 mm 0.01 in0.3 mm
08:18 AM 43.2°F6.2°C 42.9°F6.1°C 99% Calm Calm 3.8 mph6.1 kmh 29.59 in1002.0 mb 0.00 in0.0 mm 0.00 in0.0 mm 0.01 in0.3 mm
08:17 AM 43.0°F6.1°C 42.7°F5.9°C 99% Calm Calm 3.8 mph6.1 kmh 29.59 in1002.0 mb 0.00 in0.0 mm 0.00 in0.0 mm 0.01 in0.3 mm
08:16 AM 43.0°F6.1°C 42.7°F5.9°C 99% Calm Calm 4.5 mph7.2 kmh 29.59 in1002.0 mb 0.00 in0.0 mm 0.00 in0.0 mm 0.01 in0.3 mm
08:15 AM 43.0°F6.1°C 42.7°F5.9°C 99% Calm Calm 4.5 mph7.2 kmh 29.59 in1002.0 mb 0.00 in0.0 mm 0.00 in0.0 mm 0.01 in0.3 mm
08:14 AM 43.0°F6.1°C 42.7°F5.9°C 99% Calm Calm 4.5 mph7.2 kmh 29.59 in1002.0 mb 0.00 in0.0 mm 0.00 in0.0 mm 0.01 in0.3 mm
08:13 AM 43.0°F6.1°C 42.7°F5.9°C 99% 1.6 mph S2.6 kmh S 4.5 mph7.2 kmh 29.59 in1002.0 mb 0.00 in0.0 mm 0.00 in0.0 mm 0.01 in0.3 mm
08:12 AM 43.0°F6.1°C 42.7°F5.9°C 99% Calm Calm 4.5 mph7.2 kmh 29.59 in1002.0 mb 0.00 in0.0 mm 0.00 in0.0 mm 0.01 in0.3 mm
08:11 AM 43.0°F6.1°C 42.7°F5.9°C 99% Calm Calm 4.5 mph7.2 kmh 29.59 in1002.0 mb 0.00 in0.0 mm 0.00 in0.0 mm 0.01 in0.3 mm
08:10 AM 43.0°F6.1°C 42.7°F5.9°C 99% Calm Calm 4.5 mph7.2 kmh 29.59 in1002.0 mb 0.00 in0.0 mm 0.00 in0.0 mm 0.01 in0.3 mm
08:09 AM 43.0°F6.1°C 42.7°F5.9°C 99% Calm Calm 4.5 mph7.2 kmh 29.59 in1002.0 mb 0.00 in0.0 mm 0.00 in0.0 mm 0.01 in0.3 mm
08:08 AM 43.0°F6.1°C 42.7°F5.9°C 99% 0.7 mph S1.1 kmh S 4.5 mph7.2 kmh 29.59 in1002.0 mb 0.00 in0.0 mm 0.00 in0.0 mm 0.01 in0.3 mm
08:07 AM 43.0°F6.1°C 42.7°F5.9°C 99% Calm Calm 4.5 mph7.2 kmh 29.59 in1002.0 mb 0.00 in0.0 mm 0.00 in0.0 mm 0.01 in0.3 mm
08:06 AM 43.0°F6.1°C 42.7°F5.9°C 99% 2.2 mph SE3.5 kmh SE 4.5 mph7.2 kmh 29.58 in1001.7 mb 0.00 in0.0 mm 0.00 in0.0 mm 0.01 in0.3 mm
08:05 AM 43.0°F6.1°C 42.7°F5.9°C 99% Calm Calm 4.5 mph7.2 kmh 29.58 in1001.7 mb 0.00 in0.0 mm 0.00 in0.0 mm 0.01 in0.3 mm
08:04 AM 43.0°F6.1°C 42.7°F5.9°C 99% Calm Calm 4.5 mph7.2 kmh 29.58 in1001.7 mb 0.00 in0.0 mm 0.00 in0.0 mm 0.01 in0.3 mm
08:03 AM 43.0°F6.1°C 42.7°F5.9°C 99% 0.7 mph SE1.1 kmh SE 4.5 mph7.2 kmh 29.58 in1001.7 mb 0.00 in0.0 mm 0.00 in0.0 mm 0.01 in0.3 mm
08:02 AM 43.0°F6.1°C 42.7°F5.9°C 99% 0.7 mph SE1.1 kmh SE 4.5 mph7.2 kmh 29.58 in1001.7 mb 0.00 in0.0 mm 0.00 in0.0 mm 0.01 in0.3 mm
08:01 AM 43.0°F6.1°C 42.7°F5.9°C 99% Calm Calm 4.5 mph7.2 kmh 29.58 in1001.7 mb 0.00 in0.0 mm 0.00 in0.0 mm 0.01 in0.3 mm
08:00 AM 43.0°F6.1°C 42.7°F5.9°C 99% Calm Calm 4.5 mph7.2 kmh 29.58 in1001.7 mb 0.00 in0.0 mm 0.00 in0.0 mm 0.01 in0.3 mm
07:59 AM 43.0°F6.1°C 42.7°F5.9°C 99% Calm Calm 4.5 mph7.2 kmh 29.59 in1002.0 mb 0.00 in0.0 mm 0.00 in0.0 mm 0.01 in0.3 mm
07:58 AM 43.0°F6.1°C 42.7°F5.9°C 99% 0.7 mph SSE1.1 kmh SSE 4.5 mph7.2 kmh 29.58 in1001.7 mb 0.00 in0.0 mm 0.00 in0.0 mm 0.01 in0.3 mm
07:57 AM 43.0°F6.1°C 42.7°F5.9°C 99% 1.6 mph SSE2.6 kmh SSE 4.5 mph7.2 kmh 29.59 in1002.0 mb 0.00 in0.0 mm 0.00 in0.0 mm 0.01 in0.3 mm
07:56 AM 43.0°F6.1°C 42.7°F5.9°C 99% 0.7 mph S1.1 kmh S 4.5 mph7.2 kmh 29.58 in1001.7 mb 0.00 in0.0 mm 0.00 in0.0 mm 0.01 in0.3 mm
07:55 AM 43.0°F6.1°C 42.7°F5.9°C 99% 0.7 mph S1.1 kmh S 4.5 mph7.2 kmh 29.58 in1001.7 mb 0.00 in0.0 mm 0.00 in0.0 mm 0.01 in0.3 mm
07:54 AM 43.0°F6.1°C 42.7°F5.9°C 99% Calm Calm 4.5 mph7.2 kmh 29.58 in1001.7 mb 0.00 in0.0 mm 0.00 in0.0 mm 0.01 in0.3 mm
07:53 AM 43.0°F6.1°C 42.7°F5.9°C 99% Calm Calm 4.5 mph7.2 kmh 29.58 in1001.7 mb 0.00 in0.0 mm 0.00 in0.0 mm 0.01 in0.3 mm
07:52 AM 43.0°F6.1°C 42.7°F5.9°C 99% 0.7 mph SSW1.1 kmh SSW 4.5 mph7.2 kmh 29.58 in1001.7 mb 0.00 in0.0 mm 0.00 in0.0 mm 0.01 in0.3 mm
07:51 AM 42.8°F6.0°C 42.5°F5.8°C 99% Calm Calm 4.5 mph7.2 kmh 29.57 in1001.4 mb 0.00 in0.0 mm 0.00 in0.0 mm 0.01 in0.3 mm
07:50 AM 43.0°F6.1°C 42.7°F5.9°C 99% Calm Calm 4.5 mph7.2 kmh 29.57 in1001.4 mb 0.00 in0.0 mm 0.00 in0.0 mm 0.01 in0.3 mm
07:49 AM 43.0°F6.1°C 42.7°F5.9°C 99% 0.7 mph SW1.1 kmh SW 4.5 mph7.2 kmh 29.57 in1001.4 mb 0.00 in0.0 mm 0.00 in0.0 mm 0.01 in0.3 mm
07:48 AM 43.0°F6.1°C 42.7°F5.9°C 99% Calm Calm 3.1 mph5.0 kmh 29.57 in1001.4 mb 0.00 in0.0 mm 0.00 in0.0 mm 0.01 in0.3 mm
07:47 AM 42.8°F6.0°C 42.5°F5.8°C 99% Calm Calm 3.1 mph5.0 kmh 29.57 in1001.4 mb 0.00 in0.0 mm 0.00 in0.0 mm 0.01 in0.3 mm
07:46 AM 42.8°F6.0°C 42.5°F5.8°C 99% 0.7 mph WSW1.1 kmh WSW 3.1 mph5.0 kmh 29.57 in1001.4 mb 0.00 in0.0 mm 0.00 in0.0 mm 0.01 in0.3 mm
07:45 AM 43.0°F6.1°C 42.7°F5.9°C 99% 1.6 mph WSW2.6 kmh WSW 3.1 mph5.0 kmh 29.58 in1001.7 mb 0.00 in0.0 mm 0.00 in0.0 mm 0.01 in0.3 mm
07:44 AM 42.8°F6.0°C 42.5°F5.8°C 99% 0.7 mph SW1.1 kmh SW 3.1 mph5.0 kmh 29.57 in1001.4 mb 0.00 in0.0 mm 0.00 in0.0 mm 0.01 in0.3 mm
07:43 AM 42.8°F6.0°C 42.5°F5.8°C 99% Calm Calm 3.1 mph5.0 kmh 29.57 in1001.4 mb 0.00 in0.0 mm 0.00 in0.0 mm 0.01 in0.3 mm
07:42 AM 42.8°F6.0°C 42.5°F5.8°C 99% Calm Calm 4.5 mph7.2 kmh 29.57 in1001.4 mb 0.00 in0.0 mm 0.00 in0.0 mm 0.01 in0.3 mm
07:41 AM 42.8°F6.0°C 42.5°F5.8°C 99% 0.7 mph NW1.1 kmh NW 4.5 mph7.2 kmh 29.57 in1001.4 mb 0.00 in0.0 mm 0.00 in0.0 mm 0.01 in0.3 mm
07:40 AM 42.8°F6.0°C 42.5°F5.8°C 99% Calm Calm 4.5 mph7.2 kmh 29.57 in1001.4 mb 0.00 in0.0 mm 0.00 in0.0 mm 0.01 in0.3 mm
07:39 AM 42.8°F6.0°C 42.5°F5.8°C 99% Calm Calm 4.5 mph7.2 kmh 29.57 in1001.4 mb 0.00 in0.0 mm 0.00 in0.0 mm 0.01 in0.3 mm
07:38 AM 42.8°F6.0°C 42.5°F5.8°C 99% Calm Calm 4.5 mph7.2 kmh 29.57 in1001.4 mb 0.00 in0.0 mm 0.00 in0.0 mm 0.01 in0.3 mm
07:37 AM 42.8°F6.0°C 42.5°F5.8°C 99% Calm Calm 4.5 mph7.2 kmh 29.57 in1001.4 mb 0.00 in0.0 mm 0.00 in0.0 mm 0.01 in0.3 mm
07:36 AM 42.8°F6.0°C 42.5°F5.8°C 99% 0.7 mph NW1.1 kmh NW 4.5 mph7.2 kmh 29.57 in1001.4 mb 0.00 in0.0 mm 0.00 in0.0 mm 0.01 in0.3 mm
07:35 AM 42.6°F5.9°C 42.4°F5.8°C 99% Calm Calm 4.5 mph7.2 kmh 29.57 in1001.4 mb 0.00 in0.0 mm 0.00 in0.0 mm 0.01 in0.3 mm
07:34 AM 42.8°F6.0°C 42.5°F5.8°C 99% Calm Calm 4.5 mph7.2 kmh 29.57 in1001.4 mb 0.00 in0.0 mm 0.00 in0.0 mm 0.01 in0.3 mm
07:33 AM 42.8°F6.0°C 42.5°F5.8°C 99% Calm Calm 4.5 mph7.2 kmh 29.57 in1001.4 mb 0.00 in0.0 mm 0.00 in0.0 mm 0.01 in0.3 mm
07:32 AM 42.8°F6.0°C 42.5°F5.8°C 99% Calm Calm 4.5 mph7.2 kmh 29.57 in1001.4 mb 0.00 in0.0 mm 0.00 in0.0 mm 0.01 in0.3 mm
07:31 AM 42.8°F6.0°C 42.5°F5.8°C 99% Calm Calm 3.1 mph5.0 kmh 29.57 in1001.4 mb 0.00 in0.0 mm 0.00 in0.0 mm 0.01 in0.3 mm
07:30 AM 42.8°F6.0°C 42.5°F5.8°C 99% Calm Calm 3.8 mph6.1 kmh 29.57 in1001.4 mb 0.00 in0.0 mm 0.00 in0.0 mm 0.01 in0.3 mm
07:29 AM 42.6°F5.9°C 42.4°F5.8°C 99% Calm Calm 5.4 mph8.7 kmh 29.57 in1001.4 mb 0.00 in0.0 mm 0.00 in0.0 mm 0.01 in0.3 mm
07:28 AM 42.8°F6.0°C 42.5°F5.8°C 99% 1.6 mph SW2.6 kmh SW 6.0 mph9.7 kmh 29.58 in1001.7 mb 0.00 in0.0 mm 0.00 in0.0 mm 0.01 in0.3 mm
07:27 AM 42.8°F6.0°C 42.5°F5.8°C 99% 0.7 mph SSW1.1 kmh SSW 6.0 mph9.7 kmh 29.57 in1001.4 mb 0.00 in0.0 mm 0.00 in0.0 mm 0.01 in0.3 mm
07:26 AM 42.8°F6.0°C 42.5°F5.8°C 99% Calm Calm 6.0 mph9.7 kmh 29.57 in1001.4 mb 0.00 in0.0 mm 0.00 in0.0 mm 0.01 in0.3 mm
07:25 AM 42.6°F5.9°C 42.4°F5.8°C 99% Calm Calm 6.0 mph9.7 kmh 29.57 in1001.4 mb 0.00 in0.0 mm 0.00 in0.0 mm 0.01 in0.3 mm
07:24 AM 42.8°F6.0°C 42.5°F5.8°C 99% Calm Calm 6.0 mph9.7 kmh 29.57 in1001.4 mb 0.00 in0.0 mm 0.00 in0.0 mm 0.01 in0.3 mm
07:23 AM 42.8°F6.0°C 42.5°F5.8°C 99% Calm Calm 6.0 mph9.7 kmh 29.57 in1001.4 mb 0.00 in0.0 mm 0.00 in0.0 mm 0.01 in0.3 mm
07:22 AM 42.6°F5.9°C 42.4°F5.8°C 99% Calm Calm 6.0 mph9.7 kmh 29.57 in1001.4 mb 0.00 in0.0 mm 0.00 in0.0 mm 0.01 in0.3 mm
07:21 AM 42.8°F6.0°C 42.5°F5.8°C 99% 1.6 mph WSW2.6 kmh WSW 6.0 mph9.7 kmh 29.57 in1001.4 mb 0.00 in0.0 mm 0.00 in0.0 mm 0.01 in0.3 mm
07:20 AM 42.8°F6.0°C 42.5°F5.8°C 99% Calm Calm 6.0 mph9.7 kmh 29.57 in1001.4 mb 0.00 in0.0 mm 0.00 in0.0 mm 0.01 in0.3 mm
07:19 AM 42.8°F6.0°C 42.5°F5.8°C 99% 0.7 mph SW1.1 kmh SW 6.0 mph9.7 kmh 29.57 in1001.4 mb 0.00 in0.0 mm 0.00 in0.0 mm 0.01 in0.3 mm
07:18 AM 42.6°F5.9°C 42.4°F5.8°C 99% 0.7 mph WSW1.1 kmh WSW 6.0 mph9.7 kmh 29.56 in1001.0 mb 0.00 in0.0 mm 0.00 in0.0 mm 0.01 in0.3 mm
07:17 AM 42.8°F6.0°C 42.5°F5.8°C 99% Calm Calm 3.1 mph5.0 kmh 29.57 in1001.4 mb 0.00 in0.0 mm 0.00 in0.0 mm 0.01 in0.3 mm
07:16 AM 42.6°F5.9°C 42.4°F5.8°C 99% Calm Calm 3.1 mph5.0 kmh 29.57 in1001.4 mb 0.00 in0.0 mm 0.00 in0.0 mm 0.01 in0.3 mm
07:15 AM 42.6°F5.9°C 42.4°F5.8°C 99% Calm Calm 3.1 mph5.0 kmh 29.57 in1001.4 mb 0.00 in0.0 mm 0.00 in0.0 mm 0.01 in0.3 mm
07:14 AM 42.8°F6.0°C 42.5°F5.8°C 99% Calm Calm 3.1 mph5.0 kmh 29.56 in1001.0 mb 0.00 in0.0 mm 0.00 in0.0 mm 0.01 in0.3 mm
07:13 AM 42.8°F6.0°C 42.5°F5.8°C 99% 0.7 mph WSW1.1 kmh WSW 3.1 mph5.0 kmh 29.57 in1001.4 mb 0.00 in0.0 mm 0.00 in0.0 mm 0.01 in0.3 mm
07:12 AM 42.8°F6.0°C 42.5°F5.8°C 99% Calm Calm 3.1 mph5.0 kmh 29.56 in1001.0 mb 0.00 in0.0 mm 0.00 in0.0 mm 0.01 in0.3 mm
07:11 AM 42.6°F5.9°C 42.4°F5.8°C 99% 0.7 mph WSW1.1 kmh WSW 3.1 mph5.0 kmh 29.57 in1001.4 mb 0.00 in0.0 mm 0.00 in0.0 mm 0.01 in0.3 mm
07:10 AM 42.6°F5.9°C 42.4°F5.8°C 99% 0.7 mph SW1.1 kmh SW 3.1 mph5.0 kmh 29.57 in1001.4 mb 0.00 in0.0 mm 0.00 in0.0 mm 0.01 in0.3 mm
07:09 AM 42.6°F5.9°C 42.4°F5.8°C 99% Calm Calm 3.8 mph6.1 kmh 29.57 in1001.4 mb 0.00 in0.0 mm 0.00 in0.0 mm 0.01 in0.3 mm
07:08 AM 42.6°F5.9°C 42.4°F5.8°C 99% Calm Calm 3.8 mph6.1 kmh 29.57 in1001.4 mb 0.00 in0.0 mm 0.00 in0.0 mm 0.01 in0.3 mm
07:07 AM 42.6°F5.9°C 42.4°F5.8°C 99% Calm Calm 3.8 mph6.1 kmh 29.57 in1001.4 mb 0.00 in0.0 mm 0.00 in0.0 mm 0.01 in0.3 mm
07:06 AM 42.6°F5.9°C 42.4°F5.8°C 99% Calm Calm 4.5 mph7.2 kmh 29.57 in1001.4 mb 0.00 in0.0 mm 0.00 in0.0 mm 0.01 in0.3 mm
07:05 AM 42.6°F5.9°C 42.4°F5.8°C 99% Calm Calm 4.5 mph7.2 kmh 29.57 in1001.4 mb 0.00 in0.0 mm 0.00 in0.0 mm 0.01 in0.3 mm
07:04 AM 42.4°F5.8°C 42.2°F5.7°C 99% 0.7 mph SSW1.1 kmh SSW 4.5 mph7.2 kmh 29.57 in1001.4 mb 0.00 in0.0 mm 0.00 in0.0 mm 0.01 in0.3 mm
07:03 AM 42.6°F5.9°C 42.4°F5.8°C 99% 0.7 mph S1.1 kmh S 4.5 mph7.2 kmh 29.56 in1001.0 mb 0.00 in0.0 mm 0.00 in0.0 mm 0.01 in0.3 mm
07:02 AM 42.6°F5.9°C 42.4°F5.8°C 99% 0.7 mph S1.1 kmh S 4.5 mph7.2 kmh 29.57 in1001.4 mb 0.00 in0.0 mm 0.00 in0.0 mm 0.01 in0.3 mm
07:01 AM 42.6°F5.9°C 42.4°F5.8°C 99% 1.6 mph S2.6 kmh S 4.5 mph7.2 kmh 29.56 in1001.0 mb 0.00 in0.0 mm 0.00 in0.0 mm 0.01 in0.3 mm
07:00 AM 42.6°F5.9°C 42.4°F5.8°C 99% 1.6 mph S2.6 kmh S 4.5 mph7.2 kmh 29.56 in1001.0 mb 0.00 in0.0 mm 0.00 in0.0 mm 0.01 in0.3 mm
06:59 AM 42.6°F5.9°C 42.4°F5.8°C 99% 1.6 mph S2.6 kmh S 4.5 mph7.2 kmh 29.56 in1001.0 mb 0.00 in0.0 mm 0.00 in0.0 mm 0.01 in0.3 mm
06:58 AM 42.6°F5.9°C 42.4°F5.8°C 99% Calm Calm 4.5 mph7.2 kmh 29.56 in1001.0 mb 0.00 in0.0 mm 0.00 in0.0 mm 0.01 in0.3 mm
06:57 AM 42.6°F5.9°C 42.4°F5.8°C 99% Calm Calm 4.5 mph7.2 kmh 29.56 in1001.0 mb 0.00 in0.0 mm 0.00 in0.0 mm 0.01 in0.3 mm
06:56 AM 42.6°F5.9°C 42.4°F5.8°C 99% 0.7 mph S1.1 kmh S 4.5 mph7.2 kmh 29.56 in1001.0 mb 0.00 in0.0 mm 0.00 in0.0 mm 0.01 in0.3 mm
06:55 AM 42.6°F5.9°C 42.4°F5.8°C 99% 1.6 mph S2.6 kmh S 3.1 mph5.0 kmh 29.55 in1000.7 mb 0.00 in0.0 mm 0.00 in0.0 mm 0.01 in0.3 mm
06:54 AM 42.6°F5.9°C 42.4°F5.8°C 99% Calm Calm 3.1 mph5.0 kmh 29.55 in1000.7 mb 0.00 in0.0 mm 0.00 in0.0 mm 0.01 in0.3 mm
06:53 AM 42.6°F5.9°C 42.4°F5.8°C 99% Calm Calm 3.1 mph5.0 kmh 29.55 in1000.7 mb 0.00 in0.0 mm 0.00 in0.0 mm 0.01 in0.3 mm
06:52 AM 42.6°F5.9°C 42.4°F5.8°C 99% 0.7 mph S1.1 kmh S 3.1 mph5.0 kmh 29.55 in1000.7 mb 0.00 in0.0 mm 0.00 in0.0 mm 0.01 in0.3 mm
06:51 AM 42.6°F5.9°C 42.4°F5.8°C 99% 1.6 mph S2.6 kmh S 3.1 mph5.0 kmh 29.55 in1000.7 mb 0.00 in0.0 mm 0.00 in0.0 mm 0.01 in0.3 mm
06:50 AM 42.6°F5.9°C 42.4°F5.8°C 99% Calm Calm 2.2 mph3.5 kmh 29.55 in1000.7 mb 0.00 in0.0 mm 0.00 in0.0 mm 0.01 in0.3 mm
06:49 AM 42.6°F5.9°C 42.4°F5.8°C 99% Calm Calm 2.2 mph3.5 kmh 29.55 in1000.7 mb 0.00 in0.0 mm 0.00 in0.0 mm 0.01 in0.3 mm
06:48 AM 42.6°F5.9°C 42.4°F5.8°C 99% 0.7 mph SW1.1 kmh SW 2.2 mph3.5 kmh 29.56 in1001.0 mb 0.00 in0.0 mm 0.00 in0.0 mm 0.01 in0.3 mm
06:47 AM 42.6°F5.9°C 42.4°F5.8°C 99% Calm Calm 2.2 mph3.5 kmh 29.55 in1000.7 mb 0.00 in0.0 mm 0.00 in0.0 mm 0.01 in0.3 mm
06:46 AM 42.6°F5.9°C 42.4°F5.8°C 99% Calm Calm 2.2 mph3.5 kmh 29.56 in1001.0 mb 0.00 in0.0 mm 0.00 in0.0 mm 0.01 in0.3 mm
06:45 AM 42.6°F5.9°C 42.4°F5.8°C 99% Calm Calm 1.6 mph2.6 kmh 29.55 in1000.7 mb 0.00 in0.0 mm 0.00 in0.0 mm 0.01 in0.3 mm
06:44 AM 42.6°F5.9°C 42.4°F5.8°C 99% Calm Calm 1.6 mph2.6 kmh 29.55 in1000.7 mb 0.00 in0.0 mm 0.00 in0.0 mm 0.01 in0.3 mm
06:43 AM 42.6°F5.9°C 42.4°F5.8°C 99% Calm Calm 2.2 mph3.5 kmh 29.55 in1000.7 mb 0.00 in0.0 mm 0.00 in0.0 mm 0.01 in0.3 mm
06:42 AM 42.6°F5.9°C 42.4°F5.8°C 99% Calm Calm 2.2 mph3.5 kmh 29.56 in1001.0 mb 0.00 in0.0 mm 0.00 in0.0 mm 0.01 in0.3 mm
06:41 AM 42.4°F5.8°C 42.2°F5.7°C 99% Calm Calm 2.2 mph3.5 kmh 29.56 in1001.0 mb 0.00 in0.0 mm 0.00 in0.0 mm 0.01 in0.3 mm
06:40 AM 42.4°F5.8°C 42.2°F5.7°C 99% Calm Calm 2.2 mph3.5 kmh 29.55 in1000.7 mb 0.00 in0.0 mm 0.00 in0.0 mm 0.01 in0.3 mm
06:39 AM 42.4°F5.8°C 42.2°F5.7°C 99% Calm Calm 2.2 mph3.5 kmh 29.56 in1001.0 mb 0.00 in0.0 mm 0.00 in0.0 mm 0.01 in0.3 mm
06:38 AM 42.4°F5.8°C 42.2°F5.7°C 99% Calm Calm 2.2 mph3.5 kmh 29.55 in1000.7 mb 0.00 in0.0 mm 0.00 in0.0 mm 0.01 in0.3 mm
06:37 AM 42.4°F5.8°C 42.2°F5.7°C 99% Calm Calm 3.1 mph5.0 kmh 29.55 in1000.7 mb 0.00 in0.0 mm 0.00 in0.0 mm 0.01 in0.3 mm
06:36 AM 42.4°F5.8°C 42.2°F5.7°C 99% Calm Calm 3.8 mph6.1 kmh 29.55 in1000.7 mb 0.00 in0.0 mm 0.00 in0.0 mm 0.01 in0.3 mm
06:35 AM 42.4°F5.8°C 42.2°F5.7°C 99% Calm Calm 3.8 mph6.1 kmh 29.55 in1000.7 mb 0.00 in0.0 mm 0.00 in0.0 mm 0.01 in0.3 mm
06:34 AM 42.4°F5.8°C 42.2°F5.7°C 99% Calm Calm 3.8 mph6.1 kmh 29.55 in1000.7 mb 0.00 in0.0 mm 0.00 in0.0 mm 0.01 in0.3 mm
06:33 AM 42.4°F5.8°C 42.2°F5.7°C 99% Calm Calm 3.8 mph6.1 kmh 29.55 in1000.7 mb 0.00 in0.0 mm 0.00 in0.0 mm 0.01 in0.3 mm
06:32 AM 42.4°F5.8°C 42.2°F5.7°C 99% Calm Calm 3.8 mph6.1 kmh 29.55 in1000.7 mb 0.00 in0.0 mm 0.00 in0.0 mm 0.01 in0.3 mm
06:31 AM 42.6°F5.9°C 42.4°F5.8°C 99% Calm Calm 3.8 mph6.1 kmh 29.55 in1000.7 mb 0.00 in0.0 mm 0.00 in0.0 mm 0.01 in0.3 mm
06:30 AM 42.4°F5.8°C 42.2°F5.7°C 99% Calm Calm 3.8 mph6.1 kmh 29.55 in1000.7 mb 0.00 in0.0 mm 0.00 in0.0 mm 0.01 in0.3 mm
06:29 AM 42.6°F5.9°C 42.4°F5.8°C 99% Calm Calm 3.8 mph6.1 kmh 29.55 in1000.7 mb 0.00 in0.0 mm 0.00 in0.0 mm 0.01 in0.3 mm
06:28 AM 42.6°F5.9°C 42.4°F5.8°C 99% Calm Calm 3.8 mph6.1 kmh 29.55 in1000.7 mb 0.00 in0.0 mm 0.00 in0.0 mm 0.01 in0.3 mm
06:27 AM 42.6°F5.9°C 42.4°F5.8°C 99% Calm Calm 3.8 mph6.1 kmh 29.54 in1000.3 mb 0.00 in0.0 mm 0.00 in0.0 mm 0.01 in0.3 mm
06:26 AM 42.6°F5.9°C 42.4°F5.8°C 99% Calm Calm 3.8 mph6.1 kmh 29.54 in1000.3 mb 0.00 in0.0 mm 0.00 in0.0 mm 0.01 in0.3 mm
06:25 AM 42.6°F5.9°C 42.4°F5.8°C 99% Calm Calm 2.2 mph3.5 kmh 29.54 in1000.3 mb 0.00 in0.0 mm 0.00 in0.0 mm 0.01 in0.3 mm
06:24 AM 42.6°F5.9°C 42.4°F5.8°C 99% Calm Calm 2.2 mph3.5 kmh 29.54 in1000.3 mb 0.00 in0.0 mm 0.00 in0.0 mm 0.01 in0.3 mm
06:23 AM 42.6°F5.9°C 42.4°F5.8°C 99% Calm Calm 3.1 mph5.0 kmh 29.55 in1000.7 mb 0.00 in0.0 mm 0.00 in0.0 mm 0.01 in0.3 mm
06:22 AM 42.6°F5.9°C 42.4°F5.8°C 99% Calm Calm 3.1 mph5.0 kmh 29.55 in1000.7 mb 0.00 in0.0 mm 0.00 in0.0 mm 0.01 in0.3 mm
06:21 AM 42.6°F5.9°C 42.4°F5.8°C 99% Calm Calm 3.1 mph5.0 kmh 29.54 in1000.3 mb 0.00 in0.0 mm 0.00 in0.0 mm 0.01 in0.3 mm
06:20 AM 42.6°F5.9°C 42.4°F5.8°C 99% Calm Calm 3.1 mph5.0 kmh 29.55 in1000.7 mb 0.00 in0.0 mm 0.00 in0.0 mm 0.01 in0.3 mm
06:19 AM 42.6°F5.9°C 42.4°F5.8°C 99% Calm Calm 4.5 mph7.2 kmh 29.54 in1000.3 mb 0.00 in0.0 mm 0.00 in0.0 mm 0.01 in0.3 mm
06:18 AM 42.6°F5.9°C 42.4°F5.8°C 99% Calm Calm 4.5 mph7.2 kmh 29.54 in1000.3 mb 0.00 in0.0 mm 0.00 in0.0 mm 0.01 in0.3 mm
06:17 AM 42.4°F5.8°C 42.2°F5.7°C 99% Calm Calm 4.5 mph7.2 kmh 29.55 in1000.7 mb 0.00 in0.0 mm 0.00 in0.0 mm 0.01 in0.3 mm
06:16 AM 42.6°F5.9°C 42.4°F5.8°C 99% Calm Calm 4.5 mph7.2 kmh 29.54 in1000.3 mb 0.00 in0.0 mm 0.00 in0.0 mm 0.01 in0.3 mm
06:15 AM 42.6°F5.9°C 42.4°F5.8°C 99% Calm Calm 4.5 mph7.2 kmh 29.54 in1000.3 mb 0.00 in0.0 mm 0.00 in0.0 mm 0.01 in0.3 mm
06:14 AM 42.6°F5.9°C 42.4°F5.8°C 99% Calm Calm 4.5 mph7.2 kmh 29.54 in1000.3 mb 0.00 in0.0 mm 0.00 in0.0 mm 0.01 in0.3 mm
06:13 AM 42.4°F5.8°C 42.2°F5.7°C 99% Calm Calm 4.5 mph7.2 kmh 29.54 in1000.3 mb 0.00 in0.0 mm 0.00 in0.0 mm 0.01 in0.3 mm
06:12 AM 42.4°F5.8°C 42.2°F5.7°C 99% Calm Calm 4.5 mph7.2 kmh 29.55 in1000.7 mb 0.00 in0.0 mm 0.00 in0.0 mm 0.01 in0.3 mm
06:11 AM 42.6°F5.9°C 42.4°F5.8°C 99% Calm Calm 4.5 mph7.2 kmh 29.55 in1000.7 mb 0.00 in0.0 mm 0.00 in0.0 mm 0.01 in0.3 mm
06:10 AM 42.4°F5.8°C 42.2°F5.7°C 99% Calm Calm 4.5 mph7.2 kmh 29.55 in1000.7 mb 0.00 in0.0 mm 0.00 in0.0 mm 0.01 in0.3 mm
06:09 AM 42.6°F5.9°C 42.4°F5.8°C 99% 0.7 mph WNW1.1 kmh WNW 4.5 mph7.2 kmh 29.55 in1000.7 mb 0.00 in0.0 mm 0.00 in0.0 mm 0.01 in0.3 mm
06:08 AM 42.6°F5.9°C 42.4°F5.8°C 99% Calm Calm 3.1 mph5.0 kmh 29.54 in1000.3 mb 0.00 in0.0 mm 0.00 in0.0 mm 0.01 in0.3 mm
06:07 AM 42.6°F5.9°C 42.4°F5.8°C 99% Calm Calm 3.1 mph5.0 kmh 29.54 in1000.3 mb 0.00 in0.0 mm 0.00 in0.0 mm 0.01 in0.3 mm
06:06 AM 42.6°F5.9°C 42.4°F5.8°C 99% Calm Calm 3.1 mph5.0 kmh 29.54 in1000.3 mb 0.00 in0.0 mm 0.00 in0.0 mm 0.01 in0.3 mm
06:05 AM 42.6°F5.9°C 42.4°F5.8°C 99% Calm Calm 3.1 mph5.0 kmh 29.54 in1000.3 mb 0.00 in0.0 mm 0.00 in0.0 mm 0.01 in0.3 mm
06:04 AM 42.6°F5.9°C 42.4°F5.8°C 99% Calm Calm 3.1 mph5.0 kmh 29.54 in1000.3 mb 0.00 in0.0 mm 0.00 in0.0 mm 0.01 in0.3 mm
06:03 AM 42.6°F5.9°C 42.4°F5.8°C 99% Calm Calm 3.1 mph5.0 kmh 29.54 in1000.3 mb 0.00 in0.0 mm 0.00 in0.0 mm 0.01 in0.3 mm
06:02 AM 42.6°F5.9°C 42.4°F5.8°C 99% Calm Calm 3.1 mph5.0 kmh 29.54 in1000.3 mb 0.00 in0.0 mm 0.00 in0.0 mm 0.01 in0.3 mm
06:01 AM 42.6°F5.9°C 42.4°F5.8°C 99% Calm Calm 3.1 mph5.0 kmh 29.55 in1000.7 mb 0.00 in0.0 mm 0.00 in0.0 mm 0.01 in0.3 mm
06:00 AM 42.6°F5.9°C 42.4°F5.8°C 99% Calm Calm 3.1 mph5.0 kmh 29.54 in1000.3 mb 0.00 in0.0 mm 0.00 in0.0 mm 0.01 in0.3 mm
05:59 AM 42.6°F5.9°C 42.4°F5.8°C 99% Calm Calm 3.1 mph5.0 kmh 29.54 in1000.3 mb 0.00 in0.0 mm 0.00 in0.0 mm 0.01 in0.3 mm
05:58 AM 42.6°F5.9°C 42.4°F5.8°C 99% 0.7 mph SW1.1 kmh SW 3.1 mph5.0 kmh 29.54 in1000.3 mb 0.00 in0.0 mm 0.00 in0.0 mm 0.01 in0.3 mm
05:57 AM 42.6°F5.9°C 42.4°F5.8°C 99% Calm Calm 2.2 mph3.5 kmh 29.54 in1000.3 mb 0.00 in0.0 mm 0.00 in0.0 mm 0.01 in0.3 mm
05:56 AM 42.6°F5.9°C 42.4°F5.8°C 99% Calm Calm 2.2 mph3.5 kmh 29.54 in1000.3 mb 0.00 in0.0 mm 0.00 in0.0 mm 0.01 in0.3 mm
05:55 AM 42.6°F5.9°C 42.4°F5.8°C 99% Calm Calm 2.2 mph3.5 kmh 29.54 in1000.3 mb 0.00 in0.0 mm 0.00 in0.0 mm 0.01 in0.3 mm
05:54 AM 42.6°F5.9°C 42.4°F5.8°C 99% Calm Calm 2.2 mph3.5 kmh 29.54 in1000.3 mb 0.00 in0.0 mm 0.00 in0.0 mm 0.01 in0.3 mm
05:53 AM 42.6°F5.9°C 42.4°F5.8°C 99% Calm Calm 2.2 mph3.5 kmh 29.55 in1000.7 mb 0.00 in0.0 mm 0.00 in0.0 mm 0.01 in0.3 mm
05:52 AM 42.6°F5.9°C 42.4°F5.8°C 99% Calm Calm 2.2 mph3.5 kmh 29.54 in1000.3 mb 0.00 in0.0 mm 0.00 in0.0 mm 0.01 in0.3 mm
05:51 AM 42.4°F5.8°C 42.2°F5.7°C 99% Calm Calm 2.2 mph3.5 kmh 29.55 in1000.7 mb 0.00 in0.0 mm 0.00 in0.0 mm 0.01 in0.3 mm
05:50 AM 42.6°F5.9°C 42.4°F5.8°C 99% Calm Calm 2.2 mph3.5 kmh 29.54 in1000.3 mb 0.00 in0.0 mm 0.00 in0.0 mm 0.01 in0.3 mm
05:49 AM 42.6°F5.9°C 42.4°F5.8°C 99% Calm Calm 2.2 mph3.5 kmh 29.54 in1000.3 mb 0.00 in0.0 mm 0.00 in0.0 mm 0.01 in0.3 mm
05:48 AM 42.6°F5.9°C 42.4°F5.8°C 99% Calm Calm 2.2 mph3.5 kmh 29.54 in1000.3 mb 0.00 in0.0 mm 0.00 in0.0 mm 0.01 in0.3 mm
05:47 AM 42.6°F5.9°C 42.4°F5.8°C 99% Calm Calm 3.1 mph5.0 kmh 29.54 in1000.3 mb 0.00 in0.0 mm 0.00 in0.0 mm 0.01 in0.3 mm
05:46 AM 42.4°F5.8°C 42.2°F5.7°C 99% Calm Calm 3.1 mph5.0 kmh 29.54 in1000.3 mb 0.00 in0.0 mm 0.00 in0.0 mm 0.01 in0.3 mm
05:45 AM 42.6°F5.9°C 42.4°F5.8°C 99% Calm Calm 3.1 mph5.0 kmh 29.54 in1000.3 mb 0.00 in0.0 mm 0.00 in0.0 mm 0.01 in0.3 mm
05:44 AM 42.6°F5.9°C 42.4°F5.8°C 99% 0.7 mph E1.1 kmh E 3.1 mph5.0 kmh 29.54 in1000.3 mb 0.00 in0.0 mm 0.00 in0.0 mm 0.01 in0.3 mm
05:43 AM 42.6°F5.9°C 42.4°F5.8°C 99% 0.7 mph E1.1 kmh E 3.1 mph5.0 kmh 29.54 in1000.3 mb 0.00 in0.0 mm 0.00 in0.0 mm 0.01 in0.3 mm
05:42 AM 42.6°F5.9°C 42.4°F5.8°C 99% Calm Calm 5.4 mph8.7 kmh 29.54 in1000.3 mb 0.00 in0.0 mm 0.00 in0.0 mm 0.01 in0.3 mm
05:41 AM 42.6°F5.9°C 42.4°F5.8°C 99% Calm Calm 5.4 mph8.7 kmh 29.54 in1000.3 mb 0.00 in0.0 mm 0.00 in0.0 mm 0.01 in0.3 mm
05:40 AM 42.6°F5.9°C 42.4°F5.8°C 99% Calm Calm 5.4 mph8.7 kmh 29.54 in1000.3 mb 0.00 in0.0 mm 0.00 in0.0 mm 0.01 in0.3 mm
05:39 AM 42.6°F5.9°C 42.4°F5.8°C 99% Calm Calm 5.4 mph8.7 kmh 29.54 in1000.3 mb 0.00 in0.0 mm 0.00 in0.0 mm 0.01 in0.3 mm
05:38 AM 42.6°F5.9°C 42.4°F5.8°C 99% Calm Calm 5.4 mph8.7 kmh 29.53 in1000.0 mb 0.00 in0.0 mm 0.00 in0.0 mm 0.01 in0.3 mm
05:37 AM 42.6°F5.9°C 42.4°F5.8°C 99% Calm Calm 5.4 mph8.7 kmh 29.54 in1000.3 mb 0.00 in0.0 mm 0.00 in0.0 mm 0.01 in0.3 mm
05:36 AM 42.6°F5.9°C 42.4°F5.8°C 99% Calm Calm 5.4 mph8.7 kmh 29.54 in1000.3 mb 0.00 in0.0 mm 0.00 in0.0 mm 0.01 in0.3 mm
05:35 AM 42.6°F5.9°C 42.4°F5.8°C 99% Calm Calm 5.4 mph8.7 kmh 29.54 in1000.3 mb 0.00 in0.0 mm 0.00 in0.0 mm 0.01 in0.3 mm
05:34 AM 42.6°F5.9°C 42.4°F5.8°C 99% Calm Calm 5.4 mph8.7 kmh 29.53 in1000.0 mb 0.00 in0.0 mm 0.00 in0.0 mm 0.01 in0.3 mm
05:33 AM 42.6°F5.9°C 42.4°F5.8°C 99% 2.2 mph SW3.5 kmh SW 5.4 mph8.7 kmh 29.53 in1000.0 mb 0.00 in0.0 mm 0.00 in0.0 mm 0.01 in0.3 mm
05:32 AM 42.6°F5.9°C 42.4°F5.8°C 99% 0.7 mph SW1.1 kmh SW 3.8 mph6.1 kmh 29.52 in999.7 mb 0.00 in0.0 mm 0.00 in0.0 mm 0.01 in0.3 mm
05:31 AM 42.6°F5.9°C 42.4°F5.8°C 99% 0.7 mph SW1.1 kmh SW 3.8 mph6.1 kmh 29.53 in1000.0 mb 0.00 in0.0 mm 0.00 in0.0 mm 0.01 in0.3 mm
05:30 AM 42.8°F6.0°C 42.5°F5.8°C 99% Calm Calm 3.8 mph6.1 kmh 29.53 in1000.0 mb 0.00 in0.0 mm 0.00 in0.0 mm 0.01 in0.3 mm
05:29 AM 42.8°F6.0°C 42.5°F5.8°C 99% Calm Calm 3.8 mph6.1 kmh 29.53 in1000.0 mb 0.00 in0.0 mm 0.00 in0.0 mm 0.01 in0.3 mm
05:28 AM 42.6°F5.9°C 42.4°F5.8°C 99% Calm Calm 3.8 mph6.1 kmh 29.52 in999.7 mb 0.00 in0.0 mm 0.00 in0.0 mm 0.01 in0.3 mm
05:27 AM 42.6°F5.9°C 42.4°F5.8°C 99% Calm Calm 3.8 mph6.1 kmh 29.53 in1000.0 mb 0.00 in0.0 mm 0.00 in0.0 mm 0.01 in0.3 mm
05:26 AM 42.6°F5.9°C 42.4°F5.8°C 99% Calm Calm 3.8 mph6.1 kmh 29.53 in1000.0 mb 0.00 in0.0 mm 0.00 in0.0 mm 0.01 in0.3 mm
05:25 AM 42.8°F6.0°C 42.5°F5.8°C 99% Calm Calm 3.8 mph6.1 kmh 29.54 in1000.3 mb 0.00 in0.0 mm 0.00 in0.0 mm 0.01 in0.3 mm
05:24 AM 42.8°F6.0°C 42.5°F5.8°C 99% Calm Calm 3.8 mph6.1 kmh 29.54 in1000.3 mb 0.00 in0.0 mm 0.00 in0.0 mm 0.01 in0.3 mm
05:23 AM 42.8°F6.0°C 42.5°F5.8°C 99% 2.2 mph SW3.5 kmh SW 3.8 mph6.1 kmh 29.54 in1000.3 mb 0.00 in0.0 mm 0.00 in0.0 mm 0.01 in0.3 mm
05:22 AM 42.8°F6.0°C 42.5°F5.8°C 99% Calm Calm 2.2 mph3.5 kmh 29.54 in1000.3 mb 0.00 in0.0 mm 0.00 in0.0 mm 0.01 in0.3 mm
05:21 AM 42.8°F6.0°C 42.5°F5.8°C 99% Calm Calm 2.2 mph3.5 kmh 29.53 in1000.0 mb 0.00 in0.0 mm 0.00 in0.0 mm 0.01 in0.3 mm
05:20 AM 42.8°F6.0°C 42.5°F5.8°C 99% Calm Calm 1.6 mph2.6 kmh 29.53 in1000.0 mb 0.00 in0.0 mm 0.00 in0.0 mm 0.01 in0.3 mm
05:19 AM 43.0°F6.1°C 42.7°F5.9°C 99% Calm Calm 1.6 mph2.6 kmh 29.53 in1000.0 mb 0.00 in0.0 mm 0.00 in0.0 mm 0.01 in0.3 mm
05:18 AM 42.8°F6.0°C 42.5°F5.8°C 99% Calm Calm 0.7 mph1.1 kmh 29.53 in1000.0 mb 0.00 in0.0 mm 0.00 in0.0 mm 0.01 in0.3 mm
05:17 AM 42.8°F6.0°C 42.5°F5.8°C 99% Calm Calm 0.7 mph1.1 kmh 29.53 in1000.0 mb 0.00 in0.0 mm 0.00 in0.0 mm 0.01 in0.3 mm
05:16 AM 42.8°F6.0°C 42.5°F5.8°C 99% Calm Calm 0.7 mph1.1 kmh 29.53 in1000.0 mb 0.00 in0.0 mm 0.00 in0.0 mm 0.01 in0.3 mm
05:15 AM 42.8°F6.0°C 42.5°F5.8°C 99% Calm Calm 0.7 mph1.1 kmh 29.54 in1000.3 mb 0.00 in0.0 mm 0.00 in0.0 mm 0.01 in0.3 mm
05:14 AM 42.8°F6.0°C 42.5°F5.8°C 99% Calm Calm 0.7 mph1.1 kmh 29.54 in1000.3 mb 0.00 in0.0 mm 0.00 in0.0 mm 0.01 in0.3 mm
05:13 AM 42.8°F6.0°C 42.5°F5.8°C 99% Calm Calm 0.7 mph1.1 kmh 29.54 in1000.3 mb 0.00 in0.0 mm 0.00 in0.0 mm 0.01 in0.3 mm
05:12 AM 42.8°F6.0°C 42.5°F5.8°C 99% Calm Calm 0.7 mph1.1 kmh 29.54 in1000.3 mb 0.00 in0.0 mm 0.00 in0.0 mm 0.01 in0.3 mm
05:11 AM 42.8°F6.0°C 42.5°F5.8°C 99% Calm Calm -- 29.54 in1000.3 mb 0.00 in0.0 mm 0.00 in0.0 mm 0.01 in0.3 mm
05:10 AM 42.8°F6.0°C 42.5°F5.8°C 99% Calm Calm -- 29.53 in1000.0 mb 0.00 in0.0 mm 0.00 in0.0 mm 0.01 in0.3 mm
05:09 AM 42.8°F6.0°C 42.5°F5.8°C 99% Calm Calm -- 29.54 in1000.3 mb 0.00 in0.0 mm 0.00 in0.0 mm 0.01 in0.3 mm
05:08 AM 42.8°F6.0°C 42.5°F5.8°C 99% Calm Calm -- 29.53 in1000.0 mb 0.00 in0.0 mm 0.00 in0.0 mm 0.01 in0.3 mm
05:07 AM 42.8°F6.0°C 42.5°F5.8°C 99% Calm Calm -- 29.53 in1000.0 mb 0.00 in0.0 mm 0.00 in0.0 mm 0.01 in0.3 mm
05:06 AM 42.8°F6.0°C 42.5°F5.8°C 99% Calm Calm -- 29.53 in1000.0 mb 0.00 in0.0 mm 0.00 in0.0 mm 0.01 in0.3 mm
05:05 AM 42.8°F6.0°C 42.5°F5.8°C 99% Calm Calm -- 29.52 in999.7 mb 0.00 in0.0 mm 0.00 in0.0 mm 0.01 in0.3 mm
05:04 AM 42.8°F6.0°C 42.5°F5.8°C 99% Calm Calm -- 29.53 in1000.0 mb 0.00 in0.0 mm 0.00 in0.0 mm 0.01 in0.3 mm
05:03 AM 42.8°F6.0°C 42.5°F5.8°C 99% Calm Calm 0.7 mph1.1 kmh 29.52 in999.7 mb 0.00 in0.0 mm 0.00 in0.0 mm 0.01 in0.3 mm
05:02 AM 42.8°F6.0°C 42.5°F5.8°C 99% Calm Calm 0.7 mph1.1 kmh 29.52 in999.7 mb 0.00 in0.0 mm 0.00 in0.0 mm 0.01 in0.3 mm
05:01 AM 42.8°F6.0°C 42.5°F5.8°C 99% Calm Calm 0.7 mph1.1 kmh 29.53 in1000.0 mb 0.00 in0.0 mm 0.00 in0.0 mm 0.01 in0.3 mm
05:00 AM 42.8°F6.0°C 42.5°F5.8°C 99% Calm Calm 0.7 mph1.1 kmh 29.52 in999.7 mb 0.00 in0.0 mm 0.00 in0.0 mm 0.01 in0.3 mm
04:59 AM 42.6°F5.9°C 42.4°F5.8°C 99% Calm Calm 0.7 mph1.1 kmh 29.52 in999.7 mb 0.00 in0.0 mm 0.00 in0.0 mm 0.01 in0.3 mm
04:58 AM 42.6°F5.9°C 42.4°F5.8°C 99% Calm Calm 0.7 mph1.1 kmh 29.52 in999.7 mb 0.00 in0.0 mm 0.00 in0.0 mm 0.01 in0.3 mm
04:57 AM 42.6°F5.9°C 42.4°F5.8°C 99% Calm Calm 0.7 mph1.1 kmh 29.52 in999.7 mb 0.00 in0.0 mm 0.00 in0.0 mm 0.01 in0.3 mm
04:56 AM 42.6°F5.9°C 42.4°F5.8°C 99% Calm Calm 0.7 mph1.1 kmh 29.52 in999.7 mb 0.00 in0.0 mm 0.00 in0.0 mm 0.01 in0.3 mm
04:55 AM 42.6°F5.9°C 42.4°F5.8°C 99% Calm Calm 0.7 mph1.1 kmh 29.51 in999.3 mb 0.00 in0.0 mm 0.00 in0.0 mm 0.01 in0.3 mm
04:54 AM 42.6°F5.9°C 42.4°F5.8°C 99% Calm Calm 0.7 mph1.1 kmh 29.52 in999.7 mb 0.00 in0.0 mm 0.00 in0.0 mm 0.01 in0.3 mm
04:53 AM 42.6°F5.9°C 42.4°F5.8°C 99% Calm Calm 1.6 mph2.6 kmh 29.52 in999.7 mb 0.00 in0.0 mm 0.00 in0.0 mm 0.01 in0.3 mm
04:52 AM 42.6°F5.9°C 42.4°F5.8°C 99% Calm Calm 2.2 mph3.5 kmh 29.52 in999.7 mb 0.00 in0.0 mm 0.00 in0.0 mm 0.01 in0.3 mm
04:51 AM 42.6°F5.9°C 42.4°F5.8°C 99% Calm Calm 2.2 mph3.5 kmh 29.52 in999.7 mb 0.00 in0.0 mm 0.00 in0.0 mm 0.01 in0.3 mm
04:50 AM 42.6°F5.9°C 42.4°F5.8°C 99% Calm Calm 2.2 mph3.5 kmh 29.52 in999.7 mb 0.00 in0.0 mm 0.00 in0.0 mm 0.01 in0.3 mm
04:49 AM 42.6°F5.9°C 42.4°F5.8°C 99% Calm Calm 2.2 mph3.5 kmh 29.52 in999.7 mb 0.00 in0.0 mm 0.00 in0.0 mm 0.01 in0.3 mm
04:48 AM 42.6°F5.9°C 42.4°F5.8°C 99% Calm Calm 2.2 mph3.5 kmh 29.52 in999.7 mb 0.00 in0.0 mm 0.00 in0.0 mm 0.01 in0.3 mm
04:47 AM 42.6°F5.9°C 42.4°F5.8°C 99% Calm Calm 2.2 mph3.5 kmh 29.52 in999.7 mb 0.00 in0.0 mm 0.00 in0.0 mm 0.01 in0.3 mm
04:46 AM 42.6°F5.9°C 42.4°F5.8°C 99% Calm Calm 2.2 mph3.5 kmh 29.51 in999.3 mb 0.00 in0.0 mm 0.00 in0.0 mm 0.01 in0.3 mm
04:45 AM 42.6°F5.9°C 42.4°F5.8°C 99% Calm Calm 2.2 mph3.5 kmh 29.51 in999.3 mb 0.00 in0.0 mm 0.00 in0.0 mm 0.01 in0.3 mm
04:44 AM 42.6°F5.9°C 42.4°F5.8°C 99% Calm Calm 2.2 mph3.5 kmh 29.51 in999.3 mb 0.00 in0.0 mm 0.00 in0.0 mm 0.01 in0.3 mm
04:43 AM 42.8°F6.0°C 42.5°F5.8°C 99% Calm Calm 2.2 mph3.5 kmh 29.50 in999.0 mb 0.00 in0.0 mm 0.00 in0.0 mm 0.01 in0.3 mm
04:42 AM 42.6°F5.9°C 42.4°F5.8°C 99% 0.7 mph S1.1 kmh S 2.2 mph3.5 kmh 29.51 in999.3 mb 0.00 in0.0 mm 0.00 in0.0 mm 0.01 in0.3 mm
04:41 AM 42.6°F5.9°C 42.4°F5.8°C 99% 0.7 mph S1.1 kmh S 2.2 mph3.5 kmh 29.51 in999.3 mb 0.00 in0.0 mm 0.00 in0.0 mm 0.01 in0.3 mm
04:40 AM 42.6°F5.9°C 42.4°F5.8°C 99% 0.7 mph S1.1 kmh S 2.2 mph3.5 kmh 29.51 in999.3 mb 0.00 in0.0 mm 0.00 in0.0 mm 0.01 in0.3 mm
04:39 AM 42.6°F5.9°C 42.4°F5.8°C 99% Calm Calm 2.2 mph3.5 kmh 29.51 in999.3 mb 0.00 in0.0 mm 0.00 in0.0 mm 0.01 in0.3 mm
04:38 AM 42.8°F6.0°C 42.5°F5.8°C 99% 0.7 mph S1.1 kmh S 2.2 mph3.5 kmh 29.51 in999.3 mb 0.00 in0.0 mm 0.00 in0.0 mm 0.01 in0.3 mm
04:37 AM 42.6°F5.9°C 42.4°F5.8°C 99% Calm Calm 2.2 mph3.5 kmh 29.52 in999.7 mb 0.00 in0.0 mm 0.00 in0.0 mm 0.01 in0.3 mm
04:36 AM 42.6°F5.9°C 42.4°F5.8°C 99% Calm Calm 2.2 mph3.5 kmh 29.52 in999.7 mb 0.00 in0.0 mm 0.00 in0.0 mm 0.01 in0.3 mm
04:35 AM 42.8°F6.0°C 42.5°F5.8°C 99% Calm Calm 2.2 mph3.5 kmh 29.52 in999.7 mb 0.00 in0.0 mm 0.00 in0.0 mm 0.01 in0.3 mm
04:34 AM 42.6°F5.9°C 42.4°F5.8°C 99% Calm Calm 2.2 mph3.5 kmh 29.52 in999.7 mb 0.00 in0.0 mm 0.00 in0.0 mm 0.01 in0.3 mm
04:33 AM 42.8°F6.0°C 42.5°F5.8°C 99% Calm Calm 2.2 mph3.5 kmh 29.53 in1000.0 mb 0.00 in0.0 mm 0.00 in0.0 mm 0.01 in0.3 mm
04:32 AM 42.6°F5.9°C 42.4°F5.8°C 99% Calm Calm 2.2 mph3.5 kmh 29.53 in1000.0 mb 0.00 in0.0 mm 0.00 in0.0 mm 0.01 in0.3 mm
04:31 AM 42.6°F5.9°C 42.4°F5.8°C 99% 0.7 mph SW1.1 kmh SW 2.2 mph3.5 kmh 29.53 in1000.0 mb 0.00 in0.0 mm 0.00 in0.0 mm 0.01 in0.3 mm
04:30 AM 42.8°F6.0°C 42.5°F5.8°C 99% Calm Calm 2.2 mph3.5 kmh 29.52 in999.7 mb 0.00 in0.0 mm 0.00 in0.0 mm 0.01 in0.3 mm
04:29 AM 42.6°F5.9°C 42.4°F5.8°C 99% 0.7 mph SW1.1 kmh SW 2.2 mph3.5 kmh 29.53 in1000.0 mb 0.00 in0.0 mm 0.00 in0.0 mm 0.01 in0.3 mm
04:28 AM 42.6°F5.9°C 42.4°F5.8°C 99% Calm Calm 2.2 mph3.5 kmh 29.54 in1000.3 mb 0.00 in0.0 mm 0.00 in0.0 mm 0.01 in0.3 mm
04:27 AM 42.6°F5.9°C 42.4°F5.8°C 99% Calm Calm 2.2 mph3.5 kmh 29.53 in1000.0 mb 0.00 in0.0 mm 0.00 in0.0 mm 0.01 in0.3 mm
04:26 AM 42.6°F5.9°C 42.4°F5.8°C 99% Calm Calm 2.2 mph3.5 kmh 29.53 in1000.0 mb 0.00 in0.0 mm 0.00 in0.0 mm 0.01 in0.3 mm
04:25 AM 42.6°F5.9°C 42.4°F5.8°C 99% Calm Calm 2.2 mph3.5 kmh 29.53 in1000.0 mb 0.00 in0.0 mm 0.00 in0.0 mm 0.01 in0.3 mm
04:24 AM 42.6°F5.9°C 42.4°F5.8°C 99% Calm Calm 2.2 mph3.5 kmh 29.52 in999.7 mb 0.00 in0.0 mm 0.00 in0.0 mm 0.01 in0.3 mm
04:23 AM 42.6°F5.9°C 42.4°F5.8°C 99% Calm Calm 2.2 mph3.5 kmh 29.52 in999.7 mb 0.00 in0.0 mm 0.00 in0.0 mm 0.01 in0.3 mm
04:22 AM 42.6°F5.9°C 42.4°F5.8°C 99% 0.7 mph S1.1 kmh S 2.2 mph3.5 kmh 29.53 in1000.0 mb 0.00 in0.0 mm 0.00 in0.0 mm 0.01 in0.3 mm
04:21 AM 42.6°F5.9°C 42.4°F5.8°C 99% Calm Calm 2.2 mph3.5 kmh 29.52 in999.7 mb 0.00 in0.0 mm 0.00 in0.0 mm 0.01 in0.3 mm
04:20 AM 42.6°F5.9°C 42.4°F5.8°C 99% Calm Calm 2.2 mph3.5 kmh 29.52 in999.7 mb 0.00 in0.0 mm 0.00 in0.0 mm 0.01 in0.3 mm
04:19 AM 42.6°F5.9°C 42.4°F5.8°C 99% Calm Calm 2.2 mph3.5 kmh 29.52 in999.7 mb 0.00 in0.0 mm 0.00 in0.0 mm 0.01 in0.3 mm
04:18 AM 42.6°F5.9°C 42.4°F5.8°C 99% Calm Calm 2.2 mph3.5 kmh 29.53 in1000.0 mb 0.00 in0.0 mm 0.00 in0.0 mm 0.01 in0.3 mm
04:17 AM 42.6°F5.9°C 42.4°F5.8°C 99% Calm Calm 2.2 mph3.5 kmh 29.53 in1000.0 mb 0.00 in0.0 mm 0.00 in0.0 mm 0.01 in0.3 mm
04:16 AM 42.6°F5.9°C 42.4°F5.8°C 99% Calm Calm 2.2 mph3.5 kmh 29.53 in1000.0 mb 0.00 in0.0 mm 0.00 in0.0 mm 0.01 in0.3 mm
04:15 AM 42.6°F5.9°C 42.4°F5.8°C 99% Calm Calm 2.2 mph3.5 kmh 29.53 in1000.0 mb 0.00 in0.0 mm 0.00 in0.0 mm 0.01 in0.3 mm
04:14 AM 42.6°F5.9°C 42.4°F5.8°C 99% Calm Calm 2.2 mph3.5 kmh 29.53 in1000.0 mb 0.00 in0.0 mm 0.00 in0.0 mm 0.01 in0.3 mm
04:13 AM 42.6°F5.9°C 42.4°F5.8°C 99% Calm Calm 2.2 mph3.5 kmh 29.54 in1000.3 mb 0.00 in0.0 mm 0.00 in0.0 mm 0.01 in0.3 mm
04:12 AM 42.6°F5.9°C 42.4°F5.8°C 99% Calm Calm 2.2 mph3.5 kmh 29.53 in1000.0 mb 0.00 in0.0 mm 0.00 in0.0 mm 0.01 in0.3 mm
04:11 AM 42.6°F5.9°C 42.4°F5.8°C 99% Calm Calm 2.2 mph3.5 kmh 29.54 in1000.3 mb 0.00 in0.0 mm 0.00 in0.0 mm 0.01 in0.3 mm
04:10 AM 42.6°F5.9°C 42.4°F5.8°C 99% Calm Calm 2.2 mph3.5 kmh 29.53 in1000.0 mb 0.00 in0.0 mm 0.00 in0.0 mm 0.01 in0.3 mm
04:09 AM 42.6°F5.9°C 42.4°F5.8°C 99% Calm Calm 1.6 mph2.6 kmh 29.53 in1000.0 mb 0.00 in0.0 mm 0.00 in0.0 mm 0.01 in0.3 mm
04:08 AM 42.6°F5.9°C 42.4°F5.8°C 99% Calm Calm 1.6 mph2.6 kmh 29.54 in1000.3 mb 0.00 in0.0 mm 0.00 in0.0 mm 0.01 in0.3 mm
04:07 AM 42.6°F5.9°C 42.4°F5.8°C 99% Calm Calm 0.7 mph1.1 kmh 29.53 in1000.0 mb 0.00 in0.0 mm 0.00 in0.0 mm 0.01 in0.3 mm
04:06 AM 42.6°F5.9°C 42.4°F5.8°C 99% Calm Calm 0.7 mph1.1 kmh 29.53 in1000.0 mb 0.00 in0.0 mm 0.00 in0.0 mm 0.01 in0.3 mm
04:05 AM 42.6°F5.9°C 42.4°F5.8°C 99% Calm Calm 1.6 mph2.6 kmh 29.53 in1000.0 mb 0.00 in0.0 mm 0.00 in0.0 mm 0.01 in0.3 mm
04:04 AM 42.6°F5.9°C 42.4°F5.8°C 99% Calm Calm 1.6 mph2.6 kmh 29.52 in999.7 mb 0.00 in0.0 mm 0.00 in0.0 mm 0.01 in0.3 mm
04:03 AM 42.6°F5.9°C 42.4°F5.8°C 99% Calm Calm 1.6 mph2.6 kmh 29.53 in1000.0 mb 0.00 in0.0 mm 0.00 in0.0 mm 0.01 in0.3 mm
04:02 AM 42.6°F5.9°C 42.4°F5.8°C 99% Calm Calm 1.6 mph2.6 kmh 29.52 in999.7 mb 0.00 in0.0 mm 0.00 in0.0 mm 0.01 in0.3 mm
04:01 AM 42.6°F5.9°C 42.4°F5.8°C 99% Calm Calm 1.6 mph2.6 kmh 29.53 in1000.0 mb 0.00 in0.0 mm 0.00 in0.0 mm 0.01 in0.3 mm
04:00 AM 42.6°F5.9°C 42.4°F5.8°C 99% Calm Calm 1.6 mph2.6 kmh 29.53 in1000.0 mb 0.00 in0.0 mm 0.00 in0.0 mm 0.01 in0.3 mm
03:59 AM 42.6°F5.9°C 42.4°F5.8°C 99% Calm Calm 1.6 mph2.6 kmh 29.54 in1000.3 mb 0.00 in0.0 mm 0.00 in0.0 mm 0.01 in0.3 mm
03:58 AM 42.6°F5.9°C 42.4°F5.8°C 99% Calm Calm 2.2 mph3.5 kmh 29.53 in1000.0 mb 0.00 in0.0 mm 0.00 in0.0 mm 0.01 in0.3 mm
03:57 AM 42.6°F5.9°C 42.4°F5.8°C 99% Calm Calm 2.2 mph3.5 kmh 29.53 in1000.0 mb 0.00 in0.0 mm 0.00 in0.0 mm 0.01 in0.3 mm
03:56 AM 42.6°F5.9°C 42.4°F5.8°C 99% Calm Calm 2.2 mph3.5 kmh 29.52 in999.7 mb 0.00 in0.0 mm 0.00 in0.0 mm 0.01 in0.3 mm
03:55 AM 42.6°F5.9°C 42.4°F5.8°C 99% 0.7 mph ENE1.1 kmh ENE 2.2 mph3.5 kmh 29.53 in1000.0 mb 0.00 in0.0 mm 0.00 in0.0 mm 0.01 in0.3 mm
03:54 AM 42.6°F5.9°C 42.4°F5.8°C 99% Calm Calm 3.1 mph5.0 kmh 29.52 in999.7 mb 0.00 in0.0 mm 0.00 in0.0 mm 0.01 in0.3 mm
03:53 AM 42.6°F5.9°C 42.4°F5.8°C 99% Calm Calm 3.1 mph5.0 kmh 29.53 in1000.0 mb 0.00 in0.0 mm 0.00 in0.0 mm 0.01 in0.3 mm
03:52 AM 42.6°F5.9°C 42.4°F5.8°C 99% Calm Calm 3.8 mph6.1 kmh 29.53 in1000.0 mb 0.00 in0.0 mm 0.00 in0.0 mm 0.01 in0.3 mm
03:51 AM 42.6°F5.9°C 42.4°F5.8°C 99% Calm Calm 3.8 mph6.1 kmh 29.53 in1000.0 mb 0.00 in0.0 mm 0.00 in0.0 mm 0.01 in0.3 mm
03:50 AM 42.6°F5.9°C 42.4°F5.8°C 99% Calm Calm 3.8 mph6.1 kmh 29.52 in999.7 mb 0.00 in0.0 mm 0.00 in0.0 mm 0.01 in0.3 mm
03:49 AM 42.6°F5.9°C 42.4°F5.8°C 99% Calm Calm 3.8 mph6.1 kmh 29.53 in1000.0 mb 0.00 in0.0 mm 0.00 in0.0 mm 0.01 in0.3 mm
03:48 AM 42.6°F5.9°C 42.4°F5.8°C 99% Calm Calm 3.8 mph6.1 kmh 29.53 in1000.0 mb 0.00 in0.0 mm 0.00 in0.0 mm 0.01 in0.3 mm
03:47 AM 42.6°F5.9°C 42.4°F5.8°C 99% Calm Calm 3.8 mph6.1 kmh 29.53 in1000.0 mb 0.00 in0.0 mm 0.00 in0.0 mm 0.01 in0.3 mm
03:46 AM 42.6°F5.9°C 42.4°F5.8°C 99% Calm Calm 3.8 mph6.1 kmh 29.53 in1000.0 mb 0.00 in0.0 mm 0.00 in0.0 mm 0.01 in0.3 mm
03:45 AM 42.6°F5.9°C 42.4°F5.8°C 99% 0.7 mph SW1.1 kmh SW 3.8 mph6.1 kmh 29.53 in1000.0 mb 0.00 in0.0 mm 0.00 in0.0 mm 0.01 in0.3 mm
03:44 AM 42.6°F5.9°C 42.4°F5.8°C 99% Calm Calm 3.8 mph6.1 kmh 29.53 in1000.0 mb 0.00 in0.0 mm 0.00 in0.0 mm 0.01 in0.3 mm
03:43 AM 42.6°F5.9°C 42.4°F5.8°C 99% 0.7 mph WSW1.1 kmh WSW 3.8 mph6.1 kmh 29.53 in1000.0 mb 0.00 in0.0 mm 0.00 in0.0 mm 0.01 in0.3 mm
03:42 AM 42.6°F5.9°C 42.4°F5.8°C 99% 1.6 mph WNW2.6 kmh WNW 3.8 mph6.1 kmh 29.53 in1000.0 mb 0.00 in0.0 mm 0.00 in0.0 mm 0.01 in0.3 mm
03:41 AM 42.6°F5.9°C 42.4°F5.8°C 99% Calm Calm 3.1 mph5.0 kmh 29.53 in1000.0 mb 0.00 in0.0 mm 0.00 in0.0 mm 0.01 in0.3 mm
03:40 AM 42.8°F6.0°C 42.5°F5.8°C 99% Calm Calm 3.1 mph5.0 kmh 29.53 in1000.0 mb 0.00 in0.0 mm 0.00 in0.0 mm 0.01 in0.3 mm
03:39 AM 42.8°F6.0°C 42.5°F5.8°C 99% Calm Calm 3.1 mph5.0 kmh 29.53 in1000.0 mb 0.00 in0.0 mm 0.00 in0.0 mm 0.01 in0.3 mm
03:38 AM 42.8°F6.0°C 42.5°F5.8°C 99% Calm Calm 3.1 mph5.0 kmh 29.53 in1000.0 mb 0.00 in0.0 mm 0.00 in0.0 mm 0.01 in0.3 mm
03:37 AM 42.8°F6.0°C 42.5°F5.8°C 99% Calm Calm 3.1 mph5.0 kmh 29.52 in999.7 mb 0.00 in0.0 mm 0.00 in0.0 mm 0.01 in0.3 mm
03:36 AM 42.8°F6.0°C 42.5°F5.8°C 99% 0.7 mph NW1.1 kmh NW 3.1 mph5.0 kmh 29.52 in999.7 mb 0.00 in0.0 mm 0.00 in0.0 mm 0.01 in0.3 mm
03:35 AM 42.8°F6.0°C 42.5°F5.8°C 99% Calm Calm 3.1 mph5.0 kmh 29.52 in999.7 mb 0.00 in0.0 mm 0.00 in0.0 mm 0.01 in0.3 mm
03:34 AM 42.8°F6.0°C 42.5°F5.8°C 99% Calm Calm 3.1 mph5.0 kmh 29.52 in999.7 mb 0.00 in0.0 mm 0.00 in0.0 mm 0.01 in0.3 mm
03:33 AM 42.8°F6.0°C 42.5°F5.8°C 99% 0.7 mph N1.1 kmh N 5.4 mph8.7 kmh 29.52 in999.7 mb 0.00 in0.0 mm 0.00 in0.0 mm 0.01 in0.3 mm
03:32 AM 42.8°F6.0°C 42.5°F5.8°C 99% 1.6 mph SSE2.6 kmh SSE 5.4 mph8.7 kmh 29.52 in999.7 mb 0.00 in0.0 mm 0.00 in0.0 mm 0.01 in0.3 mm
03:31 AM 42.8°F6.0°C 42.5°F5.8°C 99% Calm Calm 5.4 mph8.7 kmh 29.52 in999.7 mb 0.00 in0.0 mm 0.00 in0.0 mm 0.01 in0.3 mm
03:30 AM 42.8°F6.0°C 42.5°F5.8°C 99% Calm Calm 5.4 mph8.7 kmh 29.52 in999.7 mb 0.00 in0.0 mm 0.00 in0.0 mm 0.01 in0.3 mm
03:29 AM 42.8°F6.0°C 42.5°F5.8°C 99% Calm Calm 5.4 mph8.7 kmh 29.52 in999.7 mb 0.00 in0.0 mm 0.00 in0.0 mm 0.01 in0.3 mm
03:28 AM 42.8°F6.0°C 42.5°F5.8°C 99% Calm Calm 5.4 mph8.7 kmh 29.52 in999.7 mb 0.00 in0.0 mm 0.00 in0.0 mm 0.01 in0.3 mm
03:27 AM 42.8°F6.0°C 42.5°F5.8°C 99% Calm Calm 5.4 mph8.7 kmh 29.52 in999.7 mb 0.00 in0.0 mm 0.00 in0.0 mm 0.01 in0.3 mm
03:26 AM 42.8°F6.0°C 42.5°F5.8°C 99% Calm Calm 5.4 mph8.7 kmh 29.53 in1000.0 mb 0.00 in0.0 mm 0.00 in0.0 mm 0.01 in0.3 mm
03:25 AM 42.8°F6.0°C 42.5°F5.8°C 99% Calm Calm 5.4 mph8.7 kmh 29.52 in999.7 mb 0.00 in0.0 mm 0.00 in0.0 mm 0.01 in0.3 mm
03:24 AM 42.8°F6.0°C 42.5°F5.8°C 99% Calm Calm 5.4 mph8.7 kmh 29.52 in999.7 mb 0.00 in0.0 mm 0.00 in0.0 mm 0.01 in0.3 mm
03:23 AM 42.8°F6.0°C 42.5°F5.8°C 99% 2.2 mph S3.5 kmh S 5.4 mph8.7 kmh 29.52 in999.7 mb 0.00 in0.0 mm 0.00 in0.0 mm 0.01 in0.3 mm
03:22 AM 42.8°F6.0°C 42.5°F5.8°C 99% 0.7 mph S1.1 kmh S 5.4 mph8.7 kmh 29.52 in999.7 mb 0.00 in0.0 mm 0.00 in0.0 mm 0.01 in0.3 mm
03:21 AM 42.8°F6.0°C 42.5°F5.8°C 99% Calm Calm 5.4 mph8.7 kmh 29.52 in999.7 mb 0.00 in0.0 mm 0.00 in0.0 mm 0.01 in0.3 mm
03:20 AM 42.8°F6.0°C 42.5°F5.8°C 99% 0.7 mph SSW1.1 kmh SSW 5.4 mph8.7 kmh 29.52 in999.7 mb 0.00 in0.0 mm 0.00 in0.0 mm 0.01 in0.3 mm
03:19 AM 42.8°F6.0°C 42.5°F5.8°C 99% 2.2 mph SW3.5 kmh SW 5.4 mph8.7 kmh 29.52 in999.7 mb 0.00 in0.0 mm 0.00 in0.0 mm 0.01 in0.3 mm
03:18 AM 43.0°F6.1°C 42.7°F5.9°C 99% 1.6 mph WNW2.6 kmh WNW 5.4 mph8.7 kmh 29.53 in1000.0 mb 0.00 in0.0 mm 0.00 in0.0 mm 0.01 in0.3 mm
03:17 AM 43.0°F6.1°C 42.7°F5.9°C 99% Calm Calm 5.4 mph8.7 kmh 29.53 in1000.0 mb 0.00 in0.0 mm 0.00 in0.0 mm 0.01 in0.3 mm
03:16 AM 43.0°F6.1°C 42.7°F5.9°C 99% Calm Calm 5.4 mph8.7 kmh 29.53 in1000.0 mb 0.00 in0.0 mm 0.00 in0.0 mm 0.01 in0.3 mm
03:15 AM 43.0°F6.1°C 42.7°F5.9°C 99% 0.7 mph N1.1 kmh N 5.4 mph8.7 kmh 29.53 in1000.0 mb 0.00 in0.0 mm 0.00 in0.0 mm 0.01 in0.3 mm
03:14 AM 43.0°F6.1°C 42.7°F5.9°C 99% Calm Calm 5.4 mph8.7 kmh 29.54 in1000.3 mb 0.00 in0.0 mm 0.00 in0.0 mm 0.01 in0.3 mm
03:13 AM 43.0°F6.1°C 42.7°F5.9°C 99% Calm Calm 5.4 mph8.7 kmh 29.54 in1000.3 mb 0.00 in0.0 mm 0.00 in0.0 mm 0.01 in0.3 mm
03:12 AM 43.0°F6.1°C 42.7°F5.9°C 99% Calm Calm 5.4 mph8.7 kmh 29.54 in1000.3 mb 0.00 in0.0 mm 0.00 in0.0 mm 0.01 in0.3 mm
03:11 AM 43.0°F6.1°C 42.7°F5.9°C 99% Calm Calm 5.4 mph8.7 kmh 29.54 in1000.3 mb 0.00 in0.0 mm 0.00 in0.0 mm 0.01 in0.3 mm
03:10 AM 43.0°F6.1°C 42.7°F5.9°C 99% Calm Calm 5.4 mph8.7 kmh 29.55 in1000.7 mb 0.00 in0.0 mm 0.00 in0.0 mm 0.01 in0.3 mm
03:09 AM 43.2°F6.2°C 42.9°F6.1°C 99% 0.7 mph N1.1 kmh N 5.4 mph8.7 kmh 29.53 in1000.0 mb 0.00 in0.0 mm 0.00 in0.0 mm 0.01 in0.3 mm
03:08 AM 43.2°F6.2°C 42.9°F6.1°C 99% Calm Calm 5.4 mph8.7 kmh 29.53 in1000.0 mb 0.00 in0.0 mm 0.00 in0.0 mm 0.01 in0.3 mm
03:07 AM 43.2°F6.2°C 42.9°F6.1°C 99% 2.2 mph N3.5 kmh N 5.4 mph8.7 kmh 29.54 in1000.3 mb 0.00 in0.0 mm 0.00 in0.0 mm 0.01 in0.3 mm
03:06 AM 43.2°F6.2°C 42.9°F6.1°C 99% 2.2 mph N3.5 kmh N 5.4 mph8.7 kmh 29.54 in1000.3 mb 0.00 in0.0 mm 0.00 in0.0 mm 0.01 in0.3 mm
03:05 AM 43.2°F6.2°C 42.9°F6.1°C 99% 2.2 mph N3.5 kmh N 5.4 mph8.7 kmh 29.54 in1000.3 mb 0.00 in0.0 mm 0.00 in0.0 mm 0.01 in0.3 mm
03:04 AM 43.2°F6.2°C 42.9°F6.1°C 99% 2.2 mph N3.5 kmh N 5.4 mph8.7 kmh 29.54 in1000.3 mb 0.00 in0.0 mm 0.00 in0.0 mm 0.01 in0.3 mm
03:03 AM 43.2°F6.2°C 42.9°F6.1°C 99% 2.2 mph NNW3.5 kmh NNW 5.4 mph8.7 kmh 29.55 in1000.7 mb 0.00 in0.0 mm 0.00 in0.0 mm 0.01 in0.3 mm
03:02 AM 43.2°F6.2°C 42.9°F6.1°C 99% 2.2 mph NW3.5 kmh NW 5.4 mph8.7 kmh 29.54 in1000.3 mb 0.00 in0.0 mm 0.00 in0.0 mm 0.01 in0.3 mm
03:01 AM 43.2°F6.2°C 42.9°F6.1°C 99% 2.2 mph NW3.5 kmh NW 5.4 mph8.7 kmh 29.55 in1000.7 mb 0.00 in0.0 mm 0.00 in0.0 mm 0.01 in0.3 mm
03:00 AM 43.2°F6.2°C 42.9°F6.1°C 99% 2.2 mph WNW3.5 kmh WNW 5.4 mph8.7 kmh 29.54 in1000.3 mb 0.00 in0.0 mm 0.00 in0.0 mm 0.01 in0.3 mm
02:59 AM 43.2°F6.2°C 42.9°F6.1°C 99% Calm Calm 3.1 mph5.0 kmh 29.53 in1000.0 mb 0.00 in0.0 mm 0.00 in0.0 mm 0.01 in0.3 mm
02:58 AM 43.2°F6.2°C 42.9°F6.1°C 99% Calm Calm 3.1 mph5.0 kmh 29.52 in999.7 mb 0.00 in0.0 mm 0.00 in0.0 mm 0.01 in0.3 mm
02:57 AM 43.2°F6.2°C 42.9°F6.1°C 99% Calm Calm 3.1 mph5.0 kmh 29.52 in999.7 mb 0.00 in0.0 mm 0.00 in0.0 mm 0.01 in0.3 mm
02:56 AM 43.2°F6.2°C 42.9°F6.1°C 99% 0.7 mph WNW1.1 kmh WNW 3.1 mph5.0 kmh 29.52 in999.7 mb 0.00 in0.0 mm 0.00 in0.0 mm 0.01 in0.3 mm
02:55 AM 43.2°F6.2°C 42.9°F6.1°C 99% Calm Calm 3.1 mph5.0 kmh 29.53 in1000.0 mb 0.00 in0.0 mm 0.00 in0.0 mm 0.01 in0.3 mm
02:54 AM 43.3°F6.3°C 43.1°F6.2°C 99% Calm Calm 3.1 mph5.0 kmh 29.52 in999.7 mb 0.00 in0.0 mm 0.00 in0.0 mm 0.01 in0.3 mm
02:53 AM 43.3°F6.3°C 43.1°F6.2°C 99% Calm Calm 3.1 mph5.0 kmh 29.53 in1000.0 mb 0.00 in0.0 mm 0.00 in0.0 mm 0.01 in0.3 mm
02:52 AM 43.3°F6.3°C 43.1°F6.2°C 99% Calm Calm 3.1 mph5.0 kmh 29.53 in1000.0 mb 0.00 in0.0 mm 0.00 in0.0 mm 0.01 in0.3 mm
02:51 AM 43.3°F6.3°C 43.1°F6.2°C 99% 0.7 mph ESE1.1 kmh ESE 3.1 mph5.0 kmh 29.53 in1000.0 mb 0.00 in0.0 mm 0.00 in0.0 mm 0.01 in0.3 mm
02:50 AM 43.3°F6.3°C 43.1°F6.2°C 99% Calm Calm 3.1 mph5.0 kmh 29.54 in1000.3 mb 0.00 in0.0 mm 0.00 in0.0 mm 0.01 in0.3 mm
02:49 AM 43.3°F6.3°C 43.1°F6.2°C 99% Calm Calm 3.1 mph5.0 kmh 29.54 in1000.3 mb 0.00 in0.0 mm 0.00 in0.0 mm 0.01 in0.3 mm
02:48 AM 43.3°F6.3°C 43.1°F6.2°C 99% Calm Calm 3.1 mph5.0 kmh 29.53 in1000.0 mb 0.00 in0.0 mm 0.00 in0.0 mm 0.01 in0.3 mm
02:47 AM 43.3°F6.3°C 43.1°F6.2°C 99% Calm Calm 4.5 mph7.2 kmh 29.54 in1000.3 mb 0.00 in0.0 mm 0.00 in0.0 mm 0.01 in0.3 mm
02:46 AM 43.3°F6.3°C 43.1°F6.2°C 99% 0.7 mph SW1.1 kmh SW 4.5 mph7.2 kmh 29.54 in1000.3 mb 0.00 in0.0 mm 0.00 in0.0 mm 0.01 in0.3 mm
02:45 AM 43.3°F6.3°C 43.1°F6.2°C 99% Calm Calm 4.5 mph7.2 kmh 29.54 in1000.3 mb 0.00 in0.0 mm 0.00 in0.0 mm 0.01 in0.3 mm
02:44 AM 43.3°F6.3°C 43.1°F6.2°C 99% Calm Calm 4.5 mph7.2 kmh 29.55 in1000.7 mb 0.00 in0.0 mm 0.00 in0.0 mm 0.01 in0.3 mm
02:43 AM 43.3°F6.3°C 43.1°F6.2°C 99% Calm Calm 4.5 mph7.2 kmh 29.55 in1000.7 mb 0.00 in0.0 mm 0.00 in0.0 mm 0.01 in0.3 mm
02:42 AM 43.3°F6.3°C 43.1°F6.2°C 99% Calm Calm 4.5 mph7.2 kmh 29.55 in1000.7 mb 0.00 in0.0 mm 0.00 in0.0 mm 0.01 in0.3 mm
02:41 AM 43.3°F6.3°C 43.1°F6.2°C 99% 0.7 mph SW1.1 kmh SW 4.5 mph7.2 kmh 29.55 in1000.7 mb 0.00 in0.0 mm 0.00 in0.0 mm 0.01 in0.3 mm
02:40 AM 43.3°F6.3°C 43.1°F6.2°C 99% 0.7 mph WSW1.1 kmh WSW 4.5 mph7.2 kmh 29.55 in1000.7 mb 0.00 in0.0 mm 0.00 in0.0 mm 0.01 in0.3 mm
02:39 AM 43.3°F6.3°C 43.1°F6.2°C 99% 0.7 mph SW1.1 kmh SW 4.5 mph7.2 kmh 29.55 in1000.7 mb 0.00 in0.0 mm 0.00 in0.0 mm 0.01 in0.3 mm
02:38 AM 43.3°F6.3°C 43.1°F6.2°C 99% Calm Calm 4.5 mph7.2 kmh 29.55 in1000.7 mb 0.00 in0.0 mm 0.00 in0.0 mm 0.01 in0.3 mm
02:37 AM 43.3°F6.3°C 43.1°F6.2°C 99% Calm Calm 3.8 mph6.1 kmh 29.55 in1000.7 mb 0.00 in0.0 mm 0.00 in0.0 mm 0.01 in0.3 mm
02:36 AM 43.3°F6.3°C 43.1°F6.2°C 99% Calm Calm 2.2 mph3.5 kmh 29.55 in1000.7 mb 0.00 in0.0 mm 0.00 in0.0 mm 0.01 in0.3 mm
02:35 AM 43.3°F6.3°C 43.1°F6.2°C 99% Calm Calm 2.2 mph3.5 kmh 29.55 in1000.7 mb 0.00 in0.0 mm 0.00 in0.0 mm 0.01 in0.3 mm
02:34 AM 43.3°F6.3°C 43.1°F6.2°C 99% Calm Calm 2.2 mph3.5 kmh 29.55 in1000.7 mb 0.00 in0.0 mm 0.00 in0.0 mm 0.01 in0.3 mm
02:33 AM 43.3°F6.3°C 43.1°F6.2°C 99% Calm Calm 2.2 mph3.5 kmh 29.55 in1000.7 mb 0.00 in0.0 mm 0.00 in0.0 mm 0.01 in0.3 mm
02:32 AM 43.3°F6.3°C 43.1°F6.2°C 99% 0.7 mph S1.1 kmh S 3.8 mph6.1 kmh 29.55 in1000.7 mb 0.00 in0.0 mm 0.00 in0.0 mm 0.01 in0.3 mm
02:31 AM 43.3°F6.3°C 43.1°F6.2°C 99% Calm Calm 3.8 mph6.1 kmh 29.55 in1000.7 mb 0.00 in0.0 mm 0.00 in0.0 mm 0.01 in0.3 mm
02:30 AM 43.3°F6.3°C 43.1°F6.2°C 99% Calm Calm 3.8 mph6.1 kmh 29.54 in1000.3 mb 0.00 in0.0 mm 0.00 in0.0 mm 0.01 in0.3 mm
02:29 AM 43.3°F6.3°C 43.1°F6.2°C 99% Calm Calm 3.8 mph6.1 kmh 29.55 in1000.7 mb 0.00 in0.0 mm 0.00 in0.0 mm 0.01 in0.3 mm
02:28 AM 43.3°F6.3°C 43.1°F6.2°C 99% Calm Calm 3.8 mph6.1 kmh 29.54 in1000.3 mb 0.00 in0.0 mm 0.00 in0.0 mm 0.01 in0.3 mm
02:27 AM 43.3°F6.3°C 43.1°F6.2°C 99% Calm Calm 3.8 mph6.1 kmh 29.55 in1000.7 mb 0.00 in0.0 mm 0.00 in0.0 mm 0.01 in0.3 mm
02:26 AM 43.5°F6.4°C 43.3°F6.3°C 99% Calm Calm 3.8 mph6.1 kmh 29.55 in1000.7 mb 0.00 in0.0 mm 0.00 in0.0 mm 0.01 in0.3 mm
02:25 AM 43.5°F6.4°C 43.3°F6.3°C 99% Calm Calm 3.8 mph6.1 kmh 29.55 in1000.7 mb 0.00 in0.0 mm 0.00 in0.0 mm 0.01 in0.3 mm
02:24 AM 43.3°F6.3°C 43.1°F6.2°C 99% Calm Calm 3.8 mph6.1 kmh 29.55 in1000.7 mb 0.00 in0.0 mm 0.00 in0.0 mm 0.01 in0.3 mm
02:23 AM 43.5°F6.4°C 43.3°F6.3°C 99% Calm Calm 3.8 mph6.1 kmh 29.54 in1000.3 mb 0.00 in0.0 mm 0.00 in0.0 mm 0.01 in0.3 mm
02:22 AM 43.5°F6.4°C 43.3°F6.3°C 99% 0.7 mph W1.1 kmh W 3.8 mph6.1 kmh 29.55 in1000.7 mb 0.00 in0.0 mm 0.00 in0.0 mm 0.01 in0.3 mm
02:21 AM 43.5°F6.4°C 43.3°F6.3°C 99% Calm Calm 3.1 mph5.0 kmh 29.55 in1000.7 mb 0.00 in0.0 mm 0.00 in0.0 mm 0.01 in0.3 mm
02:20 AM 43.5°F6.4°C 43.3°F6.3°C 99% Calm Calm 3.1 mph5.0 kmh 29.55 in1000.7 mb 0.01 in0.3 mm 0.00 in0.0 mm 0.01 in0.3 mm
02:19 AM 43.5°F6.4°C 43.3°F6.3°C 99% Calm Calm 3.1 mph5.0 kmh 29.55 in1000.7 mb 0.01 in0.3 mm 0.00 in0.0 mm 0.01 in0.3 mm
02:18 AM 43.5°F6.4°C 43.3°F6.3°C 99% Calm Calm 3.1 mph5.0 kmh 29.54 in1000.3 mb 0.01 in0.3 mm 0.00 in0.0 mm 0.01 in0.3 mm
02:17 AM 43.5°F6.4°C 43.3°F6.3°C 99% Calm Calm 3.1 mph5.0 kmh 29.54 in1000.3 mb 0.01 in0.3 mm 0.00 in0.0 mm 0.01 in0.3 mm
02:16 AM 43.5°F6.4°C 43.3°F6.3°C 99% 0.7 mph WSW1.1 kmh WSW 3.1 mph5.0 kmh 29.55 in1000.7 mb 0.01 in0.3 mm 0.00 in0.0 mm 0.01 in0.3 mm
02:15 AM 43.5°F6.4°C 43.3°F6.3°C 99% Calm Calm 2.2 mph3.5 kmh 29.55 in1000.7 mb 0.01 in0.3 mm 0.00 in0.0 mm 0.01 in0.3 mm
02:14 AM 43.5°F6.4°C 43.3°F6.3°C 99% Calm Calm 2.2 mph3.5 kmh 29.55 in1000.7 mb 0.01 in0.3 mm 0.00 in0.0 mm 0.01 in0.3 mm
02:13 AM 43.5°F6.4°C 43.3°F6.3°C 99% Calm Calm 2.2 mph3.5 kmh 29.55 in1000.7 mb 0.01 in0.3 mm 0.00 in0.0 mm 0.01 in0.3 mm
02:12 AM 43.5°F6.4°C 43.3°F6.3°C 99% Calm Calm 2.2 mph3.5 kmh 29.55 in1000.7 mb 0.01 in0.3 mm 0.00 in0.0 mm 0.01 in0.3 mm
02:11 AM 43.5°F6.4°C 43.3°F6.3°C 99% Calm Calm 0.7 mph1.1 kmh 29.55 in1000.7 mb 0.01 in0.3 mm 0.00 in0.0 mm 0.01 in0.3 mm
02:10 AM 43.5°F6.4°C 43.3°F6.3°C 99% Calm Calm 0.7 mph1.1 kmh 29.55 in1000.7 mb 0.01 in0.3 mm 0.00 in0.0 mm 0.01 in0.3 mm
02:09 AM 43.5°F6.4°C 43.3°F6.3°C 99% Calm Calm 0.7 mph1.1 kmh 29.55 in1000.7 mb 0.01 in0.3 mm 0.00 in0.0 mm 0.01 in0.3 mm
02:08 AM 43.5°F6.4°C 43.3°F6.3°C 99% Calm Calm 0.7 mph1.1 kmh 29.55 in1000.7 mb 0.01 in0.3 mm 0.00 in0.0 mm 0.01 in0.3 mm
02:07 AM 43.5°F6.4°C 43.3°F6.3°C 99% Calm Calm 0.7 mph1.1 kmh 29.55 in1000.7 mb 0.01 in0.3 mm 0.00 in0.0 mm 0.01 in0.3 mm
02:06 AM 43.5°F6.4°C 43.3°F6.3°C 99% Calm Calm 0.7 mph1.1 kmh 29.55 in1000.7 mb 0.01 in0.3 mm 0.00 in0.0 mm 0.01 in0.3 mm
02:05 AM 43.5°F6.4°C 43.3°F6.3°C 99% Calm Calm 0.7 mph1.1 kmh 29.55 in1000.7 mb 0.01 in0.3 mm 0.00 in0.0 mm 0.01 in0.3 mm
02:04 AM 43.5°F6.4°C 43.3°F6.3°C 99% Calm Calm 0.7 mph1.1 kmh 29.55 in1000.7 mb 0.01 in0.3 mm 0.00 in0.0 mm 0.01 in0.3 mm
02:03 AM 43.5°F6.4°C 43.3°F6.3°C 99% Calm Calm 2.2 mph3.5 kmh 29.55 in1000.7 mb 0.01 in0.3 mm 0.00 in0.0 mm 0.01 in0.3 mm
02:02 AM 43.5°F6.4°C 43.3°F6.3°C 99% Calm Calm 2.2 mph3.5 kmh 29.55 in1000.7 mb 0.01 in0.3 mm 0.00 in0.0 mm 0.01 in0.3 mm
02:01 AM 43.5°F6.4°C 43.3°F6.3°C 99% Calm Calm 3.8 mph6.1 kmh 29.55 in1000.7 mb 0.01 in0.3 mm 0.00 in0.0 mm 0.01 in0.3 mm
02:00 AM 43.5°F6.4°C 43.3°F6.3°C 99% Calm Calm 3.8 mph6.1 kmh 29.55 in1000.7 mb 0.01 in0.3 mm 0.00 in0.0 mm 0.01 in0.3 mm
01:59 AM 43.5°F6.4°C 43.3°F6.3°C 99% Calm Calm 3.8 mph6.1 kmh 29.55 in1000.7 mb 0.01 in0.3 mm 0.00 in0.0 mm 0.01 in0.3 mm
01:58 AM 43.5°F6.4°C 43.3°F6.3°C 99% Calm Calm 3.8 mph6.1 kmh 29.55 in1000.7 mb 0.01 in0.3 mm 0.00 in0.0 mm 0.01 in0.3 mm
01:57 AM 43.5°F6.4°C 43.3°F6.3°C 99% Calm Calm 3.8 mph6.1 kmh 29.55 in1000.7 mb 0.01 in0.3 mm 0.00 in0.0 mm 0.01 in0.3 mm
01:56 AM 43.5°F6.4°C 43.3°F6.3°C 99% Calm Calm 3.8 mph6.1 kmh 29.55 in1000.7 mb 0.01 in0.3 mm 0.00 in0.0 mm 0.01 in0.3 mm
01:55 AM 43.5°F6.4°C 43.3°F6.3°C 99% Calm Calm 3.8 mph6.1 kmh 29.55 in1000.7 mb 0.01 in0.3 mm 0.00 in0.0 mm 0.01 in0.3 mm
01:54 AM 43.5°F6.4°C 43.3°F6.3°C 99% Calm Calm 3.8 mph6.1 kmh 29.55 in1000.7 mb 0.01 in0.3 mm 0.00 in0.0 mm 0.01 in0.3 mm
01:53 AM 43.5°F6.4°C 43.3°F6.3°C 99% Calm Calm 3.8 mph6.1 kmh 29.55 in1000.7 mb 0.01 in0.3 mm 0.00 in0.0 mm 0.01 in0.3 mm
01:52 AM 43.5°F6.4°C 43.3°F6.3°C 99% Calm Calm 3.8 mph6.1 kmh 29.55 in1000.7 mb 0.01 in0.3 mm 0.00 in0.0 mm 0.01 in0.3 mm
01:51 AM 43.5°F6.4°C 43.3°F6.3°C 99% Calm Calm 3.8 mph6.1 kmh 29.55 in1000.7 mb 0.01 in0.3 mm 0.00 in0.0 mm 0.01 in0.3 mm
01:50 AM 43.5°F6.4°C 43.3°F6.3°C 99% Calm Calm 1.6 mph2.6 kmh 29.55 in1000.7 mb 0.01 in0.3 mm 0.00 in0.0 mm 0.01 in0.3 mm
01:49 AM 43.5°F6.4°C 43.3°F6.3°C 99% Calm Calm 1.6 mph2.6 kmh 29.55 in1000.7 mb 0.01 in0.3 mm 0.00 in0.0 mm 0.01 in0.3 mm
01:48 AM 43.5°F6.4°C 43.3°F6.3°C 99% Calm Calm 1.6 mph2.6 kmh 29.55 in1000.7 mb 0.01 in0.3 mm 0.00 in0.0 mm 0.01 in0.3 mm
01:47 AM 43.5°F6.4°C 43.3°F6.3°C 99% Calm Calm 1.6 mph2.6 kmh 29.55 in1000.7 mb 0.01 in0.3 mm 0.00 in0.0 mm 0.01 in0.3 mm
01:46 AM 43.5°F6.4°C 43.3°F6.3°C 99% Calm Calm 1.6 mph2.6 kmh 29.54 in1000.3 mb 0.01 in0.3 mm 0.00 in0.0 mm 0.01 in0.3 mm
01:45 AM 43.5°F6.4°C 43.3°F6.3°C 99% Calm Calm 1.6 mph2.6 kmh 29.55 in1000.7 mb 0.01 in0.3 mm 0.00 in0.0 mm 0.01 in0.3 mm
01:44 AM 43.5°F6.4°C 43.3°F6.3°C 99% 0.7 mph S1.1 kmh S 1.6 mph2.6 kmh 29.55 in1000.7 mb 0.01 in0.3 mm 0.00 in0.0 mm 0.01 in0.3 mm
01:43 AM 43.5°F6.4°C 43.3°F6.3°C 99% Calm Calm 1.6 mph2.6 kmh 29.55 in1000.7 mb 0.01 in0.3 mm 0.00 in0.0 mm 0.01 in0.3 mm
01:42 AM 43.5°F6.4°C 43.3°F6.3°C 99% Calm Calm 1.6 mph2.6 kmh 29.55 in1000.7 mb 0.01 in0.3 mm 0.00 in0.0 mm 0.01 in0.3 mm
01:41 AM 43.5°F6.4°C 43.3°F6.3°C 99% Calm Calm 1.6 mph2.6 kmh 29.55 in1000.7 mb 0.01 in0.3 mm 0.00 in0.0 mm 0.01 in0.3 mm
01:40 AM 43.5°F6.4°C 43.3°F6.3°C 99% Calm Calm 1.6 mph2.6 kmh 29.55 in1000.7 mb 0.01 in0.3 mm 0.00 in0.0 mm 0.01 in0.3 mm
01:39 AM 43.5°F6.4°C 43.3°F6.3°C 99% Calm Calm 1.6 mph2.6 kmh 29.55 in1000.7 mb 0.01 in0.3 mm 0.00 in0.0 mm 0.01 in0.3 mm
01:38 AM 43.5°F6.4°C 43.3°F6.3°C 99% Calm Calm 1.6 mph2.6 kmh 29.55 in1000.7 mb 0.01 in0.3 mm 0.00 in0.0 mm 0.01 in0.3 mm
01:37 AM 43.5°F6.4°C 43.3°F6.3°C 99% Calm Calm 1.6 mph2.6 kmh 29.55 in1000.7 mb 0.01 in0.3 mm 0.00 in0.0 mm 0.01 in0.3 mm
01:36 AM 43.5°F6.4°C 43.3°F6.3°C 99% Calm Calm 1.6 mph2.6 kmh 29.55 in1000.7 mb 0.01 in0.3 mm 0.00 in0.0 mm 0.01 in0.3 mm
01:35 AM 43.5°F6.4°C 43.3°F6.3°C 99% Calm Calm 1.6 mph2.6 kmh 29.55 in1000.7 mb 0.01 in0.3 mm 0.00 in0.0 mm 0.01 in0.3 mm
01:34 AM 43.5°F6.4°C 43.3°F6.3°C 99% Calm Calm 1.6 mph2.6 kmh 29.55 in1000.7 mb 0.01 in0.3 mm 0.00 in0.0 mm 0.01 in0.3 mm
01:33 AM 43.5°F6.4°C 43.3°F6.3°C 99% Calm Calm 1.6 mph2.6 kmh 29.55 in1000.7 mb 0.01 in0.3 mm 0.00 in0.0 mm 0.01 in0.3 mm
01:32 AM 43.5°F6.4°C 43.3°F6.3°C 99% Calm Calm 1.6 mph2.6 kmh 29.55 in1000.7 mb 0.01 in0.3 mm 0.00 in0.0 mm 0.01 in0.3 mm
01:31 AM 43.5°F6.4°C 43.3°F6.3°C 99% Calm Calm 1.6 mph2.6 kmh 29.55 in1000.7 mb 0.01 in0.3 mm 0.00 in0.0 mm 0.01 in0.3 mm
01:30 AM 43.5°F6.4°C 43.3°F6.3°C 99% Calm Calm 2.2 mph3.5 kmh 29.55 in1000.7 mb 0.01 in0.3 mm 0.00 in0.0 mm 0.01 in0.3 mm
01:29 AM 43.5°F6.4°C 43.3°F6.3°C 99% Calm Calm 2.2 mph3.5 kmh 29.55 in1000.7 mb 0.01 in0.3 mm 0.00 in0.0 mm 0.01 in0.3 mm
01:28 AM 43.5°F6.4°C 43.3°F6.3°C 99% Calm Calm 2.2 mph3.5 kmh 29.55 in1000.7 mb 0.01 in0.3 mm 0.00 in0.0 mm 0.01 in0.3 mm
01:27 AM 43.5°F6.4°C 43.3°F6.3°C 99% Calm Calm 2.2 mph3.5 kmh 29.55 in1000.7 mb 0.01 in0.3 mm 0.00 in0.0 mm 0.01 in0.3 mm
01:26 AM 43.5°F6.4°C 43.3°F6.3°C 99% Calm Calm 2.2 mph3.5 kmh 29.55 in1000.7 mb 0.01 in0.3 mm 0.00 in0.0 mm 0.01 in0.3 mm
01:25 AM 43.5°F6.4°C 43.3°F6.3°C 99% Calm Calm 2.2 mph3.5 kmh 29.55 in1000.7 mb 0.01 in0.3 mm 0.00 in0.0 mm 0.01 in0.3 mm
01:24 AM 43.5°F6.4°C 43.3°F6.3°C 99% Calm Calm 2.2 mph3.5 kmh 29.55 in1000.7 mb 0.01 in0.3 mm 0.00 in0.0 mm 0.01 in0.3 mm
01:23 AM 43.5°F6.4°C 43.3°F6.3°C 99% Calm Calm 2.2 mph3.5 kmh 29.55 in1000.7 mb 0.01 in0.3 mm 0.00 in0.0 mm 0.01 in0.3 mm
01:22 AM 43.5°F6.4°C 43.3°F6.3°C 99% Calm Calm 2.2 mph3.5 kmh 29.55 in1000.7 mb 0.01 in0.3 mm 0.00 in0.0 mm 0.01 in0.3 mm
01:21 AM 43.5°F6.4°C 43.3°F6.3°C 99% Calm Calm 2.2 mph3.5 kmh 29.55 in1000.7 mb 0.01 in0.3 mm 0.60 in15.2 mm 0.01 in0.3 mm
01:20 AM 43.5°F6.4°C 43.3°F6.3°C 99% Calm Calm 0.7 mph1.1 kmh 29.55 in1000.7 mb 0.00 in0.0 mm 0.00 in0.0 mm 0.00 in0.0 mm
01:19 AM 43.5°F6.4°C 43.3°F6.3°C 99% Calm Calm 1.6 mph2.6 kmh 29.55 in1000.7 mb 0.00 in0.0 mm 0.00 in0.0 mm 0.00 in0.0 mm
01:18 AM 43.5°F6.4°C 43.3°F6.3°C 99% Calm Calm 1.6 mph2.6 kmh 29.55 in1000.7 mb 0.00 in0.0 mm 0.00 in0.0 mm 0.00 in0.0 mm
01:17 AM 43.5°F6.4°C 43.3°F6.3°C 99% Calm Calm 1.6 mph2.6 kmh 29.55 in1000.7 mb 0.00 in0.0 mm 0.00 in0.0 mm 0.00 in0.0 mm
01:16 AM 43.5°F6.4°C 43.3°F6.3°C 99% Calm Calm 1.6 mph2.6 kmh 29.54 in1000.3 mb 0.00 in0.0 mm 0.00 in0.0 mm 0.00 in0.0 mm
01:15 AM 43.5°F6.4°C 43.3°F6.3°C 99% Calm Calm 1.6 mph2.6 kmh 29.55 in1000.7 mb 0.00 in0.0 mm 0.00 in0.0 mm 0.00 in0.0 mm
01:14 AM 43.5°F6.4°C 43.3°F6.3°C 99% Calm Calm 1.6 mph2.6 kmh 29.54 in1000.3 mb 0.00 in0.0 mm 0.00 in0.0 mm 0.00 in0.0 mm
01:13 AM 43.5°F6.4°C 43.3°F6.3°C 99% Calm Calm 1.6 mph2.6 kmh 29.55 in1000.7 mb 0.00 in0.0 mm 0.00 in0.0 mm 0.00 in0.0 mm
01:12 AM 43.5°F6.4°C 43.3°F6.3°C 99% Calm Calm 1.6 mph2.6 kmh 29.55 in1000.7 mb 0.00 in0.0 mm 0.00 in0.0 mm 0.00 in0.0 mm
01:11 AM 43.5°F6.4°C 43.3°F6.3°C 99% Calm Calm 2.2 mph3.5 kmh 29.55 in1000.7 mb 0.00 in0.0 mm 0.00 in0.0 mm 0.00 in0.0 mm
01:10 AM 43.5°F6.4°C 43.3°F6.3°C 99% Calm Calm 2.2 mph3.5 kmh 29.55 in1000.7 mb 0.00 in0.0 mm 0.00 in0.0 mm 0.00 in0.0 mm
01:09 AM 43.5°F6.4°C 43.3°F6.3°C 99% Calm Calm 2.2 mph3.5 kmh 29.55 in1000.7 mb 0.00 in0.0 mm 0.00 in0.0 mm 0.00 in0.0 mm
01:08 AM 43.5°F6.4°C 43.3°F6.3°C 99% Calm Calm 3.1 mph5.0 kmh 29.55 in1000.7 mb 0.00 in0.0 mm 0.00 in0.0 mm 0.00 in0.0 mm
01:07 AM 43.5°F6.4°C 43.3°F6.3°C 99% Calm Calm 3.1 mph5.0 kmh 29.55 in1000.7 mb 0.00 in0.0 mm 0.00 in0.0 mm 0.00 in0.0 mm
01:06 AM 43.5°F6.4°C 43.3°F6.3°C 99% Calm Calm 3.1 mph5.0 kmh 29.56 in1001.0 mb 0.00 in0.0 mm 0.00 in0.0 mm 0.00 in0.0 mm
01:05 AM 43.5°F6.4°C 43.3°F6.3°C 99% Calm Calm 3.1 mph5.0 kmh 29.55 in1000.7 mb 0.00 in0.0 mm 0.00 in0.0 mm 0.00 in0.0 mm
01:04 AM 43.5°F6.4°C 43.3°F6.3°C 99% Calm Calm 3.1 mph5.0 kmh 29.55 in1000.7 mb 0.00 in0.0 mm 0.00 in0.0 mm 0.00 in0.0 mm
01:03 AM 43.5°F6.4°C 43.3°F6.3°C 99% Calm Calm 3.1 mph5.0 kmh 29.55 in1000.7 mb 0.00 in0.0 mm 0.00 in0.0 mm 0.00 in0.0 mm
01:02 AM 43.5°F6.4°C 43.3°F6.3°C 99% Calm Calm 3.1 mph5.0 kmh 29.55 in1000.7 mb 0.00 in0.0 mm 0.00 in0.0 mm 0.00 in0.0 mm
01:01 AM 43.5°F6.4°C 43.3°F6.3°C 99% Calm Calm 3.1 mph5.0 kmh 29.55 in1000.7 mb 0.00 in0.0 mm 0.00 in0.0 mm 0.00 in0.0 mm
01:00 AM 43.5°F6.4°C 43.3°F6.3°C 99% Calm Calm 3.1 mph5.0 kmh 29.55 in1000.7 mb 0.00 in0.0 mm 0.00 in0.0 mm 0.00 in0.0 mm
12:59 AM 43.5°F6.4°C 43.3°F6.3°C 99% Calm Calm 3.1 mph5.0 kmh 29.55 in1000.7 mb 0.00 in0.0 mm 0.00 in0.0 mm 0.00 in0.0 mm
12:58 AM 43.7°F6.5°C 43.4°F6.3°C 99% 1.6 mph NW2.6 kmh NW 3.1 mph5.0 kmh 29.55 in1000.7 mb 0.00 in0.0 mm 0.00 in0.0 mm 0.00 in0.0 mm
12:57 AM 43.7°F6.5°C 43.4°F6.3°C 99% 0.7 mph WNW1.1 kmh WNW 3.1 mph5.0 kmh 29.55 in1000.7 mb 0.00 in0.0 mm 0.00 in0.0 mm 0.00 in0.0 mm
12:56 AM 43.7°F6.5°C 43.4°F6.3°C 99% Calm Calm 1.6 mph2.6 kmh 29.55 in1000.7 mb 0.00 in0.0 mm 0.00 in0.0 mm 0.00 in0.0 mm
12:55 AM 43.7°F6.5°C 43.4°F6.3°C 99% Calm Calm 2.2 mph3.5 kmh 29.55 in1000.7 mb 0.00 in0.0 mm 0.00 in0.0 mm 0.00 in0.0 mm
12:54 AM 43.7°F6.5°C 43.4°F6.3°C 99% Calm Calm 2.2 mph3.5 kmh 29.55 in1000.7 mb 0.00 in0.0 mm 0.00 in0.0 mm 0.00 in0.0 mm
12:53 AM 43.5°F6.4°C 43.3°F6.3°C 99% Calm Calm 2.2 mph3.5 kmh 29.56 in1001.0 mb 0.00 in0.0 mm 0.00 in0.0 mm 0.00 in0.0 mm
12:52 AM 43.7°F6.5°C 43.4°F6.3°C 99% Calm Calm 2.2 mph3.5 kmh 29.55 in1000.7 mb 0.00 in0.0 mm 0.00 in0.0 mm 0.00 in0.0 mm
12:51 AM 43.5°F6.4°C 43.3°F6.3°C 99% Calm Calm 2.2 mph3.5 kmh 29.55 in1000.7 mb 0.00 in0.0 mm 0.00 in0.0 mm 0.00 in0.0 mm
12:50 AM 43.7°F6.5°C 43.4°F6.3°C 99% Calm Calm 3.1 mph5.0 kmh 29.55 in1000.7 mb 0.00 in0.0 mm 0.00 in0.0 mm 0.00 in0.0 mm
12:49 AM 43.7°F6.5°C 43.4°F6.3°C 99% Calm Calm 3.1 mph5.0 kmh 29.55 in1000.7 mb 0.00 in0.0 mm 0.00 in0.0 mm 0.00 in0.0 mm
12:48 AM 43.7°F6.5°C 43.4°F6.3°C 99% Calm Calm 3.1 mph5.0 kmh 29.55 in1000.7 mb 0.00 in0.0 mm 0.00 in0.0 mm 0.00 in0.0 mm
12:47 AM 43.7°F6.5°C 43.4°F6.3°C 99% Calm Calm 3.1 mph5.0 kmh 29.55 in1000.7 mb 0.00 in0.0 mm 0.00 in0.0 mm 0.00 in0.0 mm
12:46 AM 43.7°F6.5°C 43.4°F6.3°C 99% Calm Calm 3.1 mph5.0 kmh 29.55 in1000.7 mb 0.00 in0.0 mm 0.00 in0.0 mm 0.00 in0.0 mm
12:45 AM 43.7°F6.5°C 43.4°F6.3°C 99% 0.7 mph WSW1.1 kmh WSW 3.1 mph5.0 kmh 29.55 in1000.7 mb 0.00 in0.0 mm 0.00 in0.0 mm 0.00 in0.0 mm
12:44 AM 43.7°F6.5°C 43.4°F6.3°C 99% Calm Calm 3.1 mph5.0 kmh 29.55 in1000.7 mb 0.00 in0.0 mm 0.00 in0.0 mm 0.00 in0.0 mm
12:43 AM 43.7°F6.5°C 43.4°F6.3°C 99% Calm Calm 3.1 mph5.0 kmh 29.55 in1000.7 mb 0.00 in0.0 mm 0.00 in0.0 mm 0.00 in0.0 mm
12:42 AM 43.7°F6.5°C 43.4°F6.3°C 99% Calm Calm 3.1 mph5.0 kmh 29.55 in1000.7 mb 0.00 in0.0 mm 0.00 in0.0 mm 0.00 in0.0 mm
12:41 AM 43.7°F6.5°C 43.4°F6.3°C 99% 0.7 mph W1.1 kmh W 3.1 mph5.0 kmh 29.55 in1000.7 mb 0.00 in0.0 mm 0.00 in0.0 mm 0.00 in0.0 mm
12:40 AM 43.7°F6.5°C 43.4°F6.3°C 99% 0.7 mph W1.1 kmh W 3.1 mph5.0 kmh 29.55 in1000.7 mb 0.00 in0.0 mm 0.00 in0.0 mm 0.00 in0.0 mm
12:39 AM 43.7°F6.5°C 43.4°F6.3°C 99% Calm Calm 2.2 mph3.5 kmh 29.55 in1000.7 mb 0.00 in0.0 mm 0.00 in0.0 mm 0.00 in0.0 mm
12:38 AM 43.7°F6.5°C 43.4°F6.3°C 99% Calm Calm 2.2 mph3.5 kmh 29.56 in1001.0 mb 0.00 in0.0 mm 0.00 in0.0 mm 0.00 in0.0 mm
12:37 AM 43.9°F6.6°C 43.6°F6.4°C 99% Calm Calm 2.2 mph3.5 kmh 29.56 in1001.0 mb 0.00 in0.0 mm 0.00 in0.0 mm 0.00 in0.0 mm
12:36 AM 43.7°F6.5°C 43.4°F6.3°C 99% Calm Calm 2.2 mph3.5 kmh 29.56 in1001.0 mb 0.00 in0.0 mm 0.00 in0.0 mm 0.00 in0.0 mm
12:35 AM 43.9°F6.6°C 43.6°F6.4°C 99% Calm Calm 2.2 mph3.5 kmh 29.56 in1001.0 mb 0.00 in0.0 mm 0.00 in0.0 mm 0.00 in0.0 mm
12:34 AM 43.9°F6.6°C 43.6°F6.4°C 99% Calm Calm 2.2 mph3.5 kmh 29.56 in1001.0 mb 0.00 in0.0 mm 0.00 in0.0 mm 0.00 in0.0 mm
12:33 AM 43.9°F6.6°C 43.6°F6.4°C 99% Calm Calm 2.2 mph3.5 kmh 29.56 in1001.0 mb 0.00 in0.0 mm 0.00 in0.0 mm 0.00 in0.0 mm
12:32 AM 43.9°F6.6°C 43.6°F6.4°C 99% Calm Calm 2.2 mph3.5 kmh 29.56 in1001.0 mb 0.00 in0.0 mm 0.00 in0.0 mm 0.00 in0.0 mm
12:31 AM 43.9°F6.6°C 43.6°F6.4°C 99% Calm Calm 2.2 mph3.5 kmh 29.56 in1001.0 mb 0.00 in0.0 mm 0.00 in0.0 mm 0.00 in0.0 mm
12:30 AM 43.9°F6.6°C 43.6°F6.4°C 99% Calm Calm 2.2 mph3.5 kmh 29.56 in1001.0 mb 0.00 in0.0 mm 0.00 in0.0 mm 0.00 in0.0 mm
12:29 AM 43.9°F6.6°C 43.6°F6.4°C 99% Calm Calm 2.2 mph3.5 kmh 29.56 in1001.0 mb 0.00 in0.0 mm 0.00 in0.0 mm 0.00 in0.0 mm
12:28 AM 43.9°F6.6°C 43.6°F6.4°C 99% Calm Calm 2.2 mph3.5 kmh 29.56 in1001.0 mb 0.00 in0.0 mm 0.00 in0.0 mm 0.00 in0.0 mm
12:27 AM 43.9°F6.6°C 43.6°F6.4°C 99% Calm Calm 2.2 mph3.5 kmh 29.56 in1001.0 mb 0.00 in0.0 mm 0.00 in0.0 mm 0.00 in0.0 mm
12:26 AM 43.9°F6.6°C 43.6°F6.4°C 99% Calm Calm 3.1 mph5.0 kmh 29.56 in1001.0 mb 0.00 in0.0 mm 0.00 in0.0 mm 0.00 in0.0 mm
12:25 AM 43.9°F6.6°C 43.6°F6.4°C 99% 0.7 mph SSW1.1 kmh SSW 3.1 mph5.0 kmh 29.57 in1001.4 mb 0.00 in0.0 mm 0.00 in0.0 mm 0.00 in0.0 mm
12:24 AM 43.9°F6.6°C 43.6°F6.4°C 99% Calm Calm 3.1 mph5.0 kmh 29.56 in1001.0 mb 0.00 in0.0 mm 0.00 in0.0 mm 0.00 in0.0 mm
12:23 AM 43.9°F6.6°C 43.6°F6.4°C 99% Calm Calm 3.1 mph5.0 kmh 29.57 in1001.4 mb 0.00 in0.0 mm 0.00 in0.0 mm 0.00 in0.0 mm
12:22 AM 43.9°F6.6°C 43.6°F6.4°C 99% Calm Calm 3.1 mph5.0 kmh 29.57 in1001.4 mb 0.00 in0.0 mm 0.00 in0.0 mm 0.00 in0.0 mm
12:21 AM 43.9°F6.6°C 43.6°F6.4°C 99% Calm Calm 3.1 mph5.0 kmh 29.57 in1001.4 mb 0.00 in0.0 mm 0.00 in0.0 mm 0.00 in0.0 mm
12:20 AM 43.9°F6.6°C 43.6°F6.4°C 99% Calm Calm 3.1 mph5.0 kmh 29.57 in1001.4 mb 0.00 in0.0 mm 0.00 in0.0 mm 0.00 in0.0 mm
12:19 AM 43.9°F6.6°C 43.6°F6.4°C 99% Calm Calm 3.1 mph5.0 kmh 29.57 in1001.4 mb 0.00 in0.0 mm 0.00 in0.0 mm 0.00 in0.0 mm
12:18 AM 43.9°F6.6°C 43.6°F6.4°C 99% Calm Calm 3.1 mph5.0 kmh 29.57 in1001.4 mb 0.00 in0.0 mm 0.00 in0.0 mm 0.00 in0.0 mm
12:17 AM 43.9°F6.6°C 43.6°F6.4°C 99% Calm Calm 3.1 mph5.0 kmh 29.57 in1001.4 mb 0.00 in0.0 mm 0.00 in0.0 mm 0.00 in0.0 mm
12:16 AM 43.9°F6.6°C 43.6°F6.4°C 99% 0.7 mph S1.1 kmh S 3.1 mph5.0 kmh 29.57 in1001.4 mb 0.00 in0.0 mm 0.00 in0.0 mm 0.00 in0.0 mm
12:15 AM 43.9°F6.6°C 43.6°F6.4°C 99% Calm Calm 2.2 mph3.5 kmh 29.57 in1001.4 mb 0.00 in0.0 mm 0.00 in0.0 mm 0.00 in0.0 mm
12:14 AM 43.9°F6.6°C 43.6°F6.4°C 99% Calm Calm 2.2 mph3.5 kmh 29.56 in1001.0 mb 0.00 in0.0 mm 0.00 in0.0 mm 0.00 in0.0 mm
12:13 AM 43.9°F6.6°C 43.6°F6.4°C 99% Calm Calm 2.2 mph3.5 kmh 29.57 in1001.4 mb 0.00 in0.0 mm 0.00 in0.0 mm 0.00 in0.0 mm
12:12 AM 43.9°F6.6°C 43.6°F6.4°C 99% Calm Calm 2.2 mph3.5 kmh 29.57 in1001.4 mb 0.00 in0.0 mm 0.00 in0.0 mm 0.00 in0.0 mm
12:11 AM 44.1°F6.7°C 43.8°F6.6°C 99% Calm Calm 2.2 mph3.5 kmh 29.57 in1001.4 mb 0.00 in0.0 mm 0.00 in0.0 mm 0.00 in0.0 mm
12:10 AM 44.1°F6.7°C 43.8°F6.6°C 99% 0.7 mph SW1.1 kmh SW 2.2 mph3.5 kmh 29.57 in1001.4 mb 0.00 in0.0 mm 0.00 in0.0 mm 0.00 in0.0 mm
12:09 AM 43.9°F6.6°C 43.6°F6.4°C 99% 0.7 mph SW1.1 kmh SW 2.2 mph3.5 kmh 29.57 in1001.4 mb 0.00 in0.0 mm 0.00 in0.0 mm 0.00 in0.0 mm
12:08 AM 43.9°F6.6°C 43.6°F6.4°C 99% Calm Calm 2.2 mph3.5 kmh 29.57 in1001.4 mb 0.00 in0.0 mm 0.00 in0.0 mm 0.00 in0.0 mm
12:07 AM 43.9°F6.6°C 43.6°F6.4°C 99% Calm Calm 1.6 mph2.6 kmh 29.57 in1001.4 mb 0.00 in0.0 mm 0.00 in0.0 mm 0.00 in0.0 mm
12:06 AM 43.9°F6.6°C 43.6°F6.4°C 99% Calm Calm 1.6 mph2.6 kmh 29.57 in1001.4 mb 0.00 in0.0 mm 0.00 in0.0 mm 0.00 in0.0 mm
12:05 AM 43.9°F6.6°C 43.6°F6.4°C 99% Calm Calm 1.6 mph2.6 kmh 29.57 in1001.4 mb 0.00 in0.0 mm 0.00 in0.0 mm 0.00 in0.0 mm
12:04 AM 43.9°F6.6°C 43.6°F6.4°C 99% Calm Calm 1.6 mph2.6 kmh 29.57 in1001.4 mb 0.00 in0.0 mm 0.00 in0.0 mm 0.00 in0.0 mm
12:03 AM 43.9°F6.6°C 43.6°F6.4°C 99% Calm Calm 1.6 mph2.6 kmh 29.57 in1001.4 mb 0.00 in0.0 mm 0.00 in0.0 mm 0.00 in0.0 mm
12:02 AM 43.9°F6.6°C 43.6°F6.4°C 99% Calm Calm 1.6 mph2.6 kmh 29.57 in1001.4 mb 0.00 in0.0 mm 0.00 in0.0 mm 0.00 in0.0 mm
12:01 AM 43.9°F6.6°C 43.6°F6.4°C 99% Calm Calm 1.6 mph2.6 kmh 29.56 in1001.0 mb 0.00 in0.0 mm 0.00 in0.0 mm 0.00 in0.0 mm
12:00 AM 43.9°F6.6°C 43.6°F6.4°C 99% Calm Calm 3.1 mph5.0 kmh 29.57 in1001.4 mb 0.00 in0.0 mm 0.00 in0.0 mm 0.00 in0.0 mm